<?xml version='1.0' encoding='UTF-8'?><gpx version="1.1" creator="JPX - https://github.com/jenetics/jpx" xmlns="http://www.topografix.com/GPX/1/1"><trk><trkseg><trkpt lat="44.36414658171425" lon="10.867154340013657"><ele>630.0</ele><time>2026-04-05T16:54:30.999Z</time></trkpt><trkpt lat="44.36427688622144" lon="10.867180461516753"><ele>630.0</ele><time>2026-04-05T16:54:32.999Z</time></trkpt><trkpt lat="44.364373562449366" lon="10.867215921770027"><ele>630.0</ele><time>2026-04-05T16:54:33.999Z</time></trkpt><trkpt lat="44.364507194360456" lon="10.867222979962058"><ele>630.0</ele><time>2026-04-05T16:54:34.999Z</time></trkpt><trkpt lat="44.3646416099829" lon="10.867212264215196"><ele>631.2</ele><time>2026-04-05T16:54:35.999Z</time></trkpt><trkpt lat="44.36473453666851" lon="10.867177067278396"><ele>632.4</ele><time>2026-04-05T16:54:36.999Z</time></trkpt><trkpt lat="44.36484105914137" lon="10.867154973832623"><ele>633.6</ele><time>2026-04-05T16:54:38.999Z</time></trkpt><trkpt lat="44.36496150909313" lon="10.867150708664308"><ele>634.8</ele><time>2026-04-05T16:54:39.999Z</time></trkpt><trkpt lat="44.36503795194353" lon="10.86717005071822"><ele>636.0</ele><time>2026-04-05T16:54:41.999Z</time></trkpt><trkpt lat="44.3650407307359" lon="10.867285175629755"><ele>636.0</ele><time>2026-04-05T16:54:43.999Z</time></trkpt><trkpt lat="44.36502537117026" lon="10.867397611966556"><ele>636.0</ele><time>2026-04-05T16:54:44.999Z</time></trkpt><trkpt lat="44.364979244915105" lon="10.867549716204529"><ele>636.0</ele><time>2026-04-05T16:54:45.999Z</time></trkpt><trkpt lat="44.36495264514625" lon="10.867754789209757"><ele>636.0</ele><time>2026-04-05T16:54:46.999Z</time></trkpt><trkpt lat="44.364932181647525" lon="10.867932303870955"><ele>634.4</ele><time>2026-04-05T16:54:47.999Z</time></trkpt><trkpt lat="44.364932527838825" lon="10.868093607332172"><ele>632.8</ele><time>2026-04-05T16:54:48.999Z</time></trkpt><trkpt lat="44.36492820602604" lon="10.868240489352011"><ele>631.1999999999999</ele><time>2026-04-05T16:54:49.999Z</time></trkpt><trkpt lat="44.364929677812086" lon="10.868403442118327"><ele>629.6</ele><time>2026-04-05T16:54:50.999Z</time></trkpt><trkpt lat="44.364928772466904" lon="10.868531164042775"><ele>628.0</ele><time>2026-04-05T16:54:51.999Z</time></trkpt><trkpt lat="44.364932534043874" lon="10.86863507463766"><ele>627.0</ele><time>2026-04-05T16:54:52.999Z</time></trkpt><trkpt lat="44.3648924612688" lon="10.868771666579628"><ele>626.0</ele><time>2026-04-05T16:54:54.999Z</time></trkpt><trkpt lat="44.36489319567232" lon="10.868861895630051"><ele>625.0</ele><time>2026-04-05T16:54:56.999Z</time></trkpt><trkpt lat="44.36457477810619" lon="10.868985830707402"><ele>623.6</ele><time>2026-04-05T16:54:58.999Z</time></trkpt><trkpt lat="44.36450519304334" lon="10.86905724346301"><ele>622.2</ele><time>2026-04-05T16:54:59.999Z</time></trkpt><trkpt lat="44.36444174916015" lon="10.869138520925294"><ele>620.8</ele><time>2026-04-05T16:55:00.999Z</time></trkpt><trkpt lat="44.36440220961283" lon="10.869242689935852"><ele>619.4</ele><time>2026-04-05T16:55:01.999Z</time></trkpt><trkpt lat="44.364383198243125" lon="10.869383914396373"><ele>618.0</ele><time>2026-04-05T16:55:02.999Z</time></trkpt><trkpt lat="44.36436101559479" lon="10.869542183093511"><ele>618.0</ele><time>2026-04-05T16:55:03.999Z</time></trkpt><trkpt lat="44.36432494839562" lon="10.869714588296944"><ele>618.0</ele><time>2026-04-05T16:55:04.999Z</time></trkpt><trkpt lat="44.364300267318626" lon="10.869872706454766"><ele>618.0</ele><time>2026-04-05T16:55:05.999Z</time></trkpt><trkpt lat="44.36427160500774" lon="10.869998352938198"><ele>618.0</ele><time>2026-04-05T16:55:06.999Z</time></trkpt><trkpt lat="44.364253168814166" lon="10.870127528643792"><ele>618.0</ele><time>2026-04-05T16:55:07.999Z</time></trkpt><trkpt lat="44.364236100842035" lon="10.870247705596979"><ele>617.6666666666666</ele><time>2026-04-05T16:55:08.999Z</time></trkpt><trkpt lat="44.364247435522444" lon="10.870365519338922"><ele>617.3333333333334</ele><time>2026-04-05T16:55:09.999Z</time></trkpt><trkpt lat="44.36425208870114" lon="10.870479639305984"><ele>617.0</ele><time>2026-04-05T16:55:10.999Z</time></trkpt><trkpt lat="44.36426047283591" lon="10.87066547575452"><ele>616.6666666666667</ele><time>2026-04-05T16:55:12.999Z</time></trkpt><trkpt lat="44.364286269204" lon="10.870760871993527"><ele>616.3333333333334</ele><time>2026-04-05T16:55:13.999Z</time></trkpt><trkpt lat="44.36430436405493" lon="10.870859833908852"><ele>616.0</ele><time>2026-04-05T16:55:14.999Z</time></trkpt><trkpt lat="44.36430541390165" lon="10.87096213796461"><ele>614.6</ele><time>2026-04-05T16:55:15.999Z</time></trkpt><trkpt lat="44.36429053944074" lon="10.871089172315813"><ele>613.2</ele><time>2026-04-05T16:55:16.999Z</time></trkpt><trkpt lat="44.36428399443749" lon="10.871211127412348"><ele>611.8</ele><time>2026-04-05T16:55:17.999Z</time></trkpt><trkpt lat="44.36425632798244" lon="10.871336945652793"><ele>610.4</ele><time>2026-04-05T16:55:18.999Z</time></trkpt><trkpt lat="44.364218674229846" lon="10.871442842153815"><ele>609.0</ele><time>2026-04-05T16:55:19.999Z</time></trkpt><trkpt lat="44.364142975569926" lon="10.871534357846599"><ele>609.0</ele><time>2026-04-05T16:55:20.998Z</time></trkpt><trkpt lat="44.36407465780013" lon="10.871636834987916"><ele>609.0</ele><time>2026-04-05T16:55:21.998Z</time></trkpt><trkpt lat="44.36401524302248" lon="10.871741061021115"><ele>609.0</ele><time>2026-04-05T16:55:22.998Z</time></trkpt><trkpt lat="44.36396234849944" lon="10.871852611316978"><ele>609.0</ele><time>2026-04-05T16:55:23.998Z</time></trkpt><trkpt lat="44.36389795196298" lon="10.871992981286768"><ele>609.0</ele><time>2026-04-05T16:55:24.998Z</time></trkpt><trkpt lat="44.36384037880637" lon="10.87212581496469"><ele>605.6</ele><time>2026-04-05T16:55:25.998Z</time></trkpt><trkpt lat="44.363788511547085" lon="10.87223413471889"><ele>602.2</ele><time>2026-04-05T16:55:26.998Z</time></trkpt><trkpt lat="44.36373963167975" lon="10.872361421269362"><ele>598.8000000000001</ele><time>2026-04-05T16:55:27.998Z</time></trkpt><trkpt lat="44.3636972674067" lon="10.872472080666379"><ele>595.4</ele><time>2026-04-05T16:55:28.998Z</time></trkpt><trkpt lat="44.36364505574673" lon="10.872566250957906"><ele>592.0</ele><time>2026-04-05T16:55:29.998Z</time></trkpt><trkpt lat="44.36359902718293" lon="10.872659242607035"><ele>592.0</ele><time>2026-04-05T16:55:30.998Z</time></trkpt><trkpt lat="44.363564664428836" lon="10.872755697779604"><ele>592.0</ele><time>2026-04-05T16:55:31.998Z</time></trkpt><trkpt lat="44.363527687633386" lon="10.872878656946845"><ele>592.0</ele><time>2026-04-05T16:55:32.998Z</time></trkpt><trkpt lat="44.36348841733426" lon="10.873015076949166"><ele>592.0</ele><time>2026-04-05T16:55:33.998Z</time></trkpt><trkpt lat="44.363444579690615" lon="10.87313141749363"><ele>592.0</ele><time>2026-04-05T16:55:35Z</time></trkpt><trkpt lat="44.36338292250611" lon="10.87322883304677"><ele>592.0</ele><time>2026-04-05T16:55:36Z</time></trkpt><trkpt lat="44.36334205132069" lon="10.873355298743416"><ele>592.0</ele><time>2026-04-05T16:55:37Z</time></trkpt><trkpt lat="44.36326833410002" lon="10.873433735778192"><ele>592.0</ele><time>2026-04-05T16:55:38Z</time></trkpt><trkpt lat="44.363217837580564" lon="10.873530025353336"><ele>592.0</ele><time>2026-04-05T16:55:39Z</time></trkpt><trkpt lat="44.363180298795115" lon="10.873632976389969"><ele>592.0</ele><time>2026-04-05T16:55:40Z</time></trkpt><trkpt lat="44.363139893868016" lon="10.873741504208821"><ele>592.0</ele><time>2026-04-05T16:55:41Z</time></trkpt><trkpt lat="44.363093264241904" lon="10.87384517687975"><ele>591.3333333333334</ele><time>2026-04-05T16:55:42Z</time></trkpt><trkpt lat="44.363064000520005" lon="10.873939621401142"><ele>590.6666666666667</ele><time>2026-04-05T16:55:43Z</time></trkpt><trkpt lat="44.36303923142979" lon="10.874044937853558"><ele>590.0</ele><time>2026-04-05T16:55:44Z</time></trkpt><trkpt lat="44.36301243258908" lon="10.874175730763971"><ele>589.3333333333334</ele><time>2026-04-05T16:55:46Z</time></trkpt><trkpt lat="44.36293864318512" lon="10.874241290395409"><ele>588.6666666666666</ele><time>2026-04-05T16:55:48Z</time></trkpt><trkpt lat="44.36287684821994" lon="10.874277297712835"><ele>588.0</ele><time>2026-04-05T16:55:49Z</time></trkpt><trkpt lat="44.36281408505012" lon="10.874312634588808"><ele>589.8333333333334</ele><time>2026-04-05T16:55:50Z</time></trkpt><trkpt lat="44.36275008023189" lon="10.874348068923595"><ele>591.6666666666666</ele><time>2026-04-05T16:55:51Z</time></trkpt><trkpt lat="44.36268845361717" lon="10.874375073526874"><ele>593.5</ele><time>2026-04-05T16:55:52Z</time></trkpt><trkpt lat="44.362593409788275" lon="10.874438704165119"><ele>595.3333333333333</ele><time>2026-04-05T16:55:54Z</time></trkpt><trkpt lat="44.362536413557265" lon="10.874584298321027"><ele>597.1666666666666</ele><time>2026-04-05T16:55:56Z</time></trkpt><trkpt lat="44.36249972904732" lon="10.874660197393279"><ele>599.0</ele><time>2026-04-05T16:55:57Z</time></trkpt><trkpt lat="44.36239753017419" lon="10.87474547708574"><ele>599.0</ele><time>2026-04-05T16:55:59Z</time></trkpt><trkpt lat="44.36229516895406" lon="10.874845469194764"><ele>599.0</ele><time>2026-04-05T16:56:01Z</time></trkpt><trkpt lat="44.362221081538216" lon="10.874895992187716"><ele>599.0</ele><time>2026-04-05T16:56:02Z</time></trkpt><trkpt lat="44.36213627755076" lon="10.874958237461259"><ele>599.0</ele><time>2026-04-05T16:56:03Z</time></trkpt><trkpt lat="44.36203109610711" lon="10.875044599485905"><ele>599.0</ele><time>2026-04-05T16:56:04Z</time></trkpt><trkpt lat="44.361914278415675" lon="10.875136586723574"><ele>598.75</ele><time>2026-04-05T16:56:05Z</time></trkpt><trkpt lat="44.36180677388206" lon="10.875232935049283"><ele>598.5</ele><time>2026-04-05T16:56:06Z</time></trkpt><trkpt lat="44.36169683209893" lon="10.875324327243279"><ele>598.25</ele><time>2026-04-05T16:56:07Z</time></trkpt><trkpt lat="44.36160311509809" lon="10.875408122188997"><ele>598.0</ele><time>2026-04-05T16:56:08Z</time></trkpt><trkpt lat="44.36151236541077" lon="10.875486851000277"><ele>598.0</ele><time>2026-04-05T16:56:09Z</time></trkpt><trkpt lat="44.3614323479" lon="10.875560784903767"><ele>598.0</ele><time>2026-04-05T16:56:10Z</time></trkpt><trkpt lat="44.36136612436245" lon="10.875618631349644"><ele>598.0</ele><time>2026-04-05T16:56:11Z</time></trkpt><trkpt lat="44.36129921450278" lon="10.87564736106535"><ele>598.0</ele><time>2026-04-05T16:56:13Z</time></trkpt><trkpt lat="44.36130158319905" lon="10.875498274058266"><ele>598.0</ele><time>2026-04-05T16:56:15Z</time></trkpt><trkpt lat="44.36134492642995" lon="10.875386506253996"><ele>598.0</ele><time>2026-04-05T16:56:16Z</time></trkpt><trkpt lat="44.36130744191989" lon="10.87528820504879"><ele>593.4</ele><time>2026-04-05T16:56:16.999Z</time></trkpt><trkpt lat="44.36125251997995" lon="10.87521977577255"><ele>588.8</ele><time>2026-04-05T16:56:17.999Z</time></trkpt><trkpt lat="44.36117913273544" lon="10.875203977232717"><ele>584.2</ele><time>2026-04-05T16:56:18.999Z</time></trkpt><trkpt lat="44.361111798187686" lon="10.875267512354876"><ele>579.6</ele><time>2026-04-05T16:56:19.999Z</time></trkpt><trkpt lat="44.36108281035246" lon="10.875402821755046"><ele>575.0</ele><time>2026-04-05T16:56:20.999Z</time></trkpt><trkpt lat="44.361091533074976" lon="10.875576233970977"><ele>575.0</ele><time>2026-04-05T16:56:21.999Z</time></trkpt><trkpt lat="44.36107891109042" lon="10.875746175560046"><ele>575.0</ele><time>2026-04-05T16:56:22.999Z</time></trkpt><trkpt lat="44.36102734503598" lon="10.875861692766053"><ele>575.0</ele><time>2026-04-05T16:56:23.999Z</time></trkpt><trkpt lat="44.36094326196195" lon="10.875942763430228"><ele>575.0</ele><time>2026-04-05T16:56:24.999Z</time></trkpt><trkpt lat="44.36086645975727" lon="10.876021844986715"><ele>575.0</ele><time>2026-04-05T16:56:25.999Z</time></trkpt><trkpt lat="44.36080988791457" lon="10.876102421419825"><ele>575.0</ele><time>2026-04-05T16:56:26.999Z</time></trkpt><trkpt lat="44.36075174051393" lon="10.8761445786688"><ele>575.0</ele><time>2026-04-05T16:56:27.999Z</time></trkpt><trkpt lat="44.360649293086055" lon="10.876160194687143"><ele>575.0</ele><time>2026-04-05T16:56:29.999Z</time></trkpt><trkpt lat="44.36059900527966" lon="10.876083811913906"><ele>575.0</ele><time>2026-04-05T16:56:30.999Z</time></trkpt><trkpt lat="44.36062541315833" lon="10.875939119914028"><ele>575.0</ele><time>2026-04-05T16:56:31.999Z</time></trkpt><trkpt lat="44.360607101692366" lon="10.87579077367326"><ele>575.0</ele><time>2026-04-05T16:56:32.999Z</time></trkpt><trkpt lat="44.360572381894144" lon="10.87560525613754"><ele>575.0</ele><time>2026-04-05T16:56:33.999Z</time></trkpt><trkpt lat="44.360547424439496" lon="10.875413106773065"><ele>575.0</ele><time>2026-04-05T16:56:34.999Z</time></trkpt><trkpt lat="44.36052792952756" lon="10.875242803444602"><ele>575.0</ele><time>2026-04-05T16:56:35.999Z</time></trkpt><trkpt lat="44.360506484139556" lon="10.875087975519383"><ele>565.75</ele><time>2026-04-05T16:56:36.999Z</time></trkpt><trkpt lat="44.36049418340256" lon="10.874937339712075"><ele>556.5</ele><time>2026-04-05T16:56:37.999Z</time></trkpt><trkpt lat="44.360486206811714" lon="10.874766761630218"><ele>547.25</ele><time>2026-04-05T16:56:38.999Z</time></trkpt><trkpt lat="44.36049114938981" lon="10.87460824091026"><ele>538.0</ele><time>2026-04-05T16:56:39.999Z</time></trkpt><trkpt lat="44.36049874394655" lon="10.874459859682538"><ele>538.0</ele><time>2026-04-05T16:56:40.999Z</time></trkpt><trkpt lat="44.36050443227058" lon="10.874338812513178"><ele>538.0</ele><time>2026-04-05T16:56:41.999Z</time></trkpt><trkpt lat="44.36051195761369" lon="10.874224662889551"><ele>538.0</ele><time>2026-04-05T16:56:42.999Z</time></trkpt><trkpt lat="44.36051716430323" lon="10.874114113082717"><ele>538.0</ele><time>2026-04-05T16:56:43.999Z</time></trkpt><trkpt lat="44.36052255077084" lon="10.874009950923385"><ele>538.0</ele><time>2026-04-05T16:56:44.999Z</time></trkpt><trkpt lat="44.36053817681624" lon="10.873864075570445"><ele>538.0</ele><time>2026-04-05T16:56:46.999Z</time></trkpt><trkpt lat="44.36056015614807" lon="10.873772009491388"><ele>536.8333333333334</ele><time>2026-04-05T16:56:48.999Z</time></trkpt><trkpt lat="44.36055663075751" lon="10.873620840046973"><ele>535.6666666666667</ele><time>2026-04-05T17:00:47.999Z</time></trkpt><trkpt lat="44.36051353315884" lon="10.873509926113389"><ele>534.5</ele><time>2026-04-05T17:00:49.999Z</time></trkpt><trkpt lat="44.36049270571391" lon="10.873419973854208"><ele>533.3333333333334</ele><time>2026-04-05T17:00:50.999Z</time></trkpt><trkpt lat="44.360468542813614" lon="10.873291969870705"><ele>532.1666666666666</ele><time>2026-04-05T17:00:52.999Z</time></trkpt><trkpt lat="44.36042942924783" lon="10.873205994643008"><ele>531.0</ele><time>2026-04-05T17:00:53.999Z</time></trkpt><trkpt lat="44.36038702852402" lon="10.87312612786161"><ele>530.8333333333334</ele><time>2026-04-05T17:00:54.999Z</time></trkpt><trkpt lat="44.360355595467915" lon="10.873005531154883"><ele>530.6666666666666</ele><time>2026-04-05T17:00:56.999Z</time></trkpt><trkpt lat="44.360318274549826" lon="10.872900617592526"><ele>530.5</ele><time>2026-04-05T17:00:57.999Z</time></trkpt><trkpt lat="44.360281369047335" lon="10.872804909548403"><ele>530.3333333333333</ele><time>2026-04-05T17:00:58.999Z</time></trkpt><trkpt lat="44.36023809066677" lon="10.872718220408638"><ele>530.1666666666666</ele><time>2026-04-05T17:00:59.999Z</time></trkpt><trkpt lat="44.36019657941217" lon="10.872632714036689"><ele>530.0</ele><time>2026-04-05T17:01:00.999Z</time></trkpt><trkpt lat="44.360150737913166" lon="10.872542315412513"><ele>530.0</ele><time>2026-04-05T17:01:01.999Z</time></trkpt><trkpt lat="44.36009511149912" lon="10.8724405954843"><ele>530.0</ele><time>2026-04-05T17:01:02.999Z</time></trkpt><trkpt lat="44.360026925989175" lon="10.87236659934946"><ele>530.0</ele><time>2026-04-05T17:01:03.999Z</time></trkpt><trkpt lat="44.359960835280695" lon="10.872294151728905"><ele>530.0</ele><time>2026-04-05T17:01:04.999Z</time></trkpt><trkpt lat="44.35990650873707" lon="10.872205955454382"><ele>530.0</ele><time>2026-04-05T17:01:05.999Z</time></trkpt><trkpt lat="44.35987099035042" lon="10.872123758868955"><ele>530.0</ele><time>2026-04-05T17:01:06.999Z</time></trkpt><trkpt lat="44.359841603581266" lon="10.872034355402619"><ele>530.0</ele><time>2026-04-05T17:01:07.999Z</time></trkpt><trkpt lat="44.35981912572936" lon="10.871932179452598"><ele>530.0</ele><time>2026-04-05T17:01:08.999Z</time></trkpt><trkpt lat="44.35980810352296" lon="10.871801288090866"><ele>530.0</ele><time>2026-04-05T17:01:09.999Z</time></trkpt><trkpt lat="44.359799520636855" lon="10.871680070824711"><ele>530.0</ele><time>2026-04-05T17:01:10.999Z</time></trkpt><trkpt lat="44.35980111995615" lon="10.87155682954991"><ele>530.0</ele><time>2026-04-05T17:01:11.999Z</time></trkpt><trkpt lat="44.35981321836946" lon="10.871423531630354"><ele>530.0</ele><time>2026-04-05T17:01:13.999Z</time></trkpt><trkpt lat="44.3597658010005" lon="10.871342478874444"><ele>532.2</ele><time>2026-04-05T17:01:16.999Z</time></trkpt><trkpt lat="44.35969473438234" lon="10.871294510108369"><ele>534.4</ele><time>2026-04-05T17:01:25.998Z</time></trkpt><trkpt lat="44.35959788455893" lon="10.87120881541426"><ele>536.6</ele><time>2026-04-05T17:01:27.998Z</time></trkpt><trkpt lat="44.35950043074922" lon="10.871210599381879"><ele>538.8</ele><time>2026-04-05T17:01:29.998Z</time></trkpt><trkpt lat="44.359389881198965" lon="10.871262309113616"><ele>541.0</ele><time>2026-04-05T17:01:31.998Z</time></trkpt><trkpt lat="44.359264977954204" lon="10.871280662772756"><ele>541.0</ele><time>2026-04-05T17:01:33.998Z</time></trkpt><trkpt lat="44.35914152283992" lon="10.87126799984118"><ele>541.0</ele><time>2026-04-05T17:01:35.998Z</time></trkpt><trkpt lat="44.35905813305588" lon="10.87128195484171"><ele>541.0</ele><time>2026-04-05T17:01:36.998Z</time></trkpt><trkpt lat="44.358977915691426" lon="10.871323536742507"><ele>541.0</ele><time>2026-04-05T17:01:37.998Z</time></trkpt><trkpt lat="44.358893063762174" lon="10.871366534463169"><ele>541.0</ele><time>2026-04-05T17:01:38.998Z</time></trkpt><trkpt lat="44.35881068397839" lon="10.871376408331837"><ele>543.8</ele><time>2026-04-05T17:01:40.998Z</time></trkpt><trkpt lat="44.35873480508705" lon="10.871357102802174"><ele>546.6</ele><time>2026-04-05T17:01:42.998Z</time></trkpt><trkpt lat="44.35866220216879" lon="10.87127269885639"><ele>549.4</ele><time>2026-04-05T17:01:44.998Z</time></trkpt><trkpt lat="44.358604919041476" lon="10.871154176129357"><ele>552.2</ele><time>2026-04-05T17:01:46.998Z</time></trkpt><trkpt lat="44.358533960882426" lon="10.87107098797624"><ele>555.0</ele><time>2026-04-05T17:01:48.998Z</time></trkpt><trkpt lat="44.358488929368754" lon="10.870948352065945"><ele>557.0</ele><time>2026-04-05T17:01:50.998Z</time></trkpt><trkpt lat="44.35840957086045" lon="10.870824521478145"><ele>559.0</ele><time>2026-04-05T17:01:53Z</time></trkpt><trkpt lat="44.35833879179456" lon="10.870713708968362"><ele>561.0</ele><time>2026-04-05T17:01:55Z</time></trkpt><trkpt lat="44.35828258578724" lon="10.870616740188757"><ele>563.0</ele><time>2026-04-05T17:01:57Z</time></trkpt><trkpt lat="44.35820819333944" lon="10.870561184419431"><ele>565.0</ele><time>2026-04-05T17:01:59Z</time></trkpt><trkpt lat="44.358113439915485" lon="10.870549541276304"><ele>565.0</ele><time>2026-04-05T17:02:01Z</time></trkpt><trkpt lat="44.3580540527676" lon="10.870661328607392"><ele>565.0</ele><time>2026-04-05T17:02:03Z</time></trkpt><trkpt lat="44.35799741437448" lon="10.870719458820686"><ele>565.0</ele><time>2026-04-05T17:02:05Z</time></trkpt><trkpt lat="44.357903017115916" lon="10.870619510046845"><ele>565.0</ele><time>2026-04-05T17:02:08Z</time></trkpt><trkpt lat="44.35785241344315" lon="10.870541576729156"><ele>565.0</ele><time>2026-04-05T17:02:09Z</time></trkpt><trkpt lat="44.357794200586575" lon="10.870440780568131"><ele>566.6</ele><time>2026-04-05T17:02:10Z</time></trkpt><trkpt lat="44.357721765907264" lon="10.870326356801959"><ele>568.2</ele><time>2026-04-05T17:02:11Z</time></trkpt><trkpt lat="44.35763503200374" lon="10.870220534350942"><ele>569.8</ele><time>2026-04-05T17:02:12Z</time></trkpt><trkpt lat="44.35757375319354" lon="10.87009804194349"><ele>571.4</ele><time>2026-04-05T17:02:13Z</time></trkpt><trkpt lat="44.35752449301182" lon="10.870036572090127"><ele>573.0</ele><time>2026-04-05T17:02:14Z</time></trkpt><trkpt lat="44.35744941372034" lon="10.87000068152946"><ele>577.1999999999999</ele><time>2026-04-05T17:02:15Z</time></trkpt><trkpt lat="44.35739490039372" lon="10.869937914416969"><ele>581.4</ele><time>2026-04-05T17:02:17Z</time></trkpt><trkpt lat="44.357312890534914" lon="10.869991028294448"><ele>585.5999999999999</ele><time>2026-04-05T17:02:18Z</time></trkpt><trkpt lat="44.357187813086995" lon="10.87003674884027"><ele>589.8</ele><time>2026-04-05T17:02:20Z</time></trkpt><trkpt lat="44.35711325408625" lon="10.870037335736507"><ele>594.0</ele><time>2026-04-05T17:02:21Z</time></trkpt><trkpt lat="44.3570121987057" lon="10.870045198105547"><ele>595.0</ele><time>2026-04-05T17:02:21.999Z</time></trkpt><trkpt lat="44.356904907893295" lon="10.870019307882739"><ele>596.0</ele><time>2026-04-05T17:02:22.999Z</time></trkpt><trkpt lat="44.356791277994986" lon="10.86998739079765"><ele>597.0</ele><time>2026-04-05T17:02:23.999Z</time></trkpt><trkpt lat="44.35669117616808" lon="10.869958622099809"><ele>598.0</ele><time>2026-04-05T17:02:24.999Z</time></trkpt><trkpt lat="44.35659900064088" lon="10.869982895516028"><ele>599.0</ele><time>2026-04-05T17:02:25.999Z</time></trkpt><trkpt lat="44.356531254396515" lon="10.870004791461552"><ele>599.0</ele><time>2026-04-05T17:02:26.999Z</time></trkpt><trkpt lat="44.356461412514555" lon="10.8700291740271"><ele>599.0</ele><time>2026-04-05T17:02:27.999Z</time></trkpt><trkpt lat="44.35638337055547" lon="10.870033601353468"><ele>599.0</ele><time>2026-04-05T17:02:28.999Z</time></trkpt><trkpt lat="44.35627711433057" lon="10.870309165819142"><ele>599.0</ele><time>2026-04-05T17:02:30.999Z</time></trkpt><trkpt lat="44.35620345257267" lon="10.87032806601002"><ele>599.0</ele><time>2026-04-05T17:02:31.999Z</time></trkpt><trkpt lat="44.35609334213388" lon="10.870353389052955"><ele>596.2</ele><time>2026-04-05T17:02:32.999Z</time></trkpt><trkpt lat="44.35600777011301" lon="10.870363232686671"><ele>593.4</ele><time>2026-04-05T17:02:33.999Z</time></trkpt><trkpt lat="44.355903717969845" lon="10.87038846846746"><ele>590.6</ele><time>2026-04-05T17:02:35.999Z</time></trkpt><trkpt lat="44.35577352965892" lon="10.870423550619936"><ele>587.8</ele><time>2026-04-05T17:02:36.999Z</time></trkpt><trkpt lat="44.355692310513334" lon="10.870445436359464"><ele>585.0</ele><time>2026-04-05T17:02:37.999Z</time></trkpt><trkpt lat="44.3556170718426" lon="10.870465713168665"><ele>585.0</ele><time>2026-04-05T17:02:38.999Z</time></trkpt><trkpt lat="44.35555219559844" lon="10.870483196301553"><ele>585.0</ele><time>2026-04-05T17:02:39.999Z</time></trkpt><trkpt lat="44.355351607073516" lon="10.86991265286334"><ele>583.1666666666666</ele><time>2026-04-05T17:02:41.999Z</time></trkpt><trkpt lat="44.355287941272245" lon="10.869935596523344"><ele>581.3333333333334</ele><time>2026-04-05T17:02:42.999Z</time></trkpt><trkpt lat="44.355178458927284" lon="10.869937555237163"><ele>579.5</ele><time>2026-04-05T17:02:44.999Z</time></trkpt><trkpt lat="44.35508687512844" lon="10.869918885562303"><ele>577.6666666666667</ele><time>2026-04-05T17:02:46.999Z</time></trkpt><trkpt lat="44.35499616356763" lon="10.869980786062536"><ele>575.8333333333334</ele><time>2026-04-05T17:02:48.999Z</time></trkpt><trkpt lat="44.35494944055773" lon="10.870042229632176"><ele>574.0</ele><time>2026-04-05T17:02:49.999Z</time></trkpt><trkpt lat="44.35485543049283" lon="10.8701569199987"><ele>574.0</ele><time>2026-04-05T17:02:51.999Z</time></trkpt><trkpt lat="44.3547730303681" lon="10.870242071220497"><ele>574.0</ele><time>2026-04-05T17:02:53.999Z</time></trkpt><trkpt lat="44.354747493084" lon="10.870349307201064"><ele>574.0</ele><time>2026-04-05T17:02:55.999Z</time></trkpt><trkpt lat="44.354734159972864" lon="10.870510265906097"><ele>574.0</ele><time>2026-04-05T17:02:57.999Z</time></trkpt><trkpt lat="44.35469547066175" lon="10.870661360206674"><ele>574.0</ele><time>2026-04-05T17:02:59.999Z</time></trkpt><trkpt lat="44.354659423030334" lon="10.87074408325957"><ele>573.3333333333334</ele><time>2026-04-05T17:03:00.999Z</time></trkpt><trkpt lat="44.35463237267305" lon="10.870826823950237"><ele>572.6666666666667</ele><time>2026-04-05T17:03:01.999Z</time></trkpt><trkpt lat="44.35458672540984" lon="10.87091104148518"><ele>572.0</ele><time>2026-04-05T17:03:02.999Z</time></trkpt><trkpt lat="44.354537840768415" lon="10.870976733339994"><ele>571.3333333333334</ele><time>2026-04-05T17:03:03.999Z</time></trkpt><trkpt lat="44.35446621085395" lon="10.871045630107623"><ele>570.6666666666666</ele><time>2026-04-05T17:03:04.999Z</time></trkpt><trkpt lat="44.35438503925634" lon="10.87115623051094"><ele>570.0</ele><time>2026-04-05T17:03:06.999Z</time></trkpt><trkpt lat="44.354329575956456" lon="10.871298429791223"><ele>567.2</ele><time>2026-04-05T17:03:08.999Z</time></trkpt><trkpt lat="44.35428969264272" lon="10.871407150355603"><ele>564.4</ele><time>2026-04-05T17:03:10.999Z</time></trkpt><trkpt lat="44.35420231193425" lon="10.871352109231486"><ele>561.6</ele><time>2026-04-05T17:03:12.999Z</time></trkpt><trkpt lat="44.35418147667141" lon="10.871194209374213"><ele>558.8</ele><time>2026-04-05T17:03:14.999Z</time></trkpt><trkpt lat="44.3541082395088" lon="10.871062818916466"><ele>556.0</ele><time>2026-04-05T17:03:16.999Z</time></trkpt><trkpt lat="44.35404020612276" lon="10.871010788983332"><ele>554.8</ele><time>2026-04-05T17:03:17.999Z</time></trkpt><trkpt lat="44.353959054817096" lon="10.870932210726654"><ele>553.6</ele><time>2026-04-05T17:03:19.999Z</time></trkpt><trkpt lat="44.35390640629782" lon="10.870867799353633"><ele>552.4</ele><time>2026-04-05T17:03:20.999Z</time></trkpt><trkpt lat="44.35381291533493" lon="10.870782732020764"><ele>551.2</ele><time>2026-04-05T17:03:22.999Z</time></trkpt><trkpt lat="44.35371440553688" lon="10.870806652871403"><ele>550.0</ele><time>2026-04-05T17:03:24.999Z</time></trkpt><trkpt lat="44.35367299717123" lon="10.870914530791655"><ele>547.6</ele><time>2026-04-05T17:03:26.998Z</time></trkpt><trkpt lat="44.35368562971267" lon="10.871066160821648"><ele>545.2</ele><time>2026-04-05T17:03:28.998Z</time></trkpt><trkpt lat="44.35363621109691" lon="10.871121769837373"><ele>542.8</ele><time>2026-04-05T17:03:30.998Z</time></trkpt><trkpt lat="44.35357721020354" lon="10.87115745559633"><ele>540.4</ele><time>2026-04-05T17:03:31.998Z</time></trkpt><trkpt lat="44.3534939026037" lon="10.871250962319078"><ele>538.0</ele><time>2026-04-05T17:03:33.998Z</time></trkpt><trkpt lat="44.353424599035044" lon="10.8713644259059"><ele>538.0</ele><time>2026-04-05T17:03:35.998Z</time></trkpt><trkpt lat="44.353443485521105" lon="10.871498797275667"><ele>538.0</ele><time>2026-04-05T17:03:37.998Z</time></trkpt><trkpt lat="44.35352766603916" lon="10.87159455660353"><ele>538.0</ele><time>2026-04-05T17:03:39.998Z</time></trkpt><trkpt lat="44.35353933332599" lon="10.871682806146326"><ele>538.0</ele><time>2026-04-05T17:03:40.998Z</time></trkpt><trkpt lat="44.353532831108" lon="10.87179201961067"><ele>538.0</ele><time>2026-04-05T17:03:42.998Z</time></trkpt><trkpt lat="44.353557744001506" lon="10.871930796162024"><ele>535.8333333333334</ele><time>2026-04-05T17:03:44.998Z</time></trkpt><trkpt lat="44.353561575520246" lon="10.872018740378962"><ele>533.6666666666667</ele><time>2026-04-05T17:03:45.998Z</time></trkpt><trkpt lat="44.35356677940285" lon="10.872161704668764"><ele>531.5</ele><time>2026-04-05T17:03:47.998Z</time></trkpt><trkpt lat="44.35355184886342" lon="10.872305176327867"><ele>529.3333333333334</ele><time>2026-04-05T17:03:49.998Z</time></trkpt><trkpt lat="44.35349715278446" lon="10.872414341754176"><ele>527.1666666666666</ele><time>2026-04-05T17:03:51.998Z</time></trkpt><trkpt lat="44.353432408779824" lon="10.872486869646409"><ele>525.0</ele><time>2026-04-05T17:03:53.998Z</time></trkpt><trkpt lat="44.35334239433642" lon="10.872519792183658"><ele>525.0</ele><time>2026-04-05T17:03:55.998Z</time></trkpt><trkpt lat="44.35323519823672" lon="10.872527117924024"><ele>525.0</ele><time>2026-04-05T17:03:58Z</time></trkpt><trkpt lat="44.35313295354114" lon="10.872574986547777"><ele>525.0</ele><time>2026-04-05T17:04:00Z</time></trkpt><trkpt lat="44.35304965540586" lon="10.872632359973268"><ele>525.0</ele><time>2026-04-05T17:04:02Z</time></trkpt><trkpt lat="44.35299875817618" lon="10.872767142875624"><ele>525.0</ele><time>2026-04-05T17:04:05Z</time></trkpt><trkpt lat="44.35301166968272" lon="10.872881605328685"><ele>523.3333333333334</ele><time>2026-04-05T17:04:07Z</time></trkpt><trkpt lat="44.35296886284943" lon="10.87295626004341"><ele>521.6666666666666</ele><time>2026-04-05T17:04:09Z</time></trkpt><trkpt lat="44.352895018030964" lon="10.872973808330437"><ele>520.0</ele><time>2026-04-05T17:04:12Z</time></trkpt><trkpt lat="44.35280784810626" lon="10.8729434033353"><ele>518.3333333333333</ele><time>2026-04-05T17:04:15Z</time></trkpt><trkpt lat="44.35275450406154" lon="10.872879955462633"><ele>516.6666666666666</ele><time>2026-04-05T17:04:17Z</time></trkpt><trkpt lat="44.35267852020346" lon="10.872919468544577"><ele>515.0</ele><time>2026-04-05T17:04:20Z</time></trkpt><trkpt lat="44.352685547972065" lon="10.873066599191116"><ele>515.0</ele><time>2026-04-05T17:04:22Z</time></trkpt><trkpt lat="44.35272092745413" lon="10.87320454335612"><ele>515.0</ele><time>2026-04-05T17:04:24Z</time></trkpt><trkpt lat="44.35277829817749" lon="10.873251969750743"><ele>515.0</ele><time>2026-04-05T17:04:24.999Z</time></trkpt><trkpt lat="44.35283169482" lon="10.873311715048407"><ele>515.0</ele><time>2026-04-05T17:04:25.999Z</time></trkpt><trkpt lat="44.352848009881946" lon="10.873434399103678"><ele>515.0</ele><time>2026-04-05T17:04:27.999Z</time></trkpt><trkpt lat="44.35282564073122" lon="10.873605716372257"><ele>514.5</ele><time>2026-04-05T17:04:29.999Z</time></trkpt><trkpt lat="44.35278317968702" lon="10.873720567309896"><ele>514.0</ele><time>2026-04-05T17:04:31.999Z</time></trkpt><trkpt lat="44.35271690864173" lon="10.873786010229864"><ele>513.5</ele><time>2026-04-05T17:04:33.999Z</time></trkpt><trkpt lat="44.35269243254999" lon="10.873871322593821"><ele>513.0</ele><time>2026-04-05T17:04:35.999Z</time></trkpt><trkpt lat="44.35270210332108" lon="10.873978014614696"><ele>512.5</ele><time>2026-04-05T17:04:37.999Z</time></trkpt><trkpt lat="44.352737807754366" lon="10.874098318928285"><ele>512.0</ele><time>2026-04-05T17:04:39.999Z</time></trkpt><trkpt lat="44.35275121276851" lon="10.87422765580534"><ele>511.8333333333333</ele><time>2026-04-05T17:04:41.999Z</time></trkpt><trkpt lat="44.352747249938886" lon="10.874330200400244"><ele>511.66666666666663</ele><time>2026-04-05T17:04:43.999Z</time></trkpt><trkpt lat="44.35273608340077" lon="10.874417307912074"><ele>511.5</ele><time>2026-04-05T17:04:44.999Z</time></trkpt><trkpt lat="44.35274766941149" lon="10.87455079598494"><ele>511.33333333333337</ele><time>2026-04-05T17:04:46.999Z</time></trkpt><trkpt lat="44.35273017166182" lon="10.874637661279317"><ele>511.1666666666667</ele><time>2026-04-05T17:04:48.999Z</time></trkpt><trkpt lat="44.352631623017146" lon="10.874695573910543"><ele>511.0</ele><time>2026-04-05T17:04:50.999Z</time></trkpt><trkpt lat="44.35260574443361" lon="10.87482988652204"><ele>511.00000000000006</ele><time>2026-04-05T17:04:53.999Z</time></trkpt><trkpt lat="44.35261319687808" lon="10.874926755757464"><ele>511.0</ele><time>2026-04-05T17:04:54.999Z</time></trkpt><trkpt lat="44.3525887757074" lon="10.875064241667783"><ele>511.0</ele><time>2026-04-05T17:04:56.999Z</time></trkpt><trkpt lat="44.352575383420586" lon="10.87515028405812"><ele>511.0</ele><time>2026-04-05T17:04:58.999Z</time></trkpt><trkpt lat="44.352592244375906" lon="10.875282494862024"><ele>511.00000000000006</ele><time>2026-04-05T17:05:01.999Z</time></trkpt><trkpt lat="44.352573702802715" lon="10.87544139875091"><ele>511.0</ele><time>2026-04-05T17:05:03.999Z</time></trkpt><trkpt lat="44.35258641336886" lon="10.87556672307604"><ele>512.0</ele><time>2026-04-05T17:05:05.999Z</time></trkpt><trkpt lat="44.35255228856171" lon="10.875677869745905"><ele>513.0</ele><time>2026-04-05T17:05:07.999Z</time></trkpt><trkpt lat="44.35252033284541" lon="10.875759626189877"><ele>514.0</ele><time>2026-04-05T17:05:08.999Z</time></trkpt><trkpt lat="44.35244784222858" lon="10.87582424028909"><ele>515.0</ele><time>2026-04-05T17:05:10.999Z</time></trkpt><trkpt lat="44.35239330022119" lon="10.87589753614596"><ele>516.0</ele><time>2026-04-05T17:05:12.999Z</time></trkpt><trkpt lat="44.35238120830907" lon="10.876025692763067"><ele>517.0</ele><time>2026-04-05T17:05:14.999Z</time></trkpt><trkpt lat="44.35243336350637" lon="10.87616673583809"><ele>518.6666666666667</ele><time>2026-04-05T17:05:16.999Z</time></trkpt><trkpt lat="44.35248390975553" lon="10.876266545629914"><ele>520.3333333333334</ele><time>2026-04-05T17:05:18.999Z</time></trkpt><trkpt lat="44.35251470329093" lon="10.87636936950436"><ele>522.0</ele><time>2026-04-05T17:05:20.999Z</time></trkpt><trkpt lat="44.35249552787203" lon="10.876482461550108"><ele>523.6666666666666</ele><time>2026-04-05T17:05:22.999Z</time></trkpt><trkpt lat="44.352466857167144" lon="10.876562780796839"><ele>525.3333333333333</ele><time>2026-04-05T17:05:24.999Z</time></trkpt><trkpt lat="44.35242765449108" lon="10.876697375987131"><ele>527.0</ele><time>2026-04-05T17:05:26.999Z</time></trkpt><trkpt lat="44.352409133859695" lon="10.876811933788492"><ele>527.8333333333333</ele><time>2026-04-05T17:05:28.998Z</time></trkpt><trkpt lat="44.35244483909327" lon="10.8769028485981"><ele>528.6666666666666</ele><time>2026-04-05T17:05:30.998Z</time></trkpt><trkpt lat="44.35244613154162" lon="10.877006327131227"><ele>529.5</ele><time>2026-04-05T17:05:32.998Z</time></trkpt><trkpt lat="44.35244218545983" lon="10.877097918142947"><ele>530.3333333333334</ele><time>2026-04-05T17:05:33.998Z</time></trkpt><trkpt lat="44.352438747960484" lon="10.877220272555089"><ele>531.1666666666667</ele><time>2026-04-05T17:05:34.998Z</time></trkpt><trkpt lat="44.352484700050404" lon="10.877359156735062"><ele>532.0</ele><time>2026-04-05T17:05:36.998Z</time></trkpt><trkpt lat="44.352452694204715" lon="10.87750355306275"><ele>531.6</ele><time>2026-04-05T17:05:39.998Z</time></trkpt><trkpt lat="44.35240013289108" lon="10.877640335269371"><ele>531.2</ele><time>2026-04-05T17:05:41.998Z</time></trkpt><trkpt lat="44.35235504476489" lon="10.877765753361302"><ele>530.8</ele><time>2026-04-05T17:05:43.998Z</time></trkpt><trkpt lat="44.35232553682921" lon="10.8778757675783"><ele>530.4</ele><time>2026-04-05T17:05:45.998Z</time></trkpt><trkpt lat="44.35229000476676" lon="10.877995725991063"><ele>530.0</ele><time>2026-04-05T17:05:47.998Z</time></trkpt><trkpt lat="44.35229946924298" lon="10.878105933345573"><ele>530.0</ele><time>2026-04-05T17:05:50.998Z</time></trkpt><trkpt lat="44.352330275013095" lon="10.878228554528802"><ele>530.0</ele><time>2026-04-05T17:05:53.998Z</time></trkpt><trkpt lat="44.35231675128205" lon="10.878352926306189"><ele>530.0</ele><time>2026-04-05T17:05:55.998Z</time></trkpt><trkpt lat="44.352228082063704" lon="10.878429054165352"><ele>530.0</ele><time>2026-04-05T17:05:58.998Z</time></trkpt><trkpt lat="44.35213327561523" lon="10.878539800680931"><ele>530.0</ele><time>2026-04-05T17:06:00.998Z</time></trkpt><trkpt lat="44.35209672610054" lon="10.878657765401265"><ele>534.0</ele><time>2026-04-05T17:06:01.998Z</time></trkpt><trkpt lat="44.352084923393306" lon="10.878755072852195"><ele>538.0</ele><time>2026-04-05T17:06:03Z</time></trkpt><trkpt lat="44.3520643473005" lon="10.878889859726089"><ele>542.0</ele><time>2026-04-05T17:06:05Z</time></trkpt><trkpt lat="44.3520590999411" lon="10.879057711907057"><ele>546.0</ele><time>2026-04-05T17:06:07Z</time></trkpt><trkpt lat="44.35206630261157" lon="10.87918004046432"><ele>550.0</ele><time>2026-04-05T17:06:09Z</time></trkpt><trkpt lat="44.35207021163324" lon="10.879301115563278"><ele>550.0</ele><time>2026-04-05T17:06:11Z</time></trkpt><trkpt lat="44.35206809063677" lon="10.879429344498613"><ele>550.0</ele><time>2026-04-05T17:06:13Z</time></trkpt><trkpt lat="44.35207027524936" lon="10.879537501696944"><ele>550.0</ele><time>2026-04-05T17:06:14Z</time></trkpt><trkpt lat="44.35202140023257" lon="10.879655418234687"><ele>550.0</ele><time>2026-04-05T17:06:17Z</time></trkpt><trkpt lat="44.35193169578475" lon="10.879665513785756"><ele>550.0</ele><time>2026-04-05T17:06:19Z</time></trkpt><trkpt lat="44.351865550638074" lon="10.879697955941333"><ele>550.0</ele><time>2026-04-05T17:06:21Z</time></trkpt><trkpt lat="44.35179989611873" lon="10.879741775399934"><ele>550.0</ele><time>2026-04-05T17:06:22Z</time></trkpt><trkpt lat="44.351729241213576" lon="10.879831888518101"><ele>550.0</ele><time>2026-04-05T17:06:24Z</time></trkpt><trkpt lat="44.351678704420834" lon="10.879928388338431"><ele>550.0</ele><time>2026-04-05T17:06:26Z</time></trkpt><trkpt lat="44.3516203748406" lon="10.880029810247166"><ele>550.0</ele><time>2026-04-05T17:06:28.999Z</time></trkpt><trkpt lat="44.35155441884616" lon="10.88005766203656"><ele>550.0</ele><time>2026-04-05T17:06:31.999Z</time></trkpt><trkpt lat="44.351515524553434" lon="10.880138263062216"><ele>550.0</ele><time>2026-04-05T17:06:35.999Z</time></trkpt><trkpt lat="44.35148568747721" lon="10.880276857778956"><ele>546.5</ele><time>2026-04-05T17:06:37.999Z</time></trkpt><trkpt lat="44.35147329555839" lon="10.880502709712925"><ele>543.0</ele><time>2026-04-05T17:06:40.999Z</time></trkpt><trkpt lat="44.35146761214488" lon="10.880656841142416"><ele>539.5</ele><time>2026-04-05T17:06:42.999Z</time></trkpt><trkpt lat="44.35143994112076" lon="10.880805108284783"><ele>536.0</ele><time>2026-04-05T17:06:44.999Z</time></trkpt><trkpt lat="44.35143175986586" lon="10.88094449497216"><ele>535.8</ele><time>2026-04-05T17:06:46.999Z</time></trkpt><trkpt lat="44.35142168055414" lon="10.881078234031271"><ele>535.6</ele><time>2026-04-05T17:06:48.999Z</time></trkpt><trkpt lat="44.35139566072453" lon="10.881207395469977"><ele>535.4</ele><time>2026-04-05T17:06:50.999Z</time></trkpt><trkpt lat="44.351353301435466" lon="10.881322497314166"><ele>535.2</ele><time>2026-04-05T17:06:52.999Z</time></trkpt><trkpt lat="44.351306192803285" lon="10.881394173540201"><ele>535.0</ele><time>2026-04-05T17:06:53.999Z</time></trkpt><trkpt lat="44.35122584679612" lon="10.881503970557462"><ele>535.0</ele><time>2026-04-05T17:06:55.999Z</time></trkpt><trkpt lat="44.35120806964404" lon="10.881650097757003"><ele>535.0</ele><time>2026-04-05T17:06:57.999Z</time></trkpt><trkpt lat="44.35123050168506" lon="10.881767915703652"><ele>535.0</ele><time>2026-04-05T17:06:59.999Z</time></trkpt><trkpt lat="44.351171616641246" lon="10.881892219127693"><ele>535.0</ele><time>2026-04-05T17:07:01.999Z</time></trkpt><trkpt lat="44.35109385862427" lon="10.881964743855086"><ele>535.0</ele><time>2026-04-05T17:07:03.999Z</time></trkpt><trkpt lat="44.35100339000247" lon="10.88202494292956"><ele>529.8</ele><time>2026-04-05T17:07:05.999Z</time></trkpt><trkpt lat="44.35092683045128" lon="10.882087870000499"><ele>524.6</ele><time>2026-04-05T17:07:07.999Z</time></trkpt><trkpt lat="44.350848675029894" lon="10.882160443609369"><ele>519.4</ele><time>2026-04-05T17:07:09.999Z</time></trkpt><trkpt lat="44.350768368955386" lon="10.882181276207666"><ele>514.2</ele><time>2026-04-05T17:07:10.999Z</time></trkpt><trkpt lat="44.35069744462122" lon="10.882190944959056"><ele>509.0</ele><time>2026-04-05T17:07:11.999Z</time></trkpt><trkpt lat="44.350582566653394" lon="10.882245116827702"><ele>509.66666666666663</ele><time>2026-04-05T17:07:13.999Z</time></trkpt><trkpt lat="44.35052533956291" lon="10.882295220676465"><ele>510.3333333333333</ele><time>2026-04-05T17:07:14.999Z</time></trkpt><trkpt lat="44.35042206908121" lon="10.882325787430633"><ele>511.0</ele><time>2026-04-05T17:07:16.999Z</time></trkpt><trkpt lat="44.35034655253784" lon="10.882297613072272"><ele>511.66666666666663</ele><time>2026-04-05T17:07:17.999Z</time></trkpt><trkpt lat="44.35026501008562" lon="10.882273914566353"><ele>512.3333333333334</ele><time>2026-04-05T17:07:18.999Z</time></trkpt><trkpt lat="44.35020184491654" lon="10.88227892079008"><ele>513.0</ele><time>2026-04-05T17:07:19.999Z</time></trkpt><trkpt lat="44.35013904771766" lon="10.88232286653494"><ele>513.0</ele><time>2026-04-05T17:07:20.999Z</time></trkpt><trkpt lat="44.35005951129215" lon="10.882486272959675"><ele>513.0</ele><time>2026-04-05T17:07:22.999Z</time></trkpt><trkpt lat="44.35001616439756" lon="10.882582741130355"><ele>513.0</ele><time>2026-04-05T17:07:23.999Z</time></trkpt><trkpt lat="44.34996259142404" lon="10.882721526325588"><ele>513.0</ele><time>2026-04-05T17:07:24.999Z</time></trkpt><trkpt lat="44.34992652195039" lon="10.882794074205304"><ele>513.0</ele><time>2026-04-05T17:07:25.999Z</time></trkpt><trkpt lat="44.34983645558249" lon="10.882827336329115"><ele>510.79999999999995</ele><time>2026-04-05T17:07:27.999Z</time></trkpt><trkpt lat="44.34972637360655" lon="10.882778794966253"><ele>508.59999999999997</ele><time>2026-04-05T17:07:29.999Z</time></trkpt><trkpt lat="44.349627725404254" lon="10.882718994369077"><ele>506.40000000000003</ele><time>2026-04-05T17:07:31.998Z</time></trkpt><trkpt lat="44.34949889195015" lon="10.882768430776782"><ele>504.20000000000005</ele><time>2026-04-05T17:07:33.998Z</time></trkpt><trkpt lat="44.34942891479561" lon="10.88284179556774"><ele>502.0</ele><time>2026-04-05T17:07:34.998Z</time></trkpt><trkpt lat="44.349365724219886" lon="10.882882768423851"><ele>502.0</ele><time>2026-04-05T17:07:35.998Z</time></trkpt><trkpt lat="44.34924696685784" lon="10.882941586207084"><ele>502.00000000000006</ele><time>2026-04-05T17:07:37.998Z</time></trkpt><trkpt lat="44.349179366830626" lon="10.882983754085005"><ele>502.00000000000006</ele><time>2026-04-05T17:07:38.998Z</time></trkpt><trkpt lat="44.349111916460295" lon="10.883054868262633"><ele>502.0</ele><time>2026-04-05T17:07:39.998Z</time></trkpt><trkpt lat="44.349042742714424" lon="10.883140970045615"><ele>502.0</ele><time>2026-04-05T17:07:40.998Z</time></trkpt><trkpt lat="44.34899785108292" lon="10.883228595878387"><ele>502.00000000000006</ele><time>2026-04-05T17:07:41.998Z</time></trkpt><trkpt lat="44.348978053225416" lon="10.883315898522048"><ele>502.0</ele><time>2026-04-05T17:07:42.998Z</time></trkpt><trkpt lat="44.34897029270412" lon="10.883426022120554"><ele>502.0</ele><time>2026-04-05T17:07:43.998Z</time></trkpt><trkpt lat="44.348962601236245" lon="10.88354350529694"><ele>502.0</ele><time>2026-04-05T17:07:44.998Z</time></trkpt><trkpt lat="44.348960727880886" lon="10.883654047735353"><ele>502.00000000000006</ele><time>2026-04-05T17:07:45.998Z</time></trkpt><trkpt lat="44.34890345551478" lon="10.88373667809882"><ele>502.0</ele><time>2026-04-05T17:07:47.998Z</time></trkpt><trkpt lat="44.34892951857764" lon="10.883860789868884"><ele>503.6</ele><time>2026-04-05T17:07:49.998Z</time></trkpt><trkpt lat="44.34886827708945" lon="10.883957967062425"><ele>505.20000000000005</ele><time>2026-04-05T17:07:51.998Z</time></trkpt><trkpt lat="44.34873920548326" lon="10.883994200061368"><ele>506.8</ele><time>2026-04-05T17:07:53.998Z</time></trkpt><trkpt lat="44.34866940502982" lon="10.884061198790937"><ele>508.4</ele><time>2026-04-05T17:07:54.998Z</time></trkpt><trkpt lat="44.34858770170394" lon="10.884095645662216"><ele>510.0</ele><time>2026-04-05T17:07:55.998Z</time></trkpt><trkpt lat="44.34850061749757" lon="10.884082508186092"><ele>510.0</ele><time>2026-04-05T17:07:56.998Z</time></trkpt><trkpt lat="44.34842481002278" lon="10.884104152909993"><ele>510.0</ele><time>2026-04-05T17:07:57.998Z</time></trkpt><trkpt lat="44.348319135572645" lon="10.884085343423916"><ele>510.0</ele><time>2026-04-05T17:07:59.998Z</time></trkpt><trkpt lat="44.348246553537514" lon="10.884064205393104"><ele>510.0</ele><time>2026-04-05T17:08:00.998Z</time></trkpt><trkpt lat="44.34814991215477" lon="10.884114054681014"><ele>510.0</ele><time>2026-04-05T17:08:02.998Z</time></trkpt><trkpt lat="44.34809201726748" lon="10.884231864502645"><ele>511.5</ele><time>2026-04-05T17:08:04.998Z</time></trkpt><trkpt lat="44.34805443306939" lon="10.884304980723035"><ele>513.0</ele><time>2026-04-05T17:08:05.998Z</time></trkpt><trkpt lat="44.34796858423678" lon="10.884300429411317"><ele>514.5</ele><time>2026-04-05T17:08:13Z</time></trkpt><trkpt lat="44.34787873624326" lon="10.88434856179896"><ele>516.0</ele><time>2026-04-05T17:08:15Z</time></trkpt><trkpt lat="44.3478232180132" lon="10.884252100274873"><ele>517.5</ele><time>2026-04-05T17:08:25Z</time></trkpt><trkpt lat="44.34778347330719" lon="10.884169293850093"><ele>519.0</ele><time>2026-04-05T17:08:26Z</time></trkpt><trkpt lat="44.34773900280448" lon="10.884087038040144"><ele>522.0</ele><time>2026-04-05T17:08:27Z</time></trkpt><trkpt lat="44.34768117577248" lon="10.883986384197884"><ele>525.0</ele><time>2026-04-05T17:08:28Z</time></trkpt><trkpt lat="44.34762697301858" lon="10.883938113139388"><ele>528.0</ele><time>2026-04-05T17:08:28.999Z</time></trkpt><trkpt lat="44.34748156704665" lon="10.883859880982035"><ele>531.0</ele><time>2026-04-05T17:08:30.999Z</time></trkpt><trkpt lat="44.34741482997888" lon="10.883817631159172"><ele>534.0</ele><time>2026-04-05T17:08:31.999Z</time></trkpt><trkpt lat="44.347300976301305" lon="10.883782084877305"><ele>540.5</ele><time>2026-04-05T17:08:32.999Z</time></trkpt><trkpt lat="44.34716027174131" lon="10.883731486697988"><ele>547.0</ele><time>2026-04-05T17:08:33.999Z</time></trkpt><trkpt lat="44.34701958914991" lon="10.883678909618398"><ele>553.5</ele><time>2026-04-05T17:08:34.999Z</time></trkpt><trkpt lat="44.34694349283788" lon="10.883640338736324"><ele>560.0</ele><time>2026-04-05T17:08:35.999Z</time></trkpt><trkpt lat="44.346852248189606" lon="10.883618111628294"><ele>560.0</ele><time>2026-04-05T17:08:36.999Z</time></trkpt><trkpt lat="44.34676063588946" lon="10.883610345139257"><ele>560.0</ele><time>2026-04-05T17:08:37.999Z</time></trkpt><trkpt lat="44.34666033737302" lon="10.883598509681864"><ele>560.0</ele><time>2026-04-05T17:08:38.999Z</time></trkpt><trkpt lat="44.34659922497611" lon="10.883564242347996"><ele>560.0</ele><time>2026-04-05T17:08:39.999Z</time></trkpt><trkpt lat="44.346489388177524" lon="10.883497128343782"><ele>560.0</ele><time>2026-04-05T17:08:40.999Z</time></trkpt><trkpt lat="44.34639497794626" lon="10.883426856975799"><ele>561.25</ele><time>2026-04-05T17:08:41.999Z</time></trkpt><trkpt lat="44.34628041321194" lon="10.883362800865395"><ele>562.5</ele><time>2026-04-05T17:08:42.999Z</time></trkpt><trkpt lat="44.346196568774516" lon="10.883308750441822"><ele>563.75</ele><time>2026-04-05T17:08:43.999Z</time></trkpt><trkpt lat="44.34609041254348" lon="10.883252592755"><ele>565.0</ele><time>2026-04-05T17:08:44.999Z</time></trkpt><trkpt lat="44.34596267540417" lon="10.883136227022977"><ele>565.0</ele><time>2026-04-05T17:08:45.999Z</time></trkpt><trkpt lat="44.34585687515607" lon="10.883035286775579"><ele>565.0</ele><time>2026-04-05T17:08:46.999Z</time></trkpt><trkpt lat="44.34578143236268" lon="10.882938259384968"><ele>565.0</ele><time>2026-04-05T17:08:47.999Z</time></trkpt><trkpt lat="44.345705184193484" lon="10.882849652430965"><ele>565.0</ele><time>2026-04-05T17:08:48.999Z</time></trkpt><trkpt lat="44.34560482744643" lon="10.882787291008173"><ele>565.0</ele><time>2026-04-05T17:08:49.999Z</time></trkpt><trkpt lat="44.34551739374832" lon="10.882750157995993"><ele>566.1666666666667</ele><time>2026-04-05T17:08:50.999Z</time></trkpt><trkpt lat="44.345444350775125" lon="10.882740914138251"><ele>567.3333333333334</ele><time>2026-04-05T17:08:51.999Z</time></trkpt><trkpt lat="44.34537546645988" lon="10.882731187698656"><ele>568.5</ele><time>2026-04-05T17:08:52.999Z</time></trkpt><trkpt lat="44.34527398381448" lon="10.882792957169075"><ele>569.6666666666666</ele><time>2026-04-05T17:08:54.999Z</time></trkpt><trkpt lat="44.345223824624405" lon="10.882868657951146"><ele>570.8333333333333</ele><time>2026-04-05T17:08:55.999Z</time></trkpt><trkpt lat="44.345153831478505" lon="10.882928622739787"><ele>572.0</ele><time>2026-04-05T17:08:56.999Z</time></trkpt><trkpt lat="44.345102284516734" lon="10.882998804791544"><ele>572.0</ele><time>2026-04-05T17:08:57.999Z</time></trkpt><trkpt lat="44.34505939294331" lon="10.883068933310376"><ele>572.0</ele><time>2026-04-05T17:08:58.999Z</time></trkpt><trkpt lat="44.34501357253698" lon="10.883219034078305"><ele>572.0</ele><time>2026-04-05T17:09:00.999Z</time></trkpt><trkpt lat="44.34495791311727" lon="10.883275172377347"><ele>572.0</ele><time>2026-04-05T17:09:02.999Z</time></trkpt><trkpt lat="44.34491948130699" lon="10.883179564572208"><ele>572.0</ele><time>2026-04-05T17:09:04.999Z</time></trkpt><trkpt lat="44.344874713448846" lon="10.88311717001134"><ele>572.0</ele><time>2026-04-05T17:09:06.999Z</time></trkpt><trkpt lat="44.34479828601981" lon="10.883055005713006"><ele>572.0</ele><time>2026-04-05T17:09:09.999Z</time></trkpt><trkpt lat="44.34473778071855" lon="10.88297119826657"><ele>572.0</ele><time>2026-04-05T17:09:11.999Z</time></trkpt><trkpt lat="44.3446621408854" lon="10.882870154232183"><ele>572.0</ele><time>2026-04-05T17:09:13.999Z</time></trkpt><trkpt lat="44.34457426537185" lon="10.882827596403775"><ele>572.0</ele><time>2026-04-05T17:09:15.999Z</time></trkpt><trkpt lat="44.34444994083766" lon="10.882816364394479"><ele>572.0</ele><time>2026-04-05T17:09:17.999Z</time></trkpt><trkpt lat="44.34431670613398" lon="10.882728448368"><ele>573.4</ele><time>2026-04-05T17:09:19.999Z</time></trkpt><trkpt lat="44.34424740941926" lon="10.882667456318497"><ele>574.8000000000001</ele><time>2026-04-05T17:09:20.999Z</time></trkpt><trkpt lat="44.344204275562056" lon="10.88258478548219"><ele>576.2</ele><time>2026-04-05T17:09:21.999Z</time></trkpt><trkpt lat="44.34413697279119" lon="10.882447002003708"><ele>577.6</ele><time>2026-04-05T17:09:23.999Z</time></trkpt><trkpt lat="44.34407258952157" lon="10.882325794154339"><ele>579.0</ele><time>2026-04-05T17:09:25.999Z</time></trkpt><trkpt lat="44.34397588935447" lon="10.882255259738217"><ele>579.0</ele><time>2026-04-05T17:09:27.999Z</time></trkpt><trkpt lat="44.343921887754" lon="10.882199746541335"><ele>579.0</ele><time>2026-04-05T17:09:28.999Z</time></trkpt><trkpt lat="44.343857324466654" lon="10.882148473283673"><ele>579.0</ele><time>2026-04-05T17:09:30.999Z</time></trkpt><trkpt lat="44.3437902750125" lon="10.882111659047158"><ele>579.0</ele><time>2026-04-05T17:09:35.998Z</time></trkpt><trkpt lat="44.343774645353136" lon="10.882011426188763"><ele>579.0</ele><time>2026-04-05T17:09:37.998Z</time></trkpt><trkpt lat="44.343730057466416" lon="10.88188770679369"><ele>579.0</ele><time>2026-04-05T17:09:39.998Z</time></trkpt><trkpt lat="44.34375683229035" lon="10.881799354784105"><ele>582.2</ele><time>2026-04-05T17:09:41.998Z</time></trkpt><trkpt lat="44.34376672279666" lon="10.881682871956812"><ele>585.4</ele><time>2026-04-05T17:09:43.998Z</time></trkpt><trkpt lat="44.34377628214683" lon="10.88155531206491"><ele>588.6</ele><time>2026-04-05T17:09:45.998Z</time></trkpt><trkpt lat="44.34377811212879" lon="10.881381803571088"><ele>591.8</ele><time>2026-04-05T17:09:46.998Z</time></trkpt><trkpt lat="44.34377327561595" lon="10.881262587638934"><ele>595.0</ele><time>2026-04-05T17:09:47.998Z</time></trkpt><trkpt lat="44.343791249326685" lon="10.881077844017357"><ele>595.0</ele><time>2026-04-05T17:09:48.998Z</time></trkpt><trkpt lat="44.343772987387744" lon="10.88098364085731"><ele>595.0</ele><time>2026-04-05T17:09:49.998Z</time></trkpt><trkpt lat="44.34366907833218" lon="10.88085237830826"><ele>595.0</ele><time>2026-04-05T17:09:51.998Z</time></trkpt><trkpt lat="44.34359294708424" lon="10.880805280888817"><ele>595.0</ele><time>2026-04-05T17:09:52.998Z</time></trkpt><trkpt lat="44.343497194625805" lon="10.880767027241468"><ele>595.0</ele><time>2026-04-05T17:09:53.998Z</time></trkpt><trkpt lat="44.34338820687337" lon="10.880717078502999"><ele>593.75</ele><time>2026-04-05T17:09:54.998Z</time></trkpt><trkpt lat="44.343282951205836" lon="10.880643617190092"><ele>592.5</ele><time>2026-04-05T17:09:55.998Z</time></trkpt><trkpt lat="44.343195820786725" lon="10.880563946041653"><ele>591.25</ele><time>2026-04-05T17:09:56.998Z</time></trkpt><trkpt lat="44.343112761391325" lon="10.88046775987454"><ele>590.0</ele><time>2026-04-05T17:09:57.998Z</time></trkpt><trkpt lat="44.343009244722396" lon="10.880353329591214"><ele>595.4</ele><time>2026-04-05T17:09:58.998Z</time></trkpt><trkpt lat="44.34289323990779" lon="10.880235262836885"><ele>600.8</ele><time>2026-04-05T17:09:59.998Z</time></trkpt><trkpt lat="44.34283480941597" lon="10.880153243537288"><ele>606.2</ele><time>2026-04-05T17:10:00.998Z</time></trkpt><trkpt lat="44.34278343528075" lon="10.880077024569523"><ele>611.6</ele><time>2026-04-05T17:10:01.998Z</time></trkpt><trkpt lat="44.34273634744775" lon="10.879987843978217"><ele>617.0</ele><time>2026-04-05T17:10:02.998Z</time></trkpt><trkpt lat="44.34268742572905" lon="10.879917639767946"><ele>617.0</ele><time>2026-04-05T17:10:03.998Z</time></trkpt><trkpt lat="44.34262659676848" lon="10.879842370288323"><ele>617.0</ele><time>2026-04-05T17:10:04.998Z</time></trkpt><trkpt lat="44.34255986256635" lon="10.87978187232295"><ele>617.0</ele><time>2026-04-05T17:10:05.998Z</time></trkpt><trkpt lat="44.34248689494265" lon="10.879648466629325"><ele>617.0</ele><time>2026-04-05T17:10:07.998Z</time></trkpt><trkpt lat="44.342514194840135" lon="10.879555964308198"><ele>617.0</ele><time>2026-04-05T17:10:09.998Z</time></trkpt><trkpt lat="44.34262507182389" lon="10.879488965034954"><ele>617.0</ele><time>2026-04-05T17:10:11.998Z</time></trkpt><trkpt lat="44.342718929591065" lon="10.879479498262445"><ele>617.0</ele><time>2026-04-05T17:10:12.998Z</time></trkpt><trkpt lat="44.3428330345266" lon="10.87945802929338"><ele>617.0</ele><time>2026-04-05T17:10:14Z</time></trkpt><trkpt lat="44.342948678690725" lon="10.879408106666796"><ele>617.0</ele><time>2026-04-05T17:10:16Z</time></trkpt><trkpt lat="44.343001662199555" lon="10.879326884994038"><ele>617.0</ele><time>2026-04-05T17:10:17Z</time></trkpt><trkpt lat="44.34306998705146" lon="10.879225515417637"><ele>617.5</ele><time>2026-04-05T17:10:18Z</time></trkpt><trkpt lat="44.343130002553" lon="10.879175731848372"><ele>618.0</ele><time>2026-04-05T17:10:19Z</time></trkpt><trkpt lat="44.34321020047748" lon="10.879166493025533"><ele>618.5</ele><time>2026-04-05T17:10:20Z</time></trkpt><trkpt lat="44.34330951490029" lon="10.87915578458755"><ele>619.0</ele><time>2026-04-05T17:10:21Z</time></trkpt><trkpt lat="44.34341029737372" lon="10.879142296586458"><ele>619.5</ele><time>2026-04-05T17:10:22Z</time></trkpt><trkpt lat="44.34349931374531" lon="10.879135496463148"><ele>620.0</ele><time>2026-04-05T17:10:23Z</time></trkpt><trkpt lat="44.343575341055946" lon="10.87912786319392"><ele>620.0</ele><time>2026-04-05T17:10:24Z</time></trkpt><trkpt lat="44.34364648655467" lon="10.879123466205826"><ele>620.0</ele><time>2026-04-05T17:10:25Z</time></trkpt><trkpt lat="44.343719411292106" lon="10.879112099335112"><ele>620.0</ele><time>2026-04-05T17:10:26Z</time></trkpt><trkpt lat="44.343779395700324" lon="10.87907810392809"><ele>620.0</ele><time>2026-04-05T17:10:27Z</time></trkpt><trkpt lat="44.34382204933654" lon="10.878918058461654"><ele>620.0</ele><time>2026-04-05T17:10:29Z</time></trkpt><trkpt lat="44.34373905851655" lon="10.878810218708342"><ele>620.0</ele><time>2026-04-05T17:10:31Z</time></trkpt><trkpt lat="44.343650771090466" lon="10.878768792758606"><ele>620.0</ele><time>2026-04-05T17:10:31.999Z</time></trkpt><trkpt lat="44.343601787633865" lon="10.87868975080798"><ele>620.0</ele><time>2026-04-05T17:10:32.999Z</time></trkpt><trkpt lat="44.343543695997404" lon="10.878608164004532"><ele>620.0</ele><time>2026-04-05T17:10:33.999Z</time></trkpt><trkpt lat="44.34346157417464" lon="10.878551721211098"><ele>620.0</ele><time>2026-04-05T17:10:34.999Z</time></trkpt><trkpt lat="44.343340204818496" lon="10.878477489352285"><ele>620.0</ele><time>2026-04-05T17:10:35.999Z</time></trkpt><trkpt lat="44.34323460568726" lon="10.878397622395044"><ele>621.4</ele><time>2026-04-05T17:10:36.999Z</time></trkpt><trkpt lat="44.343169143679326" lon="10.878333301810402"><ele>622.8</ele><time>2026-04-05T17:10:37.999Z</time></trkpt><trkpt lat="44.343108491392535" lon="10.878274163646193"><ele>624.2</ele><time>2026-04-05T17:10:38.999Z</time></trkpt><trkpt lat="44.343040894802265" lon="10.878183437578395"><ele>625.6</ele><time>2026-04-05T17:10:40.999Z</time></trkpt><trkpt lat="44.34309274718814" lon="10.87799743282527"><ele>627.0</ele><time>2026-04-05T17:10:42.999Z</time></trkpt><trkpt lat="44.34308804422924" lon="10.87781585946816"><ele>625.6666666666666</ele><time>2026-04-05T17:10:43.999Z</time></trkpt><trkpt lat="44.34309504790237" lon="10.877590189153109"><ele>624.3333333333333</ele><time>2026-04-05T17:10:44.999Z</time></trkpt><trkpt lat="44.343115040359216" lon="10.877363085468094"><ele>623.0</ele><time>2026-04-05T17:10:45.999Z</time></trkpt><trkpt lat="44.343129767390096" lon="10.877188586882742"><ele>623.0</ele><time>2026-04-05T17:10:46.999Z</time></trkpt><trkpt lat="44.34314700189958" lon="10.876971228104686"><ele>623.0</ele><time>2026-04-05T17:10:47.999Z</time></trkpt><trkpt lat="44.343180121711754" lon="10.876808696898905"><ele>623.0</ele><time>2026-04-05T17:10:48.999Z</time></trkpt><trkpt lat="44.34317652624996" lon="10.876645273013349"><ele>623.0</ele><time>2026-04-05T17:10:49.999Z</time></trkpt><trkpt lat="44.34319350235499" lon="10.87648608194373"><ele>623.3333333333333</ele><time>2026-04-05T17:10:50.999Z</time></trkpt><trkpt lat="44.343202682049615" lon="10.876334040021995"><ele>623.6666666666666</ele><time>2026-04-05T17:10:51.999Z</time></trkpt><trkpt lat="44.34319411324677" lon="10.876208794105684"><ele>624.0</ele><time>2026-04-05T17:10:52.999Z</time></trkpt><trkpt lat="44.34315138657965" lon="10.8761088326381"><ele>624.3333333333334</ele><time>2026-04-05T17:10:53.999Z</time></trkpt><trkpt lat="44.34311089802241" lon="10.876035791681666"><ele>624.6666666666667</ele><time>2026-04-05T17:10:54.999Z</time></trkpt><trkpt lat="44.343044577821416" lon="10.87600502160313"><ele>625.0</ele><time>2026-04-05T17:10:55.999Z</time></trkpt><trkpt lat="44.342962361964176" lon="10.875991409571212"><ele>627.8</ele><time>2026-04-05T17:10:56.999Z</time></trkpt><trkpt lat="44.342856354716396" lon="10.87597330890801"><ele>630.6</ele><time>2026-04-05T17:10:57.999Z</time></trkpt><trkpt lat="44.34272096029479" lon="10.87598022013408"><ele>633.4</ele><time>2026-04-05T17:10:58.999Z</time></trkpt><trkpt lat="44.34259798207947" lon="10.875989749171318"><ele>636.2</ele><time>2026-04-05T17:10:59.999Z</time></trkpt><trkpt lat="44.3425206088404" lon="10.875972099665702"><ele>639.0</ele><time>2026-04-05T17:11:00.999Z</time></trkpt><trkpt lat="44.34244871194431" lon="10.87589878601171"><ele>639.2</ele><time>2026-04-05T17:11:01.999Z</time></trkpt><trkpt lat="44.34240212901221" lon="10.875802264155066"><ele>639.4</ele><time>2026-04-05T17:11:02.999Z</time></trkpt><trkpt lat="44.342347843100065" lon="10.875702605723045"><ele>639.6</ele><time>2026-04-05T17:11:03.999Z</time></trkpt><trkpt lat="44.34228373328755" lon="10.875583997399893"><ele>639.8</ele><time>2026-04-05T17:11:04.999Z</time></trkpt><trkpt lat="44.342185431694105" lon="10.875455147673096"><ele>640.0</ele><time>2026-04-05T17:11:06.999Z</time></trkpt><trkpt lat="44.34209407738935" lon="10.87539758050538"><ele>642.2</ele><time>2026-04-05T17:11:07.999Z</time></trkpt><trkpt lat="44.34198974782975" lon="10.875327902018805"><ele>644.4</ele><time>2026-04-05T17:11:08.999Z</time></trkpt><trkpt lat="44.34190685671334" lon="10.875211334427407"><ele>646.5999999999999</ele><time>2026-04-05T17:11:09.999Z</time></trkpt><trkpt lat="44.341813581269214" lon="10.875125690630632"><ele>648.8</ele><time>2026-04-05T17:11:10.999Z</time></trkpt><trkpt lat="44.34174926293932" lon="10.875012156552334"><ele>651.0</ele><time>2026-04-05T17:11:11.999Z</time></trkpt><trkpt lat="44.34168784154017" lon="10.874908967886023"><ele>651.0</ele><time>2026-04-05T17:11:12.999Z</time></trkpt><trkpt lat="44.34165115122738" lon="10.874816979459805"><ele>651.0</ele><time>2026-04-05T17:11:13.999Z</time></trkpt><trkpt lat="44.341626612694164" lon="10.874707644068407"><ele>651.0</ele><time>2026-04-05T17:11:14.999Z</time></trkpt><trkpt lat="44.341606017229225" lon="10.874624340035547"><ele>651.0</ele><time>2026-04-05T17:11:16.999Z</time></trkpt><trkpt lat="44.34150380569422" lon="10.874747322590872"><ele>651.0</ele><time>2026-04-05T17:11:19.999Z</time></trkpt><trkpt lat="44.34146371131687" lon="10.874854697795987"><ele>651.0</ele><time>2026-04-05T17:11:20.999Z</time></trkpt><trkpt lat="44.34142708863484" lon="10.874968727115775"><ele>654.25</ele><time>2026-04-05T17:11:21.999Z</time></trkpt><trkpt lat="44.34137636942595" lon="10.875105840317955"><ele>657.5</ele><time>2026-04-05T17:11:22.999Z</time></trkpt><trkpt lat="44.34132256646211" lon="10.87524530553627"><ele>660.75</ele><time>2026-04-05T17:11:23.999Z</time></trkpt><trkpt lat="44.341261631977645" lon="10.875405459477125"><ele>664.0</ele><time>2026-04-05T17:11:24.999Z</time></trkpt><trkpt lat="44.34119561339029" lon="10.875574279370161"><ele>664.0</ele><time>2026-04-05T17:11:25.999Z</time></trkpt><trkpt lat="44.34112492309759" lon="10.875755282840293"><ele>664.0</ele><time>2026-04-05T17:11:26.999Z</time></trkpt><trkpt lat="44.34105531065409" lon="10.875942858235124"><ele>664.0</ele><time>2026-04-05T17:11:27.999Z</time></trkpt><trkpt lat="44.34102753821926" lon="10.876067718044348"><ele>664.0</ele><time>2026-04-05T17:11:28.999Z</time></trkpt><trkpt lat="44.34100026851441" lon="10.876244468757445"><ele>664.0</ele><time>2026-04-05T17:11:29.999Z</time></trkpt><trkpt lat="44.34097259666961" lon="10.876398949935318"><ele>664.0</ele><time>2026-04-05T17:11:30.999Z</time></trkpt><trkpt lat="44.34090688563971" lon="10.876504187936524"><ele>664.0</ele><time>2026-04-05T17:11:31.999Z</time></trkpt><trkpt lat="44.3408418764688" lon="10.876611706522157"><ele>664.0</ele><time>2026-04-05T17:11:32.999Z</time></trkpt><trkpt lat="44.34077859652109" lon="10.876733931372952"><ele>664.0</ele><time>2026-04-05T17:11:33.999Z</time></trkpt><trkpt lat="44.3407117536138" lon="10.876842757498249"><ele>664.0</ele><time>2026-04-05T17:11:34.999Z</time></trkpt><trkpt lat="44.34064340743977" lon="10.876957059266003"><ele>664.0</ele><time>2026-04-05T17:11:35.999Z</time></trkpt><trkpt lat="44.34057238499391" lon="10.87707980719482"><ele>664.0</ele><time>2026-04-05T17:11:36.998Z</time></trkpt><trkpt lat="44.34049843442612" lon="10.87719782042838"><ele>664.0</ele><time>2026-04-05T17:11:37.998Z</time></trkpt><trkpt lat="44.340409538964074" lon="10.877269622250804"><ele>664.0</ele><time>2026-04-05T17:11:38.998Z</time></trkpt><trkpt lat="44.34032179673356" lon="10.877352632138942"><ele>666.6</ele><time>2026-04-05T17:11:39.998Z</time></trkpt><trkpt lat="44.3402116375839" lon="10.877395284931437"><ele>669.2</ele><time>2026-04-05T17:11:40.998Z</time></trkpt><trkpt lat="44.34009947998322" lon="10.877429799401456"><ele>671.8000000000001</ele><time>2026-04-05T17:11:41.998Z</time></trkpt><trkpt lat="44.339998122623264" lon="10.877457647991232"><ele>674.4000000000001</ele><time>2026-04-05T17:11:42.998Z</time></trkpt><trkpt lat="44.339887967233366" lon="10.877485791304142"><ele>677.0</ele><time>2026-04-05T17:11:43.998Z</time></trkpt><trkpt lat="44.339775174845045" lon="10.877464023084444"><ele>679.0</ele><time>2026-04-05T17:11:44.998Z</time></trkpt><trkpt lat="44.33967175838072" lon="10.87745543745179"><ele>681.0</ele><time>2026-04-05T17:11:45.998Z</time></trkpt><trkpt lat="44.33956996359894" lon="10.877385571501556"><ele>683.0</ele><time>2026-04-05T17:11:46.998Z</time></trkpt><trkpt lat="44.33946325559889" lon="10.877338386125697"><ele>685.0</ele><time>2026-04-05T17:11:47.998Z</time></trkpt><trkpt lat="44.33934958316924" lon="10.877299560285557"><ele>687.0</ele><time>2026-04-05T17:11:48.998Z</time></trkpt><trkpt lat="44.33926699527194" lon="10.877255248921596"><ele>687.0</ele><time>2026-04-05T17:11:49.998Z</time></trkpt><trkpt lat="44.33921357250288" lon="10.877196318938276"><ele>687.0</ele><time>2026-04-05T17:11:50.998Z</time></trkpt><trkpt lat="44.33919433255094" lon="10.877083674922691"><ele>687.0</ele><time>2026-04-05T17:11:51.998Z</time></trkpt><trkpt lat="44.33921879902857" lon="10.876954809871204"><ele>687.0</ele><time>2026-04-05T17:11:52.998Z</time></trkpt><trkpt lat="44.33922984702391" lon="10.87680409818126"><ele>687.0</ele><time>2026-04-05T17:11:53.998Z</time></trkpt><trkpt lat="44.33923632217433" lon="10.876631086197447"><ele>687.2</ele><time>2026-04-05T17:11:54.998Z</time></trkpt><trkpt lat="44.339218374920144" lon="10.876489793011384"><ele>687.4000000000001</ele><time>2026-04-05T17:11:55.998Z</time></trkpt><trkpt lat="44.33919358097953" lon="10.876373387918319"><ele>687.5999999999999</ele><time>2026-04-05T17:11:56.998Z</time></trkpt><trkpt lat="44.339171602611266" lon="10.876245300808192"><ele>687.8</ele><time>2026-04-05T17:11:57.998Z</time></trkpt><trkpt lat="44.339142840509794" lon="10.876115994338386"><ele>688.0</ele><time>2026-04-05T17:11:58.998Z</time></trkpt><trkpt lat="44.33911382920102" lon="10.875965845638548"><ele>688.75</ele><time>2026-04-05T17:11:59.998Z</time></trkpt><trkpt lat="44.33908252425287" lon="10.875781289598216"><ele>689.5</ele><time>2026-04-05T17:12:00.998Z</time></trkpt><trkpt lat="44.33904642681901" lon="10.875583516743712"><ele>690.25</ele><time>2026-04-05T17:12:01.998Z</time></trkpt><trkpt lat="44.33901788259559" lon="10.875414068687132"><ele>691.0</ele><time>2026-04-05T17:12:02.998Z</time></trkpt><trkpt lat="44.33899147786955" lon="10.875245068994833"><ele>691.5999999999999</ele><time>2026-04-05T17:12:03.998Z</time></trkpt><trkpt lat="44.33901364943069" lon="10.875072422601118"><ele>692.2</ele><time>2026-04-05T17:12:04.998Z</time></trkpt><trkpt lat="44.33901694785099" lon="10.874940062167367"><ele>692.8</ele><time>2026-04-05T17:12:05.998Z</time></trkpt><trkpt lat="44.33900642288305" lon="10.874817340200357"><ele>693.4000000000001</ele><time>2026-04-05T17:12:06.998Z</time></trkpt><trkpt lat="44.338959229056904" lon="10.874694629503791"><ele>694.0</ele><time>2026-04-05T17:12:07.998Z</time></trkpt><trkpt lat="44.33888351603308" lon="10.874569796062056"><ele>698.8000000000001</ele><time>2026-04-05T17:12:08.998Z</time></trkpt><trkpt lat="44.33881559987593" lon="10.8744614739186"><ele>703.6</ele><time>2026-04-05T17:12:09.998Z</time></trkpt><trkpt lat="44.338759951233364" lon="10.874329178458268"><ele>708.4</ele><time>2026-04-05T17:12:10.998Z</time></trkpt><trkpt lat="44.33874660937416" lon="10.87418440121597"><ele>713.2</ele><time>2026-04-05T17:12:11.998Z</time></trkpt><trkpt lat="44.33878392129536" lon="10.874060084662885"><ele>718.0</ele><time>2026-04-05T17:12:12.998Z</time></trkpt><trkpt lat="44.338875068804654" lon="10.874000231262452"><ele>715.2</ele><time>2026-04-05T17:12:13.998Z</time></trkpt><trkpt lat="44.33897387059149" lon="10.873914525820002"><ele>712.4</ele><time>2026-04-05T17:12:14.998Z</time></trkpt><trkpt lat="44.339074527844964" lon="10.873836516402061"><ele>709.6</ele><time>2026-04-05T17:12:15.998Z</time></trkpt><trkpt lat="44.33915668656285" lon="10.873743242554857"><ele>706.8000000000001</ele><time>2026-04-05T17:12:16.998Z</time></trkpt><trkpt lat="44.33922479979124" lon="10.873674171558106"><ele>704.0</ele><time>2026-04-05T17:12:17.998Z</time></trkpt><trkpt lat="44.33927418630941" lon="10.87358208616201"><ele>704.0</ele><time>2026-04-05T17:12:18.998Z</time></trkpt><trkpt lat="44.33928055134178" lon="10.87348412575659"><ele>704.0</ele><time>2026-04-05T17:12:20Z</time></trkpt><trkpt lat="44.33925168575361" lon="10.873355444018115"><ele>704.0</ele><time>2026-04-05T17:12:21Z</time></trkpt><trkpt lat="44.339207707881826" lon="10.873233058813259"><ele>704.0</ele><time>2026-04-05T17:12:22Z</time></trkpt><trkpt lat="44.33915771800558" lon="10.873085602037781"><ele>704.0</ele><time>2026-04-05T17:12:23Z</time></trkpt><trkpt lat="44.33911149365776" lon="10.872958573812122"><ele>706.4000000000001</ele><time>2026-04-05T17:12:24Z</time></trkpt><trkpt lat="44.33905044573504" lon="10.872887682982803"><ele>708.8</ele><time>2026-04-05T17:12:25Z</time></trkpt><trkpt lat="44.33896635712369" lon="10.87285761384781"><ele>711.2</ele><time>2026-04-05T17:12:26Z</time></trkpt><trkpt lat="44.3388595966808" lon="10.872861854408805"><ele>713.5999999999999</ele><time>2026-04-05T17:12:27Z</time></trkpt><trkpt lat="44.33874965506936" lon="10.872872176069214"><ele>716.0</ele><time>2026-04-05T17:12:28Z</time></trkpt><trkpt lat="44.338620913173955" lon="10.872873001296737"><ele>717.5999999999999</ele><time>2026-04-05T17:12:29Z</time></trkpt><trkpt lat="44.3384774869511" lon="10.872855113817996"><ele>719.2</ele><time>2026-04-05T17:12:30Z</time></trkpt><trkpt lat="44.338367453474596" lon="10.87283762072469"><ele>720.8</ele><time>2026-04-05T17:12:30.999Z</time></trkpt><trkpt lat="44.33828535466575" lon="10.87278293996669"><ele>722.4000000000001</ele><time>2026-04-05T17:12:31.999Z</time></trkpt><trkpt lat="44.338221893285706" lon="10.872683443636527"><ele>724.0</ele><time>2026-04-05T17:12:32.999Z</time></trkpt><trkpt lat="44.338192812199004" lon="10.872546037402117"><ele>724.0</ele><time>2026-04-05T17:12:33.999Z</time></trkpt><trkpt lat="44.33823308751104" lon="10.872429121556545"><ele>724.0</ele><time>2026-04-05T17:12:34.999Z</time></trkpt><trkpt lat="44.33824237212389" lon="10.872270403960156"><ele>724.0</ele><time>2026-04-05T17:12:36.999Z</time></trkpt><trkpt lat="44.338214791764756" lon="10.872182054147517"><ele>724.0</ele><time>2026-04-05T17:12:39.999Z</time></trkpt><trkpt lat="44.33819693041109" lon="10.872081585916813"><ele>724.0</ele><time>2026-04-05T17:12:56.999Z</time></trkpt><trkpt lat="44.33822432544232" lon="10.871980265888588"><ele>724.0</ele><time>2026-04-05T17:12:57.999Z</time></trkpt><trkpt lat="44.33823054116225" lon="10.871879160077158"><ele>723.5</ele><time>2026-04-05T17:12:58.999Z</time></trkpt><trkpt lat="44.33825459269404" lon="10.871731871640591"><ele>723.0</ele><time>2026-04-05T17:12:59.999Z</time></trkpt><trkpt lat="44.3383020486071" lon="10.871550513364864"><ele>722.5</ele><time>2026-04-05T17:13:00.999Z</time></trkpt><trkpt lat="44.33834781855942" lon="10.871357794512722"><ele>722.0</ele><time>2026-04-05T17:13:01.999Z</time></trkpt><trkpt lat="44.338396569230504" lon="10.871152337080867"><ele>722.0</ele><time>2026-04-05T17:13:02.999Z</time></trkpt><trkpt lat="44.338442444456064" lon="10.870951256108388"><ele>722.0</ele><time>2026-04-05T17:13:03.999Z</time></trkpt><trkpt lat="44.338492838136446" lon="10.870760735193063"><ele>722.0</ele><time>2026-04-05T17:13:04.999Z</time></trkpt><trkpt lat="44.33853600152845" lon="10.870584433464206"><ele>722.0</ele><time>2026-04-05T17:13:05.999Z</time></trkpt><trkpt lat="44.33857379070577" lon="10.870417295519166"><ele>723.0</ele><time>2026-04-05T17:13:06.999Z</time></trkpt><trkpt lat="44.33861109343656" lon="10.870266283425103"><ele>724.0</ele><time>2026-04-05T17:13:07.999Z</time></trkpt><trkpt lat="44.33865112133791" lon="10.870130618438443"><ele>725.0</ele><time>2026-04-05T17:13:08.999Z</time></trkpt><trkpt lat="44.33870208033668" lon="10.869974210156347"><ele>726.0</ele><time>2026-04-05T17:13:09.999Z</time></trkpt><trkpt lat="44.3387571126242" lon="10.869823676304598"><ele>726.0</ele><time>2026-04-05T17:13:10.999Z</time></trkpt><trkpt lat="44.33882298376984" lon="10.869660609369086"><ele>726.0</ele><time>2026-04-05T17:13:11.999Z</time></trkpt><trkpt lat="44.338910156035865" lon="10.869496807542061"><ele>726.0</ele><time>2026-04-05T17:13:12.999Z</time></trkpt><trkpt lat="44.33901511068414" lon="10.86931900790374"><ele>726.0</ele><time>2026-04-05T17:13:13.999Z</time></trkpt><trkpt lat="44.339125546864345" lon="10.869139466924144"><ele>729.75</ele><time>2026-04-05T17:13:14.999Z</time></trkpt><trkpt lat="44.33924186245558" lon="10.868955528623697"><ele>733.5</ele><time>2026-04-05T17:13:15.999Z</time></trkpt><trkpt lat="44.33932964968779" lon="10.868817360134692"><ele>737.25</ele><time>2026-04-05T17:13:16.999Z</time></trkpt><trkpt lat="44.3393941193284" lon="10.868677129990122"><ele>741.0</ele><time>2026-04-05T17:13:17.999Z</time></trkpt><trkpt lat="44.339400205340205" lon="10.868534072393878"><ele>742.25</ele><time>2026-04-05T17:13:18.999Z</time></trkpt><trkpt lat="44.33934467418648" lon="10.868387261619462"><ele>743.5</ele><time>2026-04-05T17:13:19.999Z</time></trkpt><trkpt lat="44.339244995767956" lon="10.868244049413939"><ele>744.75</ele><time>2026-04-05T17:13:21Z</time></trkpt><trkpt lat="44.33912358028499" lon="10.868132789792135"><ele>746.0</ele><time>2026-04-05T17:13:22Z</time></trkpt><trkpt lat="44.33898634919514" lon="10.868069539334037"><ele>748.25</ele><time>2026-04-05T17:13:23Z</time></trkpt><trkpt lat="44.33883848871014" lon="10.86803684064515"><ele>750.5</ele><time>2026-04-05T17:13:24Z</time></trkpt><trkpt lat="44.3386967794242" lon="10.868018434318985"><ele>752.75</ele><time>2026-04-05T17:13:25Z</time></trkpt><trkpt lat="44.33856590596774" lon="10.867991214019506"><ele>755.0</ele><time>2026-04-05T17:13:26Z</time></trkpt><trkpt lat="44.33845167298629" lon="10.867928120304702"><ele>755.0</ele><time>2026-04-05T17:13:27Z</time></trkpt><trkpt lat="44.33836427975859" lon="10.867815682843304"><ele>755.0</ele><time>2026-04-05T17:13:28Z</time></trkpt><trkpt lat="44.33828072190556" lon="10.867672494159484"><ele>755.0</ele><time>2026-04-05T17:13:29Z</time></trkpt><trkpt lat="44.33821646397258" lon="10.867535789463396"><ele>755.0</ele><time>2026-04-05T17:13:30Z</time></trkpt><trkpt lat="44.338171181690335" lon="10.867400319597776"><ele>755.1666666666666</ele><time>2026-04-05T17:13:31Z</time></trkpt><trkpt lat="44.338152910802684" lon="10.867281427842073"><ele>755.3333333333333</ele><time>2026-04-05T17:13:32Z</time></trkpt><trkpt lat="44.33814698413511" lon="10.867165883736849"><ele>755.5</ele><time>2026-04-05T17:13:33Z</time></trkpt><trkpt lat="44.338161011692826" lon="10.867076248493028"><ele>755.6666666666666</ele><time>2026-04-05T17:13:34Z</time></trkpt><trkpt lat="44.33816381005767" lon="10.86697142806496"><ele>755.8333333333334</ele><time>2026-04-05T17:13:36Z</time></trkpt><trkpt lat="44.33816657426267" lon="10.866876310435295"><ele>756.0</ele><time>2026-04-05T17:13:38Z</time></trkpt><trkpt lat="44.3380828537999" lon="10.866908589167515"><ele>756.0</ele><time>2026-04-05T17:13:43.999Z</time></trkpt><trkpt lat="44.33814738206017" lon="10.866793256829322"><ele>756.0</ele><time>2026-04-05T17:13:45.999Z</time></trkpt><trkpt lat="44.33819085855272" lon="10.866672023064218"><ele>756.0</ele><time>2026-04-05T17:13:47.999Z</time></trkpt><trkpt lat="44.33812397865966" lon="10.866553074724846"><ele>756.0</ele><time>2026-04-05T17:13:49.999Z</time></trkpt><trkpt lat="44.338092788494585" lon="10.866462137355374"><ele>756.0</ele><time>2026-04-05T17:13:50.999Z</time></trkpt><trkpt lat="44.33806856934101" lon="10.866376882506433"><ele>756.0</ele><time>2026-04-05T17:13:51.999Z</time></trkpt><trkpt lat="44.3380131920993" lon="10.866226052913335"><ele>755.6666666666666</ele><time>2026-04-05T17:13:53.999Z</time></trkpt><trkpt lat="44.337659756518505" lon="10.866303578283398"><ele>755.3333333333333</ele><time>2026-04-05T17:13:54.999Z</time></trkpt><trkpt lat="44.33759851234043" lon="10.866239836602363"><ele>755.0</ele><time>2026-04-05T17:13:55.999Z</time></trkpt><trkpt lat="44.33753384172303" lon="10.866170331979673"><ele>755.0</ele><time>2026-04-05T17:13:56.999Z</time></trkpt><trkpt lat="44.337484398253366" lon="10.86610667641956"><ele>755.0</ele><time>2026-04-05T17:13:57.999Z</time></trkpt><trkpt lat="44.33744002083518" lon="10.866030704235595"><ele>755.0</ele><time>2026-04-05T17:13:58.999Z</time></trkpt><trkpt lat="44.337410629853125" lon="10.86591978168191"><ele>755.0</ele><time>2026-04-05T17:13:59.999Z</time></trkpt><trkpt lat="44.33739468541262" lon="10.865799896006388"><ele>755.0</ele><time>2026-04-05T17:14:00.999Z</time></trkpt><trkpt lat="44.33737874577228" lon="10.865679791824236"><ele>755.0</ele><time>2026-04-05T17:14:01.999Z</time></trkpt><trkpt lat="44.33734003219846" lon="10.865564760382757"><ele>755.6</ele><time>2026-04-05T17:14:02.999Z</time></trkpt><trkpt lat="44.33729421486019" lon="10.86542990338327"><ele>756.2</ele><time>2026-04-05T17:14:03.999Z</time></trkpt><trkpt lat="44.33723656120417" lon="10.865248462092595"><ele>756.8</ele><time>2026-04-05T17:14:05.999Z</time></trkpt><trkpt lat="44.33720309159054" lon="10.865152747110931"><ele>757.4</ele><time>2026-04-05T17:14:06.999Z</time></trkpt><trkpt lat="44.337160678395904" lon="10.865052426246933"><ele>758.0</ele><time>2026-04-05T17:14:07.999Z</time></trkpt><trkpt lat="44.337122654392275" lon="10.864927936330343"><ele>757.8</ele><time>2026-04-05T17:14:08.999Z</time></trkpt><trkpt lat="44.337098313481356" lon="10.864782354256015"><ele>757.5999999999999</ele><time>2026-04-05T17:14:09.999Z</time></trkpt><trkpt lat="44.33708333644956" lon="10.864624676816407"><ele>757.4000000000001</ele><time>2026-04-05T17:14:10.999Z</time></trkpt><trkpt lat="44.33706098140764" lon="10.864462339766959"><ele>757.2</ele><time>2026-04-05T17:14:11.999Z</time></trkpt><trkpt lat="44.3370171400482" lon="10.864334501382576"><ele>757.0</ele><time>2026-04-05T17:14:12.999Z</time></trkpt><trkpt lat="44.33695540539712" lon="10.864210312427552"><ele>757.0</ele><time>2026-04-05T17:14:13.999Z</time></trkpt><trkpt lat="44.33689061340599" lon="10.86409621911629"><ele>757.0</ele><time>2026-04-05T17:14:14.999Z</time></trkpt><trkpt lat="44.33682034622252" lon="10.863999454664524"><ele>757.0</ele><time>2026-04-05T17:14:15.999Z</time></trkpt><trkpt lat="44.336768817727666" lon="10.863924046173082"><ele>757.0</ele><time>2026-04-05T17:14:16.999Z</time></trkpt><trkpt lat="44.33672020994324" lon="10.86384862369573"><ele>757.0</ele><time>2026-04-05T17:14:17.999Z</time></trkpt><trkpt lat="44.336681479586446" lon="10.863756695612063"><ele>757.0</ele><time>2026-04-05T17:14:18.999Z</time></trkpt><trkpt lat="44.336654604223206" lon="10.863651958175964"><ele>757.0</ele><time>2026-04-05T17:14:19.999Z</time></trkpt><trkpt lat="44.33664546537613" lon="10.863520269107378"><ele>757.0</ele><time>2026-04-05T17:14:20.999Z</time></trkpt><trkpt lat="44.33662687308476" lon="10.863361979592522"><ele>757.0</ele><time>2026-04-05T17:14:21.999Z</time></trkpt><trkpt lat="44.33659551494733" lon="10.863172903398116"><ele>757.0</ele><time>2026-04-05T17:14:22.999Z</time></trkpt><trkpt lat="44.336557905271235" lon="10.862973445440218"><ele>758.0</ele><time>2026-04-05T17:14:23.999Z</time></trkpt><trkpt lat="44.33651232337849" lon="10.862791469136365"><ele>759.0</ele><time>2026-04-05T17:14:24.999Z</time></trkpt><trkpt lat="44.33646876246795" lon="10.86263757063285"><ele>760.0</ele><time>2026-04-05T17:14:26Z</time></trkpt><trkpt lat="44.33643955027765" lon="10.862457856628914"><ele>761.0</ele><time>2026-04-05T17:14:27Z</time></trkpt><trkpt lat="44.33643841302449" lon="10.862255304219566"><ele>761.75</ele><time>2026-04-05T17:14:28Z</time></trkpt><trkpt lat="44.33643665363889" lon="10.862066632683272"><ele>762.5</ele><time>2026-04-05T17:14:29Z</time></trkpt><trkpt lat="44.33643064681487" lon="10.861878217845264"><ele>763.25</ele><time>2026-04-05T17:14:30Z</time></trkpt><trkpt lat="44.33642559690165" lon="10.861709240510876"><ele>764.0</ele><time>2026-04-05T17:14:31Z</time></trkpt><trkpt lat="44.336418112115695" lon="10.861562210960106"><ele>764.0</ele><time>2026-04-05T17:14:32Z</time></trkpt><trkpt lat="44.336403073777745" lon="10.861411028912697"><ele>764.0</ele><time>2026-04-05T17:14:33Z</time></trkpt><trkpt lat="44.33638575822286" lon="10.86126521299539"><ele>764.0</ele><time>2026-04-05T17:14:34Z</time></trkpt><trkpt lat="44.33637149583266" lon="10.861120901216925"><ele>764.0</ele><time>2026-04-05T17:14:35Z</time></trkpt><trkpt lat="44.336355286721236" lon="10.86097722310678"><ele>764.0</ele><time>2026-04-05T17:14:36Z</time></trkpt><trkpt lat="44.336335274896086" lon="10.860843933911609"><ele>764.8333333333333</ele><time>2026-04-05T17:14:37Z</time></trkpt><trkpt lat="44.33631208937806" lon="10.860723333354068"><ele>765.6666666666666</ele><time>2026-04-05T17:14:38Z</time></trkpt><trkpt lat="44.33629026150105" lon="10.860623551000856"><ele>766.5</ele><time>2026-04-05T17:14:39Z</time></trkpt><trkpt lat="44.33626654231756" lon="10.860513288708438"><ele>767.3333333333333</ele><time>2026-04-05T17:14:41Z</time></trkpt><trkpt lat="44.33625850066136" lon="10.860403185496214"><ele>768.1666666666666</ele><time>2026-04-05T17:14:43Z</time></trkpt><trkpt lat="44.33614097149347" lon="10.860375397992366"><ele>769.0</ele><time>2026-04-05T17:14:44Z</time></trkpt><trkpt lat="44.336048063683464" lon="10.860315561119512"><ele>769.0</ele><time>2026-04-05T17:14:45Z</time></trkpt><trkpt lat="44.33593401818575" lon="10.860246182358182"><ele>769.0</ele><time>2026-04-05T17:14:46Z</time></trkpt><trkpt lat="44.33580675360331" lon="10.86015642247124"><ele>769.0</ele><time>2026-04-05T17:14:47Z</time></trkpt><trkpt lat="44.335677836249246" lon="10.860058160098209"><ele>769.0</ele><time>2026-04-05T17:14:48Z</time></trkpt><trkpt lat="44.33556942378748" lon="10.859983971104306"><ele>768.75</ele><time>2026-04-05T17:14:49Z</time></trkpt><trkpt lat="44.33545495560426" lon="10.859937510244418"><ele>768.5</ele><time>2026-04-05T17:14:50Z</time></trkpt><trkpt lat="44.33534039219639" lon="10.859919727184458"><ele>768.25</ele><time>2026-04-05T17:14:51Z</time></trkpt><trkpt lat="44.33522962378573" lon="10.859933971406193"><ele>768.0</ele><time>2026-04-05T17:14:52Z</time></trkpt><trkpt lat="44.335121298154526" lon="10.859967902153674"><ele>768.0</ele><time>2026-04-05T17:14:53Z</time></trkpt><trkpt lat="44.33501355974085" lon="10.859994905742763"><ele>768.0</ele><time>2026-04-05T17:14:54Z</time></trkpt><trkpt lat="44.334907064577536" lon="10.860022080893692"><ele>768.0</ele><time>2026-04-05T17:14:55Z</time></trkpt><trkpt lat="44.334795356017764" lon="10.86005386876247"><ele>768.0</ele><time>2026-04-05T17:14:56Z</time></trkpt><trkpt lat="44.33468252628657" lon="10.86008426369935"><ele>768.0</ele><time>2026-04-05T17:14:57Z</time></trkpt><trkpt lat="44.334566150643816" lon="10.860112196655743"><ele>767.0</ele><time>2026-04-05T17:14:58Z</time></trkpt><trkpt lat="44.33445233627571" lon="10.86013530132686"><ele>766.0</ele><time>2026-04-05T17:14:59Z</time></trkpt><trkpt lat="44.33433908919889" lon="10.860149234264632"><ele>765.0</ele><time>2026-04-05T17:15:00Z</time></trkpt><trkpt lat="44.33423875155913" lon="10.860140630798341"><ele>764.0</ele><time>2026-04-05T17:15:01Z</time></trkpt><trkpt lat="44.33411486034501" lon="10.860088689093388"><ele>764.0</ele><time>2026-04-05T17:15:02Z</time></trkpt><trkpt lat="44.33401013932596" lon="10.85999920797545"><ele>764.0</ele><time>2026-04-05T17:15:03Z</time></trkpt><trkpt lat="44.33390621385792" lon="10.859887879660201"><ele>764.0</ele><time>2026-04-05T17:15:04Z</time></trkpt><trkpt lat="44.33380600526602" lon="10.859770256984019"><ele>764.0</ele><time>2026-04-05T17:15:05Z</time></trkpt><trkpt lat="44.33370317097726" lon="10.859650580369822"><ele>764.25</ele><time>2026-04-05T17:15:06Z</time></trkpt><trkpt lat="44.333606959840274" lon="10.859534151835584"><ele>764.5</ele><time>2026-04-05T17:15:07Z</time></trkpt><trkpt lat="44.33351287119708" lon="10.859431581442902"><ele>764.75</ele><time>2026-04-05T17:15:08Z</time></trkpt><trkpt lat="44.333431969647826" lon="10.859341999823696"><ele>765.0</ele><time>2026-04-05T17:15:09Z</time></trkpt><trkpt lat="44.33335577521637" lon="10.859247577199314"><ele>765.8333333333334</ele><time>2026-04-05T17:15:10Z</time></trkpt><trkpt lat="44.33328487479985" lon="10.859168606117173"><ele>766.6666666666667</ele><time>2026-04-05T17:15:11Z</time></trkpt><trkpt lat="44.33321674028563" lon="10.859099880093805"><ele>767.5</ele><time>2026-04-05T17:15:12Z</time></trkpt><trkpt lat="44.33314581323108" lon="10.859015707292002"><ele>768.3333333333334</ele><time>2026-04-05T17:15:13Z</time></trkpt><trkpt lat="44.333094884898664" lon="10.858960792830324"><ele>769.1666666666667</ele><time>2026-04-05T17:15:14Z</time></trkpt><trkpt lat="44.33304240161916" lon="10.858909343434128"><ele>770.0</ele><time>2026-04-05T17:15:15Z</time></trkpt><trkpt lat="44.33299488784915" lon="10.85882762275945"><ele>771.2</ele><time>2026-04-05T17:15:17Z</time></trkpt><trkpt lat="44.33292277404075" lon="10.858773136369887"><ele>772.4</ele><time>2026-04-05T17:16:03.999Z</time></trkpt><trkpt lat="44.33282060622893" lon="10.858630651331438"><ele>773.5999999999999</ele><time>2026-04-05T17:16:05.999Z</time></trkpt><trkpt lat="44.33275420890821" lon="10.858550398398284"><ele>774.8</ele><time>2026-04-05T17:16:06.999Z</time></trkpt><trkpt lat="44.332670826730414" lon="10.858455748446435"><ele>776.0</ele><time>2026-04-05T17:16:07.999Z</time></trkpt><trkpt lat="44.33255332631121" lon="10.85831332740666"><ele>776.0</ele><time>2026-04-05T17:16:08.999Z</time></trkpt><trkpt lat="44.33243223902268" lon="10.85816100504434"><ele>776.0</ele><time>2026-04-05T17:16:09.999Z</time></trkpt><trkpt lat="44.33233254968134" lon="10.857970131613754"><ele>776.0</ele><time>2026-04-05T17:16:10.999Z</time></trkpt><trkpt lat="44.33223101710907" lon="10.857798966282026"><ele>778.0</ele><time>2026-04-05T17:16:11.999Z</time></trkpt><trkpt lat="44.33214499666614" lon="10.85768030888884"><ele>780.0</ele><time>2026-04-05T17:16:12.999Z</time></trkpt><trkpt lat="44.332076443926" lon="10.857557021555609"><ele>782.0</ele><time>2026-04-05T17:16:13.999Z</time></trkpt><trkpt lat="44.3320088126269" lon="10.857438357706892"><ele>784.0</ele><time>2026-04-05T17:16:14.999Z</time></trkpt><trkpt lat="44.331963131457364" lon="10.857317870722852"><ele>786.0</ele><time>2026-04-05T17:16:15.999Z</time></trkpt><trkpt lat="44.33193827801988" lon="10.857180794648448"><ele>786.0</ele><time>2026-04-05T17:16:16.999Z</time></trkpt><trkpt lat="44.331950656357705" lon="10.857038992780323"><ele>786.0</ele><time>2026-04-05T17:16:17.999Z</time></trkpt><trkpt lat="44.33193765807235" lon="10.856891636275206"><ele>786.0</ele><time>2026-04-05T17:16:18.999Z</time></trkpt><trkpt lat="44.331937637946886" lon="10.856763554342354"><ele>786.0</ele><time>2026-04-05T17:16:19.999Z</time></trkpt><trkpt lat="44.331921618042934" lon="10.856652529837994"><ele>786.0</ele><time>2026-04-05T17:16:20.999Z</time></trkpt><trkpt lat="44.33187426884819" lon="10.85655387487006"><ele>784.4</ele><time>2026-04-05T17:16:21.999Z</time></trkpt><trkpt lat="44.33179088857681" lon="10.85646083707569"><ele>782.8</ele><time>2026-04-05T17:16:22.999Z</time></trkpt><trkpt lat="44.33170892994299" lon="10.856391114584202"><ele>781.1999999999999</ele><time>2026-04-05T17:16:23.999Z</time></trkpt><trkpt lat="44.331606125335995" lon="10.856325583028216"><ele>779.5999999999999</ele><time>2026-04-05T17:16:24.999Z</time></trkpt><trkpt lat="44.33150610021642" lon="10.856287709980613"><ele>778.0</ele><time>2026-04-05T17:16:25.999Z</time></trkpt><trkpt lat="44.331422998018766" lon="10.856272319476588"><ele>776.4</ele><time>2026-04-05T17:16:26.999Z</time></trkpt><trkpt lat="44.331323732568265" lon="10.856278958467001"><ele>774.8</ele><time>2026-04-05T17:16:27.999Z</time></trkpt><trkpt lat="44.33121725710361" lon="10.856295295236654"><ele>773.2</ele><time>2026-04-05T17:16:28.999Z</time></trkpt><trkpt lat="44.33110558404281" lon="10.85626063057141"><ele>771.6</ele><time>2026-04-05T17:16:29.999Z</time></trkpt><trkpt lat="44.331002791818136" lon="10.856231393441794"><ele>770.0</ele><time>2026-04-05T17:16:30.999Z</time></trkpt><trkpt lat="44.3308851141673" lon="10.856222829044654"><ele>770.0</ele><time>2026-04-05T17:16:32Z</time></trkpt><trkpt lat="44.33077513336984" lon="10.856194655025174"><ele>770.0</ele><time>2026-04-05T17:16:33Z</time></trkpt><trkpt lat="44.330668255597594" lon="10.856164657179702"><ele>770.0</ele><time>2026-04-05T17:16:34Z</time></trkpt><trkpt lat="44.330559087274416" lon="10.856125045969808"><ele>770.0</ele><time>2026-04-05T17:16:35Z</time></trkpt><trkpt lat="44.33044261094547" lon="10.856071298094125"><ele>770.4</ele><time>2026-04-05T17:16:36Z</time></trkpt><trkpt lat="44.330336547010326" lon="10.856031099935352"><ele>770.8</ele><time>2026-04-05T17:16:37Z</time></trkpt><trkpt lat="44.33024576490281" lon="10.856030492536558"><ele>771.2</ele><time>2026-04-05T17:16:38Z</time></trkpt><trkpt lat="44.33015119622887" lon="10.856016954921968"><ele>771.6</ele><time>2026-04-05T17:16:39Z</time></trkpt><trkpt lat="44.33006813686917" lon="10.855960378872137"><ele>772.0</ele><time>2026-04-05T17:16:40Z</time></trkpt><trkpt lat="44.32999128734688" lon="10.855918163152776"><ele>771.9999999999999</ele><time>2026-04-05T17:16:41Z</time></trkpt><trkpt lat="44.32990318199776" lon="10.855871389662838"><ele>772.0</ele><time>2026-04-05T17:16:42Z</time></trkpt><trkpt lat="44.329821399143434" lon="10.855836543644465"><ele>772.0</ele><time>2026-04-05T17:16:43Z</time></trkpt><trkpt lat="44.32974894019091" lon="10.855810254538184"><ele>772.0</ele><time>2026-04-05T17:16:44Z</time></trkpt><trkpt lat="44.32967685345583" lon="10.855788375425071"><ele>771.9999999999999</ele><time>2026-04-05T17:16:45Z</time></trkpt><trkpt lat="44.32959494282663" lon="10.855782838172763"><ele>772.0</ele><time>2026-04-05T17:16:46Z</time></trkpt><trkpt lat="44.32951128696214" lon="10.855774228517511"><ele>770.4999999999999</ele><time>2026-04-05T17:16:47Z</time></trkpt><trkpt lat="44.32941198538502" lon="10.855765743008545"><ele>769.0</ele><time>2026-04-05T17:16:48Z</time></trkpt><trkpt lat="44.32931603783249" lon="10.855784441788032"><ele>767.5</ele><time>2026-04-05T17:16:49Z</time></trkpt><trkpt lat="44.32922958700076" lon="10.855805281806697"><ele>766.0</ele><time>2026-04-05T17:16:50Z</time></trkpt><trkpt lat="44.329149062718926" lon="10.85580702942737"><ele>764.5</ele><time>2026-04-05T17:16:51Z</time></trkpt><trkpt lat="44.32907485003366" lon="10.85580843216414"><ele>763.0</ele><time>2026-04-05T17:16:52Z</time></trkpt><trkpt lat="44.3290119695987" lon="10.855762759711673"><ele>763.0</ele><time>2026-04-05T17:16:53Z</time></trkpt><trkpt lat="44.32894750830328" lon="10.855701752032171"><ele>763.0</ele><time>2026-04-05T17:16:54Z</time></trkpt><trkpt lat="44.328888302901554" lon="10.855653565565373"><ele>763.0</ele><time>2026-04-05T17:16:55Z</time></trkpt><trkpt lat="44.32878995614897" lon="10.85555920966189"><ele>763.0</ele><time>2026-04-05T17:16:57Z</time></trkpt><trkpt lat="44.328722188332605" lon="10.855432866540285"><ele>763.0</ele><time>2026-04-05T17:16:59Z</time></trkpt><trkpt lat="44.32866667744164" lon="10.855318580176466"><ele>763.5999999999999</ele><time>2026-04-05T17:17:01Z</time></trkpt><trkpt lat="44.328595761990755" lon="10.855176006642996"><ele>764.1999999999999</ele><time>2026-04-05T17:17:03Z</time></trkpt><trkpt lat="44.328559094263504" lon="10.855082494838003"><ele>764.8</ele><time>2026-04-05T17:17:04Z</time></trkpt><trkpt lat="44.328516547449844" lon="10.854977721850323"><ele>765.4</ele><time>2026-04-05T17:17:05Z</time></trkpt><trkpt lat="44.32847073174558" lon="10.854880489479374"><ele>766.0</ele><time>2026-04-05T17:17:06Z</time></trkpt><trkpt lat="44.3284100186948" lon="10.854773245410495"><ele>766.0</ele><time>2026-04-05T17:17:07Z</time></trkpt><trkpt lat="44.32834645609476" lon="10.854685894461928"><ele>766.0</ele><time>2026-04-05T17:17:08Z</time></trkpt><trkpt lat="44.32829682973644" lon="10.854607358201772"><ele>766.0</ele><time>2026-04-05T17:17:09Z</time></trkpt><trkpt lat="44.328258331910575" lon="10.854502055532748"><ele>766.0</ele><time>2026-04-05T17:17:10Z</time></trkpt><trkpt lat="44.32823253134148" lon="10.854350763930068"><ele>766.0</ele><time>2026-04-05T17:17:11Z</time></trkpt><trkpt lat="44.3282117334301" lon="10.85418485933549"><ele>766.0</ele><time>2026-04-05T17:17:12Z</time></trkpt><trkpt lat="44.32818716798091" lon="10.854047694615764"><ele>766.0</ele><time>2026-04-05T17:17:13Z</time></trkpt><trkpt lat="44.32817468297819" lon="10.853935263972017"><ele>766.0</ele><time>2026-04-05T17:17:14Z</time></trkpt><trkpt lat="44.328199534416534" lon="10.853816012588508"><ele>766.0</ele><time>2026-04-05T17:17:15Z</time></trkpt><trkpt lat="44.32820763900828" lon="10.85370810815858"><ele>766.0</ele><time>2026-04-05T17:17:16Z</time></trkpt><trkpt lat="44.32823884599231" lon="10.853589153325762"><ele>766.0</ele><time>2026-04-05T17:17:17Z</time></trkpt><trkpt lat="44.32827025786032" lon="10.85345300011254"><ele>765.6666666666667</ele><time>2026-04-05T17:17:18Z</time></trkpt><trkpt lat="44.328305566320076" lon="10.85332930645244"><ele>765.3333333333334</ele><time>2026-04-05T17:17:19Z</time></trkpt><trkpt lat="44.32832281461716" lon="10.853198428686042"><ele>765.0</ele><time>2026-04-05T17:17:20Z</time></trkpt><trkpt lat="44.32833487505854" lon="10.853057848089604"><ele>764.6666666666666</ele><time>2026-04-05T17:17:21Z</time></trkpt><trkpt lat="44.3283596402311" lon="10.852948025720892"><ele>764.3333333333333</ele><time>2026-04-05T17:17:22Z</time></trkpt><trkpt lat="44.3283833612101" lon="10.852854912053418"><ele>764.0</ele><time>2026-04-05T17:17:23Z</time></trkpt><trkpt lat="44.32839212617595" lon="10.85276610374334"><ele>763.4000000000001</ele><time>2026-04-05T17:17:24Z</time></trkpt><trkpt lat="44.32837248183385" lon="10.852609463913003"><ele>762.8</ele><time>2026-04-05T17:17:26Z</time></trkpt><trkpt lat="44.328324137805396" lon="10.85251326383008"><ele>762.2</ele><time>2026-04-05T17:17:27Z</time></trkpt><trkpt lat="44.32826200362522" lon="10.852415025695155"><ele>761.5999999999999</ele><time>2026-04-05T17:17:28Z</time></trkpt><trkpt lat="44.32819715616117" lon="10.852338504460938"><ele>761.0</ele><time>2026-04-05T17:17:29Z</time></trkpt><trkpt lat="44.328110811262505" lon="10.852259936915212"><ele>760.1999999999999</ele><time>2026-04-05T17:17:30Z</time></trkpt><trkpt lat="44.328042611014986" lon="10.852164682319586"><ele>759.4</ele><time>2026-04-05T17:17:31Z</time></trkpt><trkpt lat="44.327938912279244" lon="10.852033452906511"><ele>758.6</ele><time>2026-04-05T17:17:33Z</time></trkpt><trkpt lat="44.32787372034435" lon="10.851966478336998"><ele>757.8</ele><time>2026-04-05T17:17:34Z</time></trkpt><trkpt lat="44.327811616077256" lon="10.851900180599635"><ele>757.0</ele><time>2026-04-05T17:17:35Z</time></trkpt><trkpt lat="44.32776247062701" lon="10.851829821490249"><ele>757.2</ele><time>2026-04-05T17:17:36Z</time></trkpt><trkpt lat="44.32770064614217" lon="10.851741892002897"><ele>757.4000000000001</ele><time>2026-04-05T17:17:37Z</time></trkpt><trkpt lat="44.32764395139985" lon="10.851659755979174"><ele>757.5999999999999</ele><time>2026-04-05T17:17:38Z</time></trkpt><trkpt lat="44.32757712777739" lon="10.851585931646278"><ele>757.8</ele><time>2026-04-05T17:17:39Z</time></trkpt><trkpt lat="44.32750811787632" lon="10.851501765826262"><ele>758.0</ele><time>2026-04-05T17:17:40Z</time></trkpt><trkpt lat="44.32743138590846" lon="10.851393758382576"><ele>758.0</ele><time>2026-04-05T17:17:42Z</time></trkpt><trkpt lat="44.32736182363101" lon="10.851313111039424"><ele>758.0</ele><time>2026-04-05T17:17:44Z</time></trkpt><trkpt lat="44.32729738692214" lon="10.851237487453353"><ele>758.0</ele><time>2026-04-05T17:17:46.999Z</time></trkpt><trkpt lat="44.32723700268913" lon="10.85115993418521"><ele>758.0</ele><time>2026-04-05T17:17:49.999Z</time></trkpt><trkpt lat="44.32716649651497" lon="10.851065342395662"><ele>758.0</ele><time>2026-04-05T17:17:51.999Z</time></trkpt><trkpt lat="44.32710181476275" lon="10.850983818938548"><ele>758.0</ele><time>2026-04-05T17:17:52.999Z</time></trkpt><trkpt lat="44.327024876111956" lon="10.850878846655487"><ele>758.5999999999999</ele><time>2026-04-05T17:17:53.999Z</time></trkpt><trkpt lat="44.32693361940054" lon="10.850754200357775"><ele>759.1999999999999</ele><time>2026-04-05T17:17:54.999Z</time></trkpt><trkpt lat="44.3268638267583" lon="10.850641262134397"><ele>759.8</ele><time>2026-04-05T17:17:55.999Z</time></trkpt><trkpt lat="44.32680430263705" lon="10.850549092023327"><ele>760.4</ele><time>2026-04-05T17:17:56.999Z</time></trkpt><trkpt lat="44.326766803843974" lon="10.850477566961969"><ele>761.0</ele><time>2026-04-05T17:17:57.999Z</time></trkpt><trkpt lat="44.32670353638064" lon="10.850401398022017"><ele>761.0</ele><time>2026-04-05T17:17:58.999Z</time></trkpt><trkpt lat="44.32663360361651" lon="10.850343949541092"><ele>761.0</ele><time>2026-04-05T17:17:59.999Z</time></trkpt><trkpt lat="44.32657059021562" lon="10.850297318169826"><ele>761.0</ele><time>2026-04-05T17:18:00.999Z</time></trkpt><trkpt lat="44.32650395548943" lon="10.850241709956974"><ele>761.0</ele><time>2026-04-05T17:18:01.999Z</time></trkpt><trkpt lat="44.326443359340914" lon="10.850201554013058"><ele>761.0</ele><time>2026-04-05T17:18:02.999Z</time></trkpt><trkpt lat="44.32636517377239" lon="10.850166938151474"><ele>761.0</ele><time>2026-04-05T17:18:03.999Z</time></trkpt><trkpt lat="44.326294094650386" lon="10.850143114185114"><ele>758.4</ele><time>2026-04-05T17:18:04.999Z</time></trkpt><trkpt lat="44.326212959616974" lon="10.850126193315631"><ele>755.8</ele><time>2026-04-05T17:18:05.999Z</time></trkpt><trkpt lat="44.32611913068087" lon="10.85010861712344"><ele>753.1999999999999</ele><time>2026-04-05T17:18:06.999Z</time></trkpt><trkpt lat="44.32602582055366" lon="10.850095384625781"><ele>750.5999999999999</ele><time>2026-04-05T17:18:07.999Z</time></trkpt><trkpt lat="44.325926509124116" lon="10.850061774499107"><ele>748.0</ele><time>2026-04-05T17:18:08.999Z</time></trkpt><trkpt lat="44.325825298154285" lon="10.849998294900049"><ele>748.0</ele><time>2026-04-05T17:18:09.999Z</time></trkpt><trkpt lat="44.32571446546445" lon="10.849962427028235"><ele>748.0</ele><time>2026-04-05T17:18:10.999Z</time></trkpt><trkpt lat="44.3256270401958" lon="10.849916208171647"><ele>748.0</ele><time>2026-04-05T17:18:11.999Z</time></trkpt><trkpt lat="44.32554054234029" lon="10.849882190059374"><ele>748.0</ele><time>2026-04-05T17:18:12.999Z</time></trkpt><trkpt lat="44.32543526106203" lon="10.849851079002747"><ele>748.0</ele><time>2026-04-05T17:18:13.999Z</time></trkpt><trkpt lat="44.3253390468693" lon="10.849790990782937"><ele>746.0</ele><time>2026-04-05T17:18:14.999Z</time></trkpt><trkpt lat="44.325250250821" lon="10.849750412011822"><ele>744.0</ele><time>2026-04-05T17:18:15.999Z</time></trkpt><trkpt lat="44.32514799250162" lon="10.849721010468341"><ele>742.0</ele><time>2026-04-05T17:18:16.999Z</time></trkpt><trkpt lat="44.32504956706002" lon="10.849662384305459"><ele>740.0</ele><time>2026-04-05T17:18:17.999Z</time></trkpt><trkpt lat="44.32496347715652" lon="10.84962090623985"><ele>738.0</ele><time>2026-04-05T17:18:18.999Z</time></trkpt><trkpt lat="44.32487320650777" lon="10.849563240688282"><ele>738.0</ele><time>2026-04-05T17:18:19.999Z</time></trkpt><trkpt lat="44.32481607837619" lon="10.849504494291455"><ele>738.0</ele><time>2026-04-05T17:18:20.999Z</time></trkpt><trkpt lat="44.32478420606881" lon="10.849395361357464"><ele>738.0</ele><time>2026-04-05T17:18:21.999Z</time></trkpt><trkpt lat="44.3247262952224" lon="10.849311625297531"><ele>738.0</ele><time>2026-04-05T17:18:22.999Z</time></trkpt><trkpt lat="44.324676200640106" lon="10.849234710092635"><ele>738.0</ele><time>2026-04-05T17:18:23.999Z</time></trkpt><trkpt lat="44.324617327164596" lon="10.84917345332286"><ele>738.0</ele><time>2026-04-05T17:18:24.999Z</time></trkpt><trkpt lat="44.32456323218541" lon="10.84912224205744"><ele>738.0</ele><time>2026-04-05T17:18:25.999Z</time></trkpt><trkpt lat="44.324532897758" lon="10.84898111739174"><ele>738.0</ele><time>2026-04-05T17:18:27.999Z</time></trkpt><trkpt lat="44.324604602282015" lon="10.848843725187084"><ele>738.0</ele><time>2026-04-05T17:18:29.999Z</time></trkpt><trkpt lat="44.32468702574527" lon="10.848703245196072"><ele>738.0</ele><time>2026-04-05T17:18:31.999Z</time></trkpt><trkpt lat="44.32472579539997" lon="10.848611182665179"><ele>738.0</ele><time>2026-04-05T17:18:32.999Z</time></trkpt><trkpt lat="44.32477593002465" lon="10.848510955896476"><ele>735.4</ele><time>2026-04-05T17:18:33.999Z</time></trkpt><trkpt lat="44.3248302508478" lon="10.848406922068417"><ele>732.8</ele><time>2026-04-05T17:18:34.999Z</time></trkpt><trkpt lat="44.324868027159326" lon="10.848310271516214"><ele>730.2</ele><time>2026-04-05T17:18:35.999Z</time></trkpt><trkpt lat="44.32490365587498" lon="10.848161511394133"><ele>727.6</ele><time>2026-04-05T17:18:38Z</time></trkpt><trkpt lat="44.32492281121999" lon="10.848007883821689"><ele>725.0</ele><time>2026-04-05T17:18:40Z</time></trkpt><trkpt lat="44.32492401776982" lon="10.847893774422223"><ele>725.0</ele><time>2026-04-05T17:18:42Z</time></trkpt><trkpt lat="44.325043965031504" lon="10.847896742701561"><ele>725.0</ele><time>2026-04-05T17:18:46Z</time></trkpt><trkpt lat="44.32514991278043" lon="10.84787864313295"><ele>725.0</ele><time>2026-04-05T17:18:47Z</time></trkpt><trkpt lat="44.325261527113675" lon="10.847795955673083"><ele>725.0</ele><time>2026-04-05T17:18:48Z</time></trkpt><trkpt lat="44.32538349395099" lon="10.847722059266761"><ele>725.0</ele><time>2026-04-05T17:18:49Z</time></trkpt><trkpt lat="44.32548672519797" lon="10.847657475415172"><ele>725.0</ele><time>2026-04-05T17:18:50Z</time></trkpt><trkpt lat="44.325581614311304" lon="10.8476309198868"><ele>725.0</ele><time>2026-04-05T17:18:51Z</time></trkpt><trkpt lat="44.32568166985955" lon="10.847592853117009"><ele>725.0</ele><time>2026-04-05T17:18:52Z</time></trkpt><trkpt lat="44.32578750855669" lon="10.847576753508372"><ele>725.0</ele><time>2026-04-05T17:18:53Z</time></trkpt><trkpt lat="44.32588730483237" lon="10.847574597160499"><ele>721.5</ele><time>2026-04-05T17:18:54Z</time></trkpt><trkpt lat="44.32598670724509" lon="10.847571356439873"><ele>718.0</ele><time>2026-04-05T17:18:55Z</time></trkpt><trkpt lat="44.326076796779475" lon="10.8475489976017"><ele>714.5</ele><time>2026-04-05T17:18:56Z</time></trkpt><trkpt lat="44.32616257149791" lon="10.847546538044835"><ele>711.0</ele><time>2026-04-05T17:18:57Z</time></trkpt><trkpt lat="44.3262566891402" lon="10.8475518120239"><ele>707.5</ele><time>2026-04-05T17:18:58Z</time></trkpt><trkpt lat="44.32633023821431" lon="10.847568779277731"><ele>704.0</ele><time>2026-04-05T17:18:59Z</time></trkpt><trkpt lat="44.326411437195816" lon="10.847601249604223"><ele>703.3333333333333</ele><time>2026-04-05T17:19:00Z</time></trkpt><trkpt lat="44.326465321255334" lon="10.847669419893093"><ele>702.6666666666666</ele><time>2026-04-05T17:19:01Z</time></trkpt><trkpt lat="44.32652400318084" lon="10.847719352064745"><ele>702.0</ele><time>2026-04-05T17:19:02Z</time></trkpt><trkpt lat="44.3265919821246" lon="10.847744443599801"><ele>701.3333333333334</ele><time>2026-04-05T17:19:03Z</time></trkpt><trkpt lat="44.326692482523214" lon="10.8476900059165"><ele>700.6666666666667</ele><time>2026-04-05T17:19:05Z</time></trkpt><trkpt lat="44.3267357954597" lon="10.847615004159014"><ele>700.0</ele><time>2026-04-05T17:19:07Z</time></trkpt><trkpt lat="44.326676908417" lon="10.847509594284183"><ele>700.0</ele><time>2026-04-05T17:19:12Z</time></trkpt><trkpt lat="44.326620507071496" lon="10.84745838166678"><ele>700.0</ele><time>2026-04-05T17:19:13Z</time></trkpt><trkpt lat="44.326541085565" lon="10.847413724554512"><ele>700.0</ele><time>2026-04-05T17:19:14Z</time></trkpt><trkpt lat="44.326431337625095" lon="10.847352015979551"><ele>700.0</ele><time>2026-04-05T17:19:15Z</time></trkpt><trkpt lat="44.32631571751924" lon="10.847282768677845"><ele>700.0</ele><time>2026-04-05T17:19:16Z</time></trkpt><trkpt lat="44.32623519735248" lon="10.847200706050446"><ele>701.3333333333334</ele><time>2026-04-05T17:19:17Z</time></trkpt><trkpt lat="44.32613699597968" lon="10.84711336247512"><ele>702.6666666666666</ele><time>2026-04-05T17:19:18Z</time></trkpt><trkpt lat="44.326082615927504" lon="10.847057898618402"><ele>704.0</ele><time>2026-04-05T17:19:19Z</time></trkpt><trkpt lat="44.32562798742838" lon="10.847548482220816"><ele>706.75</ele><time>2026-04-05T17:19:20Z</time></trkpt><trkpt lat="44.32549938213897" lon="10.84760539433574"><ele>709.5</ele><time>2026-04-05T17:19:21Z</time></trkpt><trkpt lat="44.32537213942564" lon="10.847690836693483"><ele>712.25</ele><time>2026-04-05T17:19:22Z</time></trkpt><trkpt lat="44.32525411812362" lon="10.847773080773244"><ele>715.0</ele><time>2026-04-05T17:19:23Z</time></trkpt><trkpt lat="44.32513965680362" lon="10.847833933585196"><ele>715.0</ele><time>2026-04-05T17:19:24Z</time></trkpt><trkpt lat="44.32504276966386" lon="10.847865304543443"><ele>715.0</ele><time>2026-04-05T17:19:25Z</time></trkpt><trkpt lat="44.3249602625014" lon="10.847829745855147"><ele>715.0</ele><time>2026-04-05T17:19:26Z</time></trkpt><trkpt lat="44.32487774072633" lon="10.847740421652068"><ele>715.0</ele><time>2026-04-05T17:19:27Z</time></trkpt><trkpt lat="44.32483560230056" lon="10.847604796239539"><ele>715.0</ele><time>2026-04-05T17:19:28Z</time></trkpt><trkpt lat="44.3248237864797" lon="10.847442526416653"><ele>715.0</ele><time>2026-04-05T17:19:29Z</time></trkpt><trkpt lat="44.3248097412125" lon="10.84726113586766"><ele>715.0</ele><time>2026-04-05T17:19:30Z</time></trkpt><trkpt lat="44.324759614782" lon="10.847082662907612"><ele>715.0</ele><time>2026-04-05T17:19:31Z</time></trkpt><trkpt lat="44.32470736917047" lon="10.84690499191349"><ele>715.0</ele><time>2026-04-05T17:19:32Z</time></trkpt><trkpt lat="44.3246585340102" lon="10.846747700564388"><ele>720.0</ele><time>2026-04-05T17:19:33Z</time></trkpt><trkpt lat="44.32460012990501" lon="10.84660237171716"><ele>725.0</ele><time>2026-04-05T17:19:34Z</time></trkpt><trkpt lat="44.32453066136138" lon="10.846470049843727"><ele>730.0</ele><time>2026-04-05T17:19:35Z</time></trkpt><trkpt lat="44.32445341482658" lon="10.846337671976737"><ele>735.0</ele><time>2026-04-05T17:19:36Z</time></trkpt><trkpt lat="44.32437337078751" lon="10.846202646430987"><ele>735.0</ele><time>2026-04-05T17:19:37Z</time></trkpt><trkpt lat="44.32428141630436" lon="10.846069795471726"><ele>735.0</ele><time>2026-04-05T17:19:38Z</time></trkpt><trkpt lat="44.32418399459244" lon="10.845943919252962"><ele>735.0</ele><time>2026-04-05T17:19:39Z</time></trkpt><trkpt lat="44.32409601256504" lon="10.845834386200941"><ele>735.0</ele><time>2026-04-05T17:19:40Z</time></trkpt><trkpt lat="44.32401328553907" lon="10.845724298277943"><ele>732.6</ele><time>2026-04-05T17:19:41Z</time></trkpt><trkpt lat="44.32393710195423" lon="10.845658280142525"><ele>730.2</ele><time>2026-04-05T17:19:42Z</time></trkpt><trkpt lat="44.323855455307104" lon="10.845610482362417"><ele>727.8</ele><time>2026-04-05T17:19:43Z</time></trkpt><trkpt lat="44.32376566873213" lon="10.845615582388998"><ele>725.4</ele><time>2026-04-05T17:19:44Z</time></trkpt><trkpt lat="44.32368686027497" lon="10.845683634416995"><ele>723.0</ele><time>2026-04-05T17:19:45Z</time></trkpt><trkpt lat="44.323617224758856" lon="10.845805628558674"><ele>726.5999999999999</ele><time>2026-04-05T17:19:46Z</time></trkpt><trkpt lat="44.32356520748867" lon="10.84596544597511"><ele>730.1999999999999</ele><time>2026-04-05T17:19:47Z</time></trkpt><trkpt lat="44.323529147636286" lon="10.846122708873713"><ele>733.8</ele><time>2026-04-05T17:19:47.999Z</time></trkpt><trkpt lat="44.32349843862794" lon="10.846256122968676"><ele>737.4</ele><time>2026-04-05T17:19:48.999Z</time></trkpt><trkpt lat="44.323457071334" lon="10.846379777458063"><ele>741.0</ele><time>2026-04-05T17:19:49.999Z</time></trkpt><trkpt lat="44.32341678405036" lon="10.846478010064812"><ele>741.0</ele><time>2026-04-05T17:19:50.999Z</time></trkpt><trkpt lat="44.32336741992533" lon="10.84654065584384"><ele>741.0</ele><time>2026-04-05T17:19:51.999Z</time></trkpt><trkpt lat="44.323263608160175" lon="10.846616005191276"><ele>741.0</ele><time>2026-04-05T17:19:53.999Z</time></trkpt><trkpt lat="44.32318990071175" lon="10.84661258462991"><ele>741.0</ele><time>2026-04-05T17:19:54.999Z</time></trkpt><trkpt lat="44.32312491067921" lon="10.846606134310667"><ele>741.0</ele><time>2026-04-05T17:19:55.999Z</time></trkpt><trkpt lat="44.32302784386762" lon="10.846603954909586"><ele>741.0</ele><time>2026-04-05T17:19:57.999Z</time></trkpt><trkpt lat="44.322907710580054" lon="10.846583389149663"><ele>742.5</ele><time>2026-04-05T17:19:59.999Z</time></trkpt><trkpt lat="44.322791424370294" lon="10.845985666942461"><ele>744.0</ele><time>2026-04-05T17:20:01.999Z</time></trkpt><trkpt lat="44.32274634804261" lon="10.845856124101973"><ele>740.4000000000001</ele><time>2026-04-05T17:20:02.999Z</time></trkpt><trkpt lat="44.32270849184706" lon="10.845747358656427"><ele>736.8</ele><time>2026-04-05T17:20:03.999Z</time></trkpt><trkpt lat="44.32267044659506" lon="10.845641923010477"><ele>733.2</ele><time>2026-04-05T17:20:04.999Z</time></trkpt><trkpt lat="44.32263847336118" lon="10.845484502387379"><ele>729.5999999999999</ele><time>2026-04-05T17:20:05.999Z</time></trkpt><trkpt lat="44.32262348932779" lon="10.845306628599973"><ele>726.0</ele><time>2026-04-05T17:20:06.999Z</time></trkpt><trkpt lat="44.3226214538229" lon="10.84514475270284"><ele>722.25</ele><time>2026-04-05T17:20:07.999Z</time></trkpt><trkpt lat="44.322622366740134" lon="10.844985838554011"><ele>718.5</ele><time>2026-04-05T17:20:08.999Z</time></trkpt><trkpt lat="44.322623891895105" lon="10.844829370482604"><ele>714.75</ele><time>2026-04-05T17:20:09.999Z</time></trkpt><trkpt lat="44.32262901568757" lon="10.844666789103162"><ele>711.0</ele><time>2026-04-05T17:20:10.999Z</time></trkpt><trkpt lat="44.3226286824197" lon="10.844509443234244"><ele>711.0</ele><time>2026-04-05T17:20:11.999Z</time></trkpt><trkpt lat="44.32262045493943" lon="10.8443461969909"><ele>711.0</ele><time>2026-04-05T17:20:12.999Z</time></trkpt><trkpt lat="44.322599721522174" lon="10.844205065389708"><ele>711.0</ele><time>2026-04-05T17:20:13.999Z</time></trkpt><trkpt lat="44.3225793949682" lon="10.84407715766005"><ele>711.0</ele><time>2026-04-05T17:20:14.999Z</time></trkpt><trkpt lat="44.322554228769214" lon="10.843928662723375"><ele>711.0</ele><time>2026-04-05T17:20:15.999Z</time></trkpt><trkpt lat="44.322536869363375" lon="10.843802889772078"><ele>708.8333333333334</ele><time>2026-04-05T17:20:16.999Z</time></trkpt><trkpt lat="44.32254082567028" lon="10.84367555860403"><ele>706.6666666666666</ele><time>2026-04-05T17:20:17.999Z</time></trkpt><trkpt lat="44.32255492495398" lon="10.843553438804976"><ele>704.5</ele><time>2026-04-05T17:20:18.999Z</time></trkpt><trkpt lat="44.32257125453048" lon="10.843440974339327"><ele>702.3333333333333</ele><time>2026-04-05T17:20:19.999Z</time></trkpt><trkpt lat="44.32257917656028" lon="10.843333752086206"><ele>700.1666666666666</ele><time>2026-04-05T17:20:20.999Z</time></trkpt><trkpt lat="44.32258550564247" lon="10.843232769770264"><ele>698.0</ele><time>2026-04-05T17:20:21.999Z</time></trkpt><trkpt lat="44.32258300988657" lon="10.843127737702288"><ele>696.4</ele><time>2026-04-05T17:20:22.999Z</time></trkpt><trkpt lat="44.322564052096475" lon="10.843021054440609"><ele>694.8</ele><time>2026-04-05T17:20:23.999Z</time></trkpt><trkpt lat="44.32255702841134" lon="10.842905788922534"><ele>693.2</ele><time>2026-04-05T17:20:24.999Z</time></trkpt><trkpt lat="44.32258431267598" lon="10.842776341398366"><ele>691.6</ele><time>2026-04-05T17:20:25.999Z</time></trkpt><trkpt lat="44.32261174598869" lon="10.842604479928536"><ele>690.0</ele><time>2026-04-05T17:20:26.999Z</time></trkpt><trkpt lat="44.32264039004891" lon="10.842467819313658"><ele>688.4</ele><time>2026-04-05T17:20:27.999Z</time></trkpt><trkpt lat="44.32265605377895" lon="10.842371597032066"><ele>686.8</ele><time>2026-04-05T17:20:28.999Z</time></trkpt><trkpt lat="44.32268789312924" lon="10.842210077124754"><ele>685.2</ele><time>2026-04-05T17:20:30.999Z</time></trkpt><trkpt lat="44.322623147538785" lon="10.842039998204884"><ele>683.6</ele><time>2026-04-05T17:20:31.999Z</time></trkpt><trkpt lat="44.32265296720635" lon="10.841906037665783"><ele>682.0</ele><time>2026-04-05T17:20:32.999Z</time></trkpt><trkpt lat="44.32268068663732" lon="10.841780274692402"><ele>681.0</ele><time>2026-04-05T17:20:33.999Z</time></trkpt><trkpt lat="44.32270643287436" lon="10.841657740472487"><ele>680.0</ele><time>2026-04-05T17:20:34.999Z</time></trkpt><trkpt lat="44.32272936255154" lon="10.841545667219116"><ele>679.0</ele><time>2026-04-05T17:20:35.999Z</time></trkpt><trkpt lat="44.32275162969857" lon="10.841434631790783"><ele>678.0</ele><time>2026-04-05T17:20:36.999Z</time></trkpt><trkpt lat="44.32278914776604" lon="10.841347557124752"><ele>677.0</ele><time>2026-04-05T17:20:37.999Z</time></trkpt><trkpt lat="44.32280463934524" lon="10.841251150647885"><ele>676.0</ele><time>2026-04-05T17:20:38.999Z</time></trkpt><trkpt lat="44.32282346897607" lon="10.84113397327986"><ele>676.0</ele><time>2026-04-05T17:20:40.999Z</time></trkpt><trkpt lat="44.32282475651035" lon="10.841020357636356"><ele>676.0</ele><time>2026-04-05T17:20:43Z</time></trkpt><trkpt lat="44.32282846986382" lon="10.840913848858897"><ele>676.0</ele><time>2026-04-05T17:20:44Z</time></trkpt><trkpt lat="44.32286588910727" lon="10.840818496884827"><ele>676.0</ele><time>2026-04-05T17:20:45Z</time></trkpt><trkpt lat="44.322914450231174" lon="10.840740447758781"><ele>676.0</ele><time>2026-04-05T17:20:46Z</time></trkpt><trkpt lat="44.32305175578541" lon="10.840756632261908"><ele>676.0</ele><time>2026-04-05T17:20:48Z</time></trkpt><trkpt lat="44.32315771366837" lon="10.840757464190332"><ele>676.0</ele><time>2026-04-05T17:20:49Z</time></trkpt><trkpt lat="44.3232698195675" lon="10.840740770702178"><ele>676.0</ele><time>2026-04-05T17:20:50Z</time></trkpt><trkpt lat="44.323422245924725" lon="10.840743567693293"><ele>676.0</ele><time>2026-04-05T17:20:51Z</time></trkpt><trkpt lat="44.32358857572371" lon="10.840741275596287"><ele>676.0</ele><time>2026-04-05T17:20:52Z</time></trkpt><trkpt lat="44.32371570467396" lon="10.840758188179139"><ele>676.0</ele><time>2026-04-05T17:20:53Z</time></trkpt><trkpt lat="44.323847221084385" lon="10.840755039528117"><ele>676.0</ele><time>2026-04-05T17:20:54Z</time></trkpt><trkpt lat="44.323936373500466" lon="10.840753442011128"><ele>676.0</ele><time>2026-04-05T17:20:55Z</time></trkpt><trkpt lat="44.32400697955952" lon="10.84073337937941"><ele>676.0</ele><time>2026-04-05T17:20:56Z</time></trkpt><trkpt lat="44.32407285990811" lon="10.840571428287163"><ele>676.0</ele><time>2026-04-05T17:20:58Z</time></trkpt><trkpt lat="44.324042185708194" lon="10.840445129881315"><ele>676.25</ele><time>2026-04-05T17:20:59Z</time></trkpt><trkpt lat="44.32405190742011" lon="10.840286901984497"><ele>676.5</ele><time>2026-04-05T17:21:00Z</time></trkpt><trkpt lat="44.324046235605806" lon="10.84009456749109"><ele>676.75</ele><time>2026-04-05T17:21:01Z</time></trkpt><trkpt lat="44.32404501551835" lon="10.839934780247544"><ele>677.0</ele><time>2026-04-05T17:21:02Z</time></trkpt><trkpt lat="44.32404728668283" lon="10.839772193867297"><ele>677.0</ele><time>2026-04-05T17:21:03Z</time></trkpt><trkpt lat="44.32404746738777" lon="10.839641252648528"><ele>677.0</ele><time>2026-04-05T17:21:04Z</time></trkpt><trkpt lat="44.32404376272284" lon="10.839508343127891"><ele>677.0</ele><time>2026-04-05T17:21:05Z</time></trkpt><trkpt lat="44.324039802203785" lon="10.839376945320632"><ele>677.0</ele><time>2026-04-05T17:21:06Z</time></trkpt><trkpt lat="44.32404141787836" lon="10.83927055076012"><ele>677.0</ele><time>2026-04-05T17:21:07Z</time></trkpt><trkpt lat="44.324049682045995" lon="10.839181323542611"><ele>677.0</ele><time>2026-04-05T17:21:08Z</time></trkpt><trkpt lat="44.32405508613508" lon="10.839073270211323"><ele>677.0</ele><time>2026-04-05T17:21:09Z</time></trkpt><trkpt lat="44.324048456730544" lon="10.838978539920234"><ele>677.0</ele><time>2026-04-05T17:21:10Z</time></trkpt><trkpt lat="44.32402292432502" lon="10.838839238746319"><ele>677.0</ele><time>2026-04-05T17:21:12Z</time></trkpt><trkpt lat="44.323886827894455" lon="10.838856506964593"><ele>677.0</ele><time>2026-04-05T17:21:17Z</time></trkpt><trkpt lat="44.32392480513851" lon="10.838783250483148"><ele>677.0</ele><time>2026-04-05T17:22:24.999Z</time></trkpt><trkpt lat="44.323854133595084" lon="10.838789963179588"><ele>677.0</ele><time>2026-04-05T17:22:30.999Z</time></trkpt><trkpt lat="44.323789380057825" lon="10.83878010346255"><ele>677.0</ele><time>2026-04-05T17:22:47.999Z</time></trkpt><trkpt lat="44.323803006150435" lon="10.83868474949555"><ele>677.0</ele><time>2026-04-05T17:23:16.47Z</time></trkpt><trkpt lat="44.32388287777098" lon="10.838778213948613"><ele>677.0</ele><time>2026-04-05T17:27:12.998Z</time></trkpt><trkpt lat="44.32391975457194" lon="10.838852220384247"><ele>677.0</ele><time>2026-04-05T17:33:39Z</time></trkpt><trkpt lat="44.323950449025666" lon="10.838736555116132"><ele>677.0</ele><time>2026-04-05T17:34:21.999Z</time></trkpt><trkpt lat="44.32397792391023" lon="10.83863595109488"><ele>677.0</ele><time>2026-04-05T17:34:22.999Z</time></trkpt><trkpt lat="44.32399417535233" lon="10.83854555647509"><ele>677.2</ele><time>2026-04-05T17:34:23.999Z</time></trkpt><trkpt lat="44.32393812518437" lon="10.838454388956581"><ele>677.4000000000001</ele><time>2026-04-05T17:34:25.999Z</time></trkpt><trkpt lat="44.32378388232162" lon="10.83845410474372"><ele>677.5999999999999</ele><time>2026-04-05T17:34:27.999Z</time></trkpt><trkpt lat="44.32366823809539" lon="10.838454158815077"><ele>677.8</ele><time>2026-04-05T17:34:28.999Z</time></trkpt><trkpt lat="44.32358195271895" lon="10.83845421852859"><ele>678.0</ele><time>2026-04-05T17:34:29.999Z</time></trkpt><trkpt lat="44.3234987233111" lon="10.838353365025304"><ele>677.2</ele><time>2026-04-05T17:34:31.999Z</time></trkpt><trkpt lat="44.32348424901146" lon="10.838243416952137"><ele>676.4</ele><time>2026-04-05T17:34:32.999Z</time></trkpt><trkpt lat="44.323494251942556" lon="10.838087244538109"><ele>675.6</ele><time>2026-04-05T17:34:34.999Z</time></trkpt><trkpt lat="44.323551968864464" lon="10.837994769129047"><ele>674.8000000000001</ele><time>2026-04-05T17:34:36.999Z</time></trkpt><trkpt lat="44.32362296968909" lon="10.838013810767857"><ele>674.0</ele><time>2026-04-05T17:34:39.999Z</time></trkpt><trkpt lat="44.323780925503605" lon="10.838018331782433"><ele>674.0</ele><time>2026-04-05T17:36:16Z</time></trkpt><trkpt lat="44.32388262997823" lon="10.838030055779237"><ele>674.0</ele><time>2026-04-05T17:36:18Z</time></trkpt><trkpt lat="44.323907636895825" lon="10.838111186109275"><ele>674.0</ele><time>2026-04-05T17:36:19Z</time></trkpt><trkpt lat="44.32391250452527" lon="10.83821405247946"><ele>674.0</ele><time>2026-04-05T17:36:19.999Z</time></trkpt><trkpt lat="44.32391018893016" lon="10.83833137357097"><ele>674.0</ele><time>2026-04-05T17:36:20.999Z</time></trkpt><trkpt lat="44.323920851363134" lon="10.838474153455655"><ele>674.0</ele><time>2026-04-05T17:36:22.999Z</time></trkpt><trkpt lat="44.324002359458376" lon="10.838545042832418"><ele>674.6</ele><time>2026-04-05T17:36:24.999Z</time></trkpt><trkpt lat="44.3239969480473" lon="10.83866725751876"><ele>675.2</ele><time>2026-04-05T17:36:26.999Z</time></trkpt><trkpt lat="44.32399563871445" lon="10.8388404997914"><ele>675.8000000000001</ele><time>2026-04-05T17:36:28.999Z</time></trkpt><trkpt lat="44.32399448594269" lon="10.838993027086703"><ele>676.4000000000001</ele><time>2026-04-05T17:36:30.999Z</time></trkpt><trkpt lat="44.32399330873434" lon="10.839148787659218"><ele>677.0</ele><time>2026-04-05T17:36:32.999Z</time></trkpt><trkpt lat="44.32399204019839" lon="10.839316631805792"><ele>677.0</ele><time>2026-04-05T17:36:34.999Z</time></trkpt><trkpt lat="44.323991524911335" lon="10.839497685401376"><ele>677.0</ele><time>2026-04-05T17:36:36.999Z</time></trkpt><trkpt lat="44.3239914233874" lon="10.839600574253378"><ele>677.0</ele><time>2026-04-05T17:36:37.999Z</time></trkpt><trkpt lat="44.32400763859397" lon="10.839712041670532"><ele>677.0</ele><time>2026-04-05T17:36:38.999Z</time></trkpt><trkpt lat="44.32400537190417" lon="10.839818150638065"><ele>677.0</ele><time>2026-04-05T17:36:39.999Z</time></trkpt><trkpt lat="44.324004791928736" lon="10.839933110918691"><ele>677.0</ele><time>2026-04-05T17:36:40.999Z</time></trkpt><trkpt lat="44.32400568427283" lon="10.840029049119027"><ele>677.1666666666666</ele><time>2026-04-05T17:36:41.999Z</time></trkpt><trkpt lat="44.32400496052928" lon="10.840138615573514"><ele>677.3333333333333</ele><time>2026-04-05T17:36:42.999Z</time></trkpt><trkpt lat="44.32400322183035" lon="10.840250268462716"><ele>677.5</ele><time>2026-04-05T17:36:43.999Z</time></trkpt><trkpt lat="44.32400544013134" lon="10.840349450683165"><ele>677.6666666666666</ele><time>2026-04-05T17:36:44.999Z</time></trkpt><trkpt lat="44.32400569908399" lon="10.840453360539287"><ele>677.8333333333334</ele><time>2026-04-05T17:36:45.999Z</time></trkpt><trkpt lat="44.32399725367655" lon="10.840610132499812"><ele>678.0</ele><time>2026-04-05T17:36:47.999Z</time></trkpt><trkpt lat="44.323940357809434" lon="10.840730954060872"><ele>677.5999999999999</ele><time>2026-04-05T17:36:49.999Z</time></trkpt><trkpt lat="44.32383332442226" lon="10.84073012584581"><ele>677.1999999999999</ele><time>2026-04-05T17:36:51.999Z</time></trkpt><trkpt lat="44.323763800139936" lon="10.84072645546455"><ele>676.8</ele><time>2026-04-05T17:36:52.999Z</time></trkpt><trkpt lat="44.32369119868843" lon="10.840716659054706"><ele>676.4</ele><time>2026-04-05T17:36:53.999Z</time></trkpt><trkpt lat="44.323590989740254" lon="10.840706212650227"><ele>676.0</ele><time>2026-04-05T17:36:54.999Z</time></trkpt><trkpt lat="44.32347803149292" lon="10.840702217528147"><ele>676.0</ele><time>2026-04-05T17:36:55.999Z</time></trkpt><trkpt lat="44.32338139554027" lon="10.840705656631298"><ele>676.0</ele><time>2026-04-05T17:36:56.999Z</time></trkpt><trkpt lat="44.323299160363966" lon="10.840707075311423"><ele>676.0</ele><time>2026-04-05T17:36:57.999Z</time></trkpt><trkpt lat="44.32323614177603" lon="10.84070313554066"><ele>676.0</ele><time>2026-04-05T17:36:58.999Z</time></trkpt><trkpt lat="44.32317098980814" lon="10.840700837810108"><ele>676.0</ele><time>2026-04-05T17:36:59.999Z</time></trkpt><trkpt lat="44.323032078125664" lon="10.840706924339587"><ele>676.0</ele><time>2026-04-05T17:37:01.999Z</time></trkpt><trkpt lat="44.322956656013744" lon="10.840718224528713"><ele>676.0</ele><time>2026-04-05T17:37:02.999Z</time></trkpt><trkpt lat="44.32288250713603" lon="10.840760139033138"><ele>676.0</ele><time>2026-04-05T17:37:03.999Z</time></trkpt><trkpt lat="44.322835366460666" lon="10.840839281395393"><ele>676.0</ele><time>2026-04-05T17:37:04.999Z</time></trkpt><trkpt lat="44.32280757191444" lon="10.840946125879327"><ele>676.0</ele><time>2026-04-05T17:37:05.999Z</time></trkpt><trkpt lat="44.32278721920843" lon="10.841041079110484"><ele>676.0</ele><time>2026-04-05T17:37:06.999Z</time></trkpt><trkpt lat="44.322766353776004" lon="10.841170925032895"><ele>676.0</ele><time>2026-04-05T17:37:09.999Z</time></trkpt><trkpt lat="44.32274105393965" lon="10.841328368040305"><ele>676.0</ele><time>2026-04-05T17:37:11.999Z</time></trkpt><trkpt lat="44.322701833542105" lon="10.841510562230747"><ele>676.0</ele><time>2026-04-05T17:37:13.999Z</time></trkpt><trkpt lat="44.32268370352499" lon="10.841600968187132"><ele>676.0</ele><time>2026-04-05T17:37:14.999Z</time></trkpt><trkpt lat="44.32265537702" lon="10.841735625643652"><ele>676.0</ele><time>2026-04-05T17:37:15.999Z</time></trkpt><trkpt lat="44.3226170995753" lon="10.841910572420417"><ele>676.0</ele><time>2026-04-05T17:37:16.999Z</time></trkpt><trkpt lat="44.32257491940285" lon="10.842074156521305"><ele>677.5</ele><time>2026-04-05T17:37:17.999Z</time></trkpt><trkpt lat="44.3225094613793" lon="10.842217277505998"><ele>679.0</ele><time>2026-04-05T17:37:18.999Z</time></trkpt><trkpt lat="44.322446972013466" lon="10.842365698576716"><ele>680.5</ele><time>2026-04-05T17:37:19.999Z</time></trkpt><trkpt lat="44.32237784270777" lon="10.84252989053452"><ele>682.0</ele><time>2026-04-05T17:37:20.999Z</time></trkpt><trkpt lat="44.32231497796495" lon="10.84272351639078"><ele>686.0</ele><time>2026-04-05T17:37:21.999Z</time></trkpt><trkpt lat="44.322216157690306" lon="10.842634344285882"><ele>690.0</ele><time>2026-04-05T17:37:22.999Z</time></trkpt><trkpt lat="44.32254591599034" lon="10.843320010994079"><ele>692.6666666666666</ele><time>2026-04-05T17:37:23.999Z</time></trkpt><trkpt lat="44.32257209375161" lon="10.84354940711355"><ele>695.3333333333333</ele><time>2026-04-05T17:37:24.999Z</time></trkpt><trkpt lat="44.322586716539725" lon="10.843753117844985"><ele>698.0</ele><time>2026-04-05T17:37:25.999Z</time></trkpt><trkpt lat="44.32258767845949" lon="10.843991137056808"><ele>698.0</ele><time>2026-04-05T17:37:26.999Z</time></trkpt><trkpt lat="44.32259018966563" lon="10.844206974577922"><ele>698.0</ele><time>2026-04-05T17:37:27.998Z</time></trkpt><trkpt lat="44.32260444264653" lon="10.844366695471011"><ele>698.0</ele><time>2026-04-05T17:37:28.998Z</time></trkpt><trkpt lat="44.32262946555488" lon="10.844515133319419"><ele>698.0</ele><time>2026-04-05T17:37:29.998Z</time></trkpt><trkpt lat="44.322652521359075" lon="10.844703569811134"><ele>702.3333333333333</ele><time>2026-04-05T17:37:30.998Z</time></trkpt><trkpt lat="44.32270010282632" lon="10.844931569003844"><ele>706.6666666666666</ele><time>2026-04-05T17:37:31.998Z</time></trkpt><trkpt lat="44.32274220731376" lon="10.845134384364254"><ele>711.0</ele><time>2026-04-05T17:37:32.998Z</time></trkpt><trkpt lat="44.32278236818691" lon="10.845315643537726"><ele>716.0</ele><time>2026-04-05T17:37:33.998Z</time></trkpt><trkpt lat="44.32283179558762" lon="10.845504616475733"><ele>721.0</ele><time>2026-04-05T17:37:34.998Z</time></trkpt><trkpt lat="44.32289518545272" lon="10.845714794227181"><ele>726.0</ele><time>2026-04-05T17:37:35.998Z</time></trkpt><trkpt lat="44.322974558685104" lon="10.845931455407145"><ele>729.75</ele><time>2026-04-05T17:37:36.998Z</time></trkpt><trkpt lat="44.32304589734105" lon="10.846107034305202"><ele>733.5</ele><time>2026-04-05T17:37:37.998Z</time></trkpt><trkpt lat="44.323102894796875" lon="10.846270325329495"><ele>737.25</ele><time>2026-04-05T17:37:38.998Z</time></trkpt><trkpt lat="44.323168688653396" lon="10.846396086553547"><ele>741.0</ele><time>2026-04-05T17:37:39.998Z</time></trkpt><trkpt lat="44.323216692212036" lon="10.846482895405776"><ele>741.0</ele><time>2026-04-05T17:37:40.998Z</time></trkpt><trkpt lat="44.32329982691655" lon="10.846567594714985"><ele>741.0</ele><time>2026-04-05T17:37:43Z</time></trkpt><trkpt lat="44.32327826393901" lon="10.846659070262444"><ele>741.0</ele><time>2026-04-05T17:37:47Z</time></trkpt><trkpt lat="44.32312913001216" lon="10.846627438844697"><ele>741.0</ele><time>2026-04-05T17:37:49Z</time></trkpt><trkpt lat="44.32303476605275" lon="10.846633420650482"><ele>741.0</ele><time>2026-04-05T17:37:50Z</time></trkpt><trkpt lat="44.32292087964588" lon="10.846660309241834"><ele>741.75</ele><time>2026-04-05T17:37:51Z</time></trkpt><trkpt lat="44.32277273927691" lon="10.846713570053831"><ele>742.5</ele><time>2026-04-05T17:37:52Z</time></trkpt><trkpt lat="44.322663098458854" lon="10.84675577004079"><ele>743.25</ele><time>2026-04-05T17:37:53Z</time></trkpt><trkpt lat="44.32253879588337" lon="10.846799520106142"><ele>744.0</ele><time>2026-04-05T17:37:54Z</time></trkpt><trkpt lat="44.32242157974409" lon="10.84683313108818"><ele>744.0</ele><time>2026-04-05T17:37:55Z</time></trkpt><trkpt lat="44.322328742860186" lon="10.84682573624068"><ele>744.0</ele><time>2026-04-05T17:37:56Z</time></trkpt><trkpt lat="44.32224902456082" lon="10.84675701696475"><ele>744.0</ele><time>2026-04-05T17:37:57Z</time></trkpt><trkpt lat="44.32221959704267" lon="10.846610483822237"><ele>744.0</ele><time>2026-04-05T17:37:58Z</time></trkpt><trkpt lat="44.32218999743068" lon="10.846463558290292"><ele>744.0</ele><time>2026-04-05T17:37:59Z</time></trkpt><trkpt lat="44.32215924390774" lon="10.846339924625399"><ele>747.25</ele><time>2026-04-05T17:38:00Z</time></trkpt><trkpt lat="44.32212078072143" lon="10.846257674025527"><ele>750.5</ele><time>2026-04-05T17:38:01Z</time></trkpt><trkpt lat="44.32204064450183" lon="10.846236072291939"><ele>753.75</ele><time>2026-04-05T17:38:02Z</time></trkpt><trkpt lat="44.32195857879774" lon="10.846472617841814"><ele>757.0</ele><time>2026-04-05T17:38:04Z</time></trkpt><trkpt lat="44.32201094484699" lon="10.846615457392101"><ele>757.0</ele><time>2026-04-05T17:38:05Z</time></trkpt><trkpt lat="44.32206403497484" lon="10.846772113994737"><ele>757.0</ele><time>2026-04-05T17:38:06Z</time></trkpt><trkpt lat="44.322110698569794" lon="10.846912141058967"><ele>757.0</ele><time>2026-04-05T17:38:07Z</time></trkpt><trkpt lat="44.32211249598587" lon="10.847034302478876"><ele>757.0</ele><time>2026-04-05T17:38:08Z</time></trkpt><trkpt lat="44.3221295420037" lon="10.847150104040113"><ele>757.0</ele><time>2026-04-05T17:38:09Z</time></trkpt><trkpt lat="44.32209416007117" lon="10.84722764840841"><ele>754.8</ele><time>2026-04-05T17:38:10Z</time></trkpt><trkpt lat="44.322047006186935" lon="10.847287257100028"><ele>752.6</ele><time>2026-04-05T17:38:11Z</time></trkpt><trkpt lat="44.32197423748484" lon="10.847298577606281"><ele>750.4</ele><time>2026-04-05T17:38:12Z</time></trkpt><trkpt lat="44.32189510154929" lon="10.84726175415031"><ele>748.1999999999999</ele><time>2026-04-05T17:38:13Z</time></trkpt><trkpt lat="44.32179405712096" lon="10.847205116609096"><ele>746.0</ele><time>2026-04-05T17:38:14Z</time></trkpt><trkpt lat="44.32167258915867" lon="10.847154748299223"><ele>746.0</ele><time>2026-04-05T17:38:15Z</time></trkpt><trkpt lat="44.32154733022268" lon="10.847126481242576"><ele>746.0</ele><time>2026-04-05T17:38:16Z</time></trkpt><trkpt lat="44.321422437517505" lon="10.847065374528333"><ele>746.0</ele><time>2026-04-05T17:38:17Z</time></trkpt><trkpt lat="44.321308219609335" lon="10.846968645890296"><ele>746.0</ele><time>2026-04-05T17:38:18Z</time></trkpt><trkpt lat="44.321209953213504" lon="10.8468828293195"><ele>745.8</ele><time>2026-04-05T17:38:19Z</time></trkpt><trkpt lat="44.321116715737105" lon="10.846817558584494"><ele>745.5999999999999</ele><time>2026-04-05T17:38:20Z</time></trkpt><trkpt lat="44.32102718711133" lon="10.84675289601409"><ele>745.4</ele><time>2026-04-05T17:38:21Z</time></trkpt><trkpt lat="44.32093486171994" lon="10.846679248084593"><ele>745.2</ele><time>2026-04-05T17:38:22Z</time></trkpt><trkpt lat="44.32085085546985" lon="10.8465993404289"><ele>745.0</ele><time>2026-04-05T17:38:23Z</time></trkpt><trkpt lat="44.3207495027593" lon="10.846482675992133"><ele>748.0</ele><time>2026-04-05T17:38:24Z</time></trkpt><trkpt lat="44.32065284933652" lon="10.84635212925635"><ele>751.0</ele><time>2026-04-05T17:38:25Z</time></trkpt><trkpt lat="44.32055180312017" lon="10.846211522957237"><ele>754.0</ele><time>2026-04-05T17:38:26Z</time></trkpt><trkpt lat="44.32044492441549" lon="10.84606046293817"><ele>757.0</ele><time>2026-04-05T17:38:26.999Z</time></trkpt><trkpt lat="44.3203492462459" lon="10.845915465005735"><ele>759.5</ele><time>2026-04-05T17:38:27.999Z</time></trkpt><trkpt lat="44.320245036266506" lon="10.84579479616926"><ele>762.0</ele><time>2026-04-05T17:38:28.999Z</time></trkpt><trkpt lat="44.32014426874634" lon="10.845681073789894"><ele>764.5</ele><time>2026-04-05T17:38:29.999Z</time></trkpt><trkpt lat="44.32003952054083" lon="10.845568919990301"><ele>767.0</ele><time>2026-04-05T17:38:30.999Z</time></trkpt><trkpt lat="44.31992931387497" lon="10.845468073113574"><ele>767.0</ele><time>2026-04-05T17:38:31.999Z</time></trkpt><trkpt lat="44.319820046572325" lon="10.845375957055454"><ele>767.0</ele><time>2026-04-05T17:38:32.999Z</time></trkpt><trkpt lat="44.3197062584833" lon="10.845293977513165"><ele>767.0</ele><time>2026-04-05T17:38:33.999Z</time></trkpt><trkpt lat="44.319586811961464" lon="10.845230396859971"><ele>767.0</ele><time>2026-04-05T17:38:34.999Z</time></trkpt><trkpt lat="44.319455495051905" lon="10.84516490006841"><ele>765.75</ele><time>2026-04-05T17:38:35.999Z</time></trkpt><trkpt lat="44.31933766238974" lon="10.845086494854748"><ele>764.5</ele><time>2026-04-05T17:38:36.999Z</time></trkpt><trkpt lat="44.31923085809424" lon="10.844992533048362"><ele>763.25</ele><time>2026-04-05T17:38:37.999Z</time></trkpt><trkpt lat="44.319137476016685" lon="10.844882365044361"><ele>762.0</ele><time>2026-04-05T17:38:38.999Z</time></trkpt><trkpt lat="44.319046618605014" lon="10.844768284758459"><ele>762.0</ele><time>2026-04-05T17:38:39.999Z</time></trkpt><trkpt lat="44.31897077865035" lon="10.844634481460186"><ele>762.0</ele><time>2026-04-05T17:38:40.999Z</time></trkpt><trkpt lat="44.31892316673901" lon="10.844482906253278"><ele>762.0</ele><time>2026-04-05T17:38:41.999Z</time></trkpt><trkpt lat="44.31889591167414" lon="10.844342279213977"><ele>762.0</ele><time>2026-04-05T17:38:42.999Z</time></trkpt><trkpt lat="44.31885142600207" lon="10.844212485088894"><ele>762.0</ele><time>2026-04-05T17:38:43.999Z</time></trkpt><trkpt lat="44.318783022670516" lon="10.84409729267186"><ele>762.25</ele><time>2026-04-05T17:38:44.999Z</time></trkpt><trkpt lat="44.318695199317396" lon="10.843989195339121"><ele>762.5</ele><time>2026-04-05T17:38:45.999Z</time></trkpt><trkpt lat="44.31859026278324" lon="10.843885339286553"><ele>762.75</ele><time>2026-04-05T17:38:46.999Z</time></trkpt><trkpt lat="44.31846931360793" lon="10.843800258338806"><ele>763.0</ele><time>2026-04-05T17:38:47.999Z</time></trkpt><trkpt lat="44.31833447986742" lon="10.843737520415365"><ele>763.0</ele><time>2026-04-05T17:38:48.999Z</time></trkpt><trkpt lat="44.318169163798316" lon="10.84366957621202"><ele>763.0</ele><time>2026-04-05T17:38:49.999Z</time></trkpt><trkpt lat="44.318009754319206" lon="10.84360221152325"><ele>763.0</ele><time>2026-04-05T17:38:50.999Z</time></trkpt><trkpt lat="44.31785812684565" lon="10.843533700670536"><ele>761.6666666666667</ele><time>2026-04-05T17:38:51.999Z</time></trkpt><trkpt lat="44.31769449428381" lon="10.843469309356335"><ele>760.3333333333334</ele><time>2026-04-05T17:38:52.999Z</time></trkpt><trkpt lat="44.31754756614624" lon="10.843420169302464"><ele>759.0</ele><time>2026-04-05T17:38:53.999Z</time></trkpt><trkpt lat="44.31739533399462" lon="10.843365910356294"><ele>759.0</ele><time>2026-04-05T17:38:54.999Z</time></trkpt><trkpt lat="44.31724027501846" lon="10.843293361089092"><ele>759.0</ele><time>2026-04-05T17:38:55.999Z</time></trkpt><trkpt lat="44.31708521762392" lon="10.84319984057548"><ele>759.0</ele><time>2026-04-05T17:38:56.999Z</time></trkpt><trkpt lat="44.31695229689025" lon="10.843093239243172"><ele>758.75</ele><time>2026-04-05T17:38:57.999Z</time></trkpt><trkpt lat="44.31683794405119" lon="10.84297169610933"><ele>758.5</ele><time>2026-04-05T17:38:58.999Z</time></trkpt><trkpt lat="44.31671928001001" lon="10.842840402687848"><ele>758.25</ele><time>2026-04-05T17:38:59.999Z</time></trkpt><trkpt lat="44.316613419335084" lon="10.842711321593242"><ele>758.0</ele><time>2026-04-05T17:39:00.999Z</time></trkpt><trkpt lat="44.316527194556464" lon="10.842577715992332"><ele>758.0</ele><time>2026-04-05T17:39:01.999Z</time></trkpt><trkpt lat="44.316459639911706" lon="10.84243283401195"><ele>758.0</ele><time>2026-04-05T17:39:02.999Z</time></trkpt><trkpt lat="44.31641930825726" lon="10.842278626790632"><ele>758.0</ele><time>2026-04-05T17:39:03.999Z</time></trkpt><trkpt lat="44.31639231035544" lon="10.842124343694227"><ele>758.0</ele><time>2026-04-05T17:39:04.999Z</time></trkpt><trkpt lat="44.31636762055065" lon="10.841987737265875"><ele>757.2</ele><time>2026-04-05T17:39:05.999Z</time></trkpt><trkpt lat="44.31634151805683" lon="10.841848863585557"><ele>756.4</ele><time>2026-04-05T17:39:06.999Z</time></trkpt><trkpt lat="44.31630778262022" lon="10.841720474765479"><ele>755.6</ele><time>2026-04-05T17:39:07.999Z</time></trkpt><trkpt lat="44.316243567063445" lon="10.841642865567659"><ele>754.8000000000001</ele><time>2026-04-05T17:39:08.999Z</time></trkpt><trkpt lat="44.3161397140097" lon="10.841608559976834"><ele>754.0</ele><time>2026-04-05T17:39:09.999Z</time></trkpt><trkpt lat="44.31601832473375" lon="10.84162380285883"><ele>753.0</ele><time>2026-04-05T17:39:10.999Z</time></trkpt><trkpt lat="44.31587711522813" lon="10.841639249973387"><ele>752.0</ele><time>2026-04-05T17:39:11.999Z</time></trkpt><trkpt lat="44.3157249200921" lon="10.841631097306118"><ele>751.0</ele><time>2026-04-05T17:39:12.999Z</time></trkpt><trkpt lat="44.31556221195764" lon="10.841598614096418"><ele>749.25</ele><time>2026-04-05T17:39:13.999Z</time></trkpt><trkpt lat="44.315416639168625" lon="10.841562352286454"><ele>747.5</ele><time>2026-04-05T17:39:14.999Z</time></trkpt><trkpt lat="44.315272531225915" lon="10.841540747626958"><ele>745.75</ele><time>2026-04-05T17:39:15.999Z</time></trkpt><trkpt lat="44.31512329030384" lon="10.841521209091452"><ele>744.0</ele><time>2026-04-05T17:39:16.999Z</time></trkpt><trkpt lat="44.3149796212069" lon="10.841497605087293"><ele>744.0</ele><time>2026-04-05T17:39:17.999Z</time></trkpt><trkpt lat="44.314831013543525" lon="10.841469633828142"><ele>744.0</ele><time>2026-04-05T17:39:18.999Z</time></trkpt><trkpt lat="44.31469257046877" lon="10.841445298150985"><ele>744.0</ele><time>2026-04-05T17:39:19.999Z</time></trkpt><trkpt lat="44.31455177681652" lon="10.841435055481565"><ele>744.0</ele><time>2026-04-05T17:39:20.999Z</time></trkpt><trkpt lat="44.314411081257575" lon="10.841433073802895"><ele>743.75</ele><time>2026-04-05T17:39:21.999Z</time></trkpt><trkpt lat="44.31427542145278" lon="10.841413471183673"><ele>743.5</ele><time>2026-04-05T17:39:22.999Z</time></trkpt><trkpt lat="44.31413533801176" lon="10.841368247629"><ele>743.25</ele><time>2026-04-05T17:39:23.999Z</time></trkpt><trkpt lat="44.314010727281115" lon="10.841318025621991"><ele>743.0</ele><time>2026-04-05T17:39:24.999Z</time></trkpt><trkpt lat="44.31389365169373" lon="10.841279230819362"><ele>742.4</ele><time>2026-04-05T17:39:25.999Z</time></trkpt><trkpt lat="44.31378407200264" lon="10.841265580605913"><ele>741.8</ele><time>2026-04-05T17:39:26.999Z</time></trkpt><trkpt lat="44.313690807463715" lon="10.841265837852141"><ele>741.2</ele><time>2026-04-05T17:39:27.999Z</time></trkpt><trkpt lat="44.31358887495274" lon="10.841274101155228"><ele>740.6</ele><time>2026-04-05T17:39:28.999Z</time></trkpt><trkpt lat="44.31349324663559" lon="10.841283255198324"><ele>740.0</ele><time>2026-04-05T17:39:29.999Z</time></trkpt><trkpt lat="44.31341767059069" lon="10.841272349749971"><ele>740.0</ele><time>2026-04-05T17:39:30.999Z</time></trkpt><trkpt lat="44.313341327387334" lon="10.84124516739342"><ele>740.0</ele><time>2026-04-05T17:39:31.998Z</time></trkpt><trkpt lat="44.313271214210104" lon="10.841221241335457"><ele>740.0</ele><time>2026-04-05T17:39:32.998Z</time></trkpt><trkpt lat="44.31318620823596" lon="10.841189496075184"><ele>740.0</ele><time>2026-04-05T17:39:33.998Z</time></trkpt><trkpt lat="44.31310166454956" lon="10.841158783311345"><ele>740.0</ele><time>2026-04-05T17:39:34.998Z</time></trkpt><trkpt lat="44.31302159034561" lon="10.841126664553265"><ele>740.0</ele><time>2026-04-05T17:39:35.998Z</time></trkpt><trkpt lat="44.31294602885854" lon="10.841097474482952"><ele>739.1666666666666</ele><time>2026-04-05T17:39:36.998Z</time></trkpt><trkpt lat="44.312869185818606" lon="10.841069797097475"><ele>738.3333333333333</ele><time>2026-04-05T17:39:37.998Z</time></trkpt><trkpt lat="44.31280613221647" lon="10.841048368787439"><ele>737.5</ele><time>2026-04-05T17:39:38.998Z</time></trkpt><trkpt lat="44.31273990392468" lon="10.841023465117479"><ele>736.6666666666666</ele><time>2026-04-05T17:39:39.998Z</time></trkpt><trkpt lat="44.31263389344563" lon="10.840996882622964"><ele>735.8333333333334</ele><time>2026-04-05T17:39:41.998Z</time></trkpt><trkpt lat="44.31254223726032" lon="10.840988857728709"><ele>735.0</ele><time>2026-04-05T17:39:43.998Z</time></trkpt><trkpt lat="44.31244678761393" lon="10.841009887665624"><ele>735.0</ele><time>2026-04-05T17:39:45.998Z</time></trkpt><trkpt lat="44.312364178055155" lon="10.8410515887007"><ele>735.0</ele><time>2026-04-05T17:39:48Z</time></trkpt><trkpt lat="44.312253907388616" lon="10.841109836200122"><ele>735.0</ele><time>2026-04-05T17:39:50Z</time></trkpt><trkpt lat="44.31219426668577" lon="10.841185014774698"><ele>735.0</ele><time>2026-04-05T17:39:51Z</time></trkpt><trkpt lat="44.312117891832266" lon="10.841299876465058"><ele>735.0</ele><time>2026-04-05T17:39:52Z</time></trkpt><trkpt lat="44.312042065885855" lon="10.841426582754004"><ele>735.5</ele><time>2026-04-05T17:39:53Z</time></trkpt><trkpt lat="44.31195485496997" lon="10.841573035529894"><ele>736.0</ele><time>2026-04-05T17:39:54Z</time></trkpt><trkpt lat="44.3118748015889" lon="10.841724347229164"><ele>736.5</ele><time>2026-04-05T17:39:55Z</time></trkpt><trkpt lat="44.31180763053392" lon="10.841863421922776"><ele>737.0</ele><time>2026-04-05T17:39:56Z</time></trkpt><trkpt lat="44.311744996560925" lon="10.842002773727021"><ele>737.0</ele><time>2026-04-05T17:39:57Z</time></trkpt><trkpt lat="44.31168758176553" lon="10.842156071792996"><ele>737.0</ele><time>2026-04-05T17:39:58Z</time></trkpt><trkpt lat="44.31163150930717" lon="10.842304578237414"><ele>737.0</ele><time>2026-04-05T17:39:59Z</time></trkpt><trkpt lat="44.311586905004326" lon="10.842454089707056"><ele>737.0</ele><time>2026-04-05T17:40:00Z</time></trkpt><trkpt lat="44.311538562362145" lon="10.842601750948852"><ele>734.75</ele><time>2026-04-05T17:40:01Z</time></trkpt><trkpt lat="44.3114966384708" lon="10.842751242773533"><ele>732.5</ele><time>2026-04-05T17:40:02Z</time></trkpt><trkpt lat="44.31145002912965" lon="10.842905348927033"><ele>730.25</ele><time>2026-04-05T17:40:03Z</time></trkpt><trkpt lat="44.311420615471405" lon="10.843052593331183"><ele>728.0</ele><time>2026-04-05T17:40:04Z</time></trkpt><trkpt lat="44.31141605906635" lon="10.843234916002366"><ele>727.5</ele><time>2026-04-05T17:40:05Z</time></trkpt><trkpt lat="44.31140117837075" lon="10.843436711120145"><ele>727.0</ele><time>2026-04-05T17:40:06Z</time></trkpt><trkpt lat="44.311395313132905" lon="10.843642249460638"><ele>726.5</ele><time>2026-04-05T17:40:07Z</time></trkpt><trkpt lat="44.31139084077665" lon="10.843831361500941"><ele>726.0</ele><time>2026-04-05T17:40:08Z</time></trkpt><trkpt lat="44.3114007038608" lon="10.844017227648994"><ele>725.75</ele><time>2026-04-05T17:40:09Z</time></trkpt><trkpt lat="44.311398051939626" lon="10.844200971583279"><ele>725.5</ele><time>2026-04-05T17:40:10Z</time></trkpt><trkpt lat="44.3113939109223" lon="10.844375363154898"><ele>725.25</ele><time>2026-04-05T17:40:11Z</time></trkpt><trkpt lat="44.311389800408755" lon="10.844538765876923"><ele>725.0</ele><time>2026-04-05T17:40:11.999Z</time></trkpt><trkpt lat="44.311366413205" lon="10.844701809399604"><ele>725.75</ele><time>2026-04-05T17:40:12.999Z</time></trkpt><trkpt lat="44.311351123672125" lon="10.844862929189244"><ele>726.5</ele><time>2026-04-05T17:40:13.999Z</time></trkpt><trkpt lat="44.311338399839386" lon="10.84501579468543"><ele>727.25</ele><time>2026-04-05T17:40:14.999Z</time></trkpt><trkpt lat="44.31127992398922" lon="10.845173344538319"><ele>728.0</ele><time>2026-04-05T17:40:15.999Z</time></trkpt><trkpt lat="44.31119859426767" lon="10.84532192722175"><ele>724.75</ele><time>2026-04-05T17:40:16.999Z</time></trkpt><trkpt lat="44.31112184269338" lon="10.845466311280946"><ele>721.5</ele><time>2026-04-05T17:40:17.999Z</time></trkpt><trkpt lat="44.31105518424721" lon="10.845606651674029"><ele>718.25</ele><time>2026-04-05T17:40:18.999Z</time></trkpt><trkpt lat="44.31099294694597" lon="10.845744034061793"><ele>715.0</ele><time>2026-04-05T17:40:19.999Z</time></trkpt><trkpt lat="44.31092792586169" lon="10.84587616750982"><ele>712.0</ele><time>2026-04-05T17:40:20.999Z</time></trkpt><trkpt lat="44.31087287852452" lon="10.845990185076495"><ele>709.0</ele><time>2026-04-05T17:40:21.999Z</time></trkpt><trkpt lat="44.31081554793464" lon="10.846088577877767"><ele>706.0</ele><time>2026-04-05T17:40:22.999Z</time></trkpt><trkpt lat="44.310752210655174" lon="10.846159333036647"><ele>703.0</ele><time>2026-04-05T17:40:23.999Z</time></trkpt><trkpt lat="44.310672768226326" lon="10.846201284138841"><ele>700.0</ele><time>2026-04-05T17:40:24.999Z</time></trkpt><trkpt lat="44.31059561422116" lon="10.846193032030355"><ele>697.0</ele><time>2026-04-05T17:40:25.999Z</time></trkpt><trkpt lat="44.310510663702466" lon="10.846122827757966"><ele>695.25</ele><time>2026-04-05T17:40:26.999Z</time></trkpt><trkpt lat="44.31045172169155" lon="10.846001353320018"><ele>693.5</ele><time>2026-04-05T17:40:27.999Z</time></trkpt><trkpt lat="44.31040359427784" lon="10.845833659619371"><ele>691.75</ele><time>2026-04-05T17:40:28.999Z</time></trkpt><trkpt lat="44.31037123541875" lon="10.84567006903624"><ele>690.0</ele><time>2026-04-05T17:40:29.999Z</time></trkpt><trkpt lat="44.31033653761707" lon="10.845500221989152"><ele>690.0</ele><time>2026-04-05T17:40:30.999Z</time></trkpt><trkpt lat="44.31030482658284" lon="10.845336734740684"><ele>690.0</ele><time>2026-04-05T17:40:31.999Z</time></trkpt><trkpt lat="44.31028050041912" lon="10.84517693685021"><ele>690.0</ele><time>2026-04-05T17:40:32.999Z</time></trkpt><trkpt lat="44.31026491660693" lon="10.844998247824805"><ele>690.0</ele><time>2026-04-05T17:40:33.999Z</time></trkpt><trkpt lat="44.31025566679728" lon="10.844792259876794"><ele>690.75</ele><time>2026-04-05T17:40:34.999Z</time></trkpt><trkpt lat="44.3102561864238" lon="10.844609758251751"><ele>691.5</ele><time>2026-04-05T17:40:35.999Z</time></trkpt><trkpt lat="44.310256345419894" lon="10.844435967440965"><ele>692.25</ele><time>2026-04-05T17:40:36.999Z</time></trkpt><trkpt lat="44.31025449381735" lon="10.844273880231821"><ele>693.0</ele><time>2026-04-05T17:40:37.999Z</time></trkpt><trkpt lat="44.31025335503675" lon="10.84412748882414"><ele>693.2</ele><time>2026-04-05T17:40:38.999Z</time></trkpt><trkpt lat="44.31025797836281" lon="10.843969717243683"><ele>693.4</ele><time>2026-04-05T17:40:39.999Z</time></trkpt><trkpt lat="44.31026318290998" lon="10.843826313602886"><ele>693.6</ele><time>2026-04-05T17:40:40.999Z</time></trkpt><trkpt lat="44.31027045922489" lon="10.84368363664696"><ele>693.8000000000001</ele><time>2026-04-05T17:40:41.999Z</time></trkpt><trkpt lat="44.31026355754125" lon="10.84354947202707"><ele>694.0</ele><time>2026-04-05T17:40:42.999Z</time></trkpt><trkpt lat="44.31022185518869" lon="10.843422555500096"><ele>695.75</ele><time>2026-04-05T17:40:43.999Z</time></trkpt><trkpt lat="44.31013153916904" lon="10.843306406367967"><ele>697.5</ele><time>2026-04-05T17:40:44.999Z</time></trkpt><trkpt lat="44.31002087900852" lon="10.843235372952828"><ele>699.25</ele><time>2026-04-05T17:40:45.999Z</time></trkpt><trkpt lat="44.309896424801636" lon="10.843207656960942"><ele>701.0</ele><time>2026-04-05T17:40:46.999Z</time></trkpt><trkpt lat="44.309771941231695" lon="10.843207152253603"><ele>699.5</ele><time>2026-04-05T17:40:47.999Z</time></trkpt><trkpt lat="44.30963468098185" lon="10.843214471875095"><ele>698.0</ele><time>2026-04-05T17:40:48.999Z</time></trkpt><trkpt lat="44.309512081734326" lon="10.843233400352984"><ele>696.5</ele><time>2026-04-05T17:40:49.999Z</time></trkpt><trkpt lat="44.30939540745776" lon="10.84326863025143"><ele>695.0</ele><time>2026-04-05T17:40:50.999Z</time></trkpt><trkpt lat="44.30929675844208" lon="10.843339319909926"><ele>695.0</ele><time>2026-04-05T17:40:51.999Z</time></trkpt><trkpt lat="44.30919592947425" lon="10.843447950030725"><ele>695.0</ele><time>2026-04-05T17:40:52.999Z</time></trkpt><trkpt lat="44.30909867499507" lon="10.84353141407698"><ele>695.0</ele><time>2026-04-05T17:40:53.999Z</time></trkpt><trkpt lat="44.308998721910434" lon="10.843583332480538"><ele>695.0</ele><time>2026-04-05T17:40:54.999Z</time></trkpt><trkpt lat="44.30890293281722" lon="10.843636535879403"><ele>690.8</ele><time>2026-04-05T17:40:55.999Z</time></trkpt><trkpt lat="44.30881079664642" lon="10.843722671020016"><ele>686.6</ele><time>2026-04-05T17:40:56.998Z</time></trkpt><trkpt lat="44.308723143257254" lon="10.843822522836271"><ele>682.4000000000001</ele><time>2026-04-05T17:40:57.998Z</time></trkpt><trkpt lat="44.30863499035051" lon="10.843899915676138"><ele>678.2</ele><time>2026-04-05T17:40:58.998Z</time></trkpt><trkpt lat="44.30854595696792" lon="10.843953782752104"><ele>674.0</ele><time>2026-04-05T17:40:59.998Z</time></trkpt><trkpt lat="44.308457228852234" lon="10.844001091731602"><ele>674.0</ele><time>2026-04-05T17:41:00.998Z</time></trkpt><trkpt lat="44.308385681243266" lon="10.844036715628887"><ele>674.0</ele><time>2026-04-05T17:41:01.998Z</time></trkpt><trkpt lat="44.3083138936038" lon="10.844069920061822"><ele>674.0</ele><time>2026-04-05T17:41:02.998Z</time></trkpt><trkpt lat="44.30824673473552" lon="10.844097735402562"><ele>674.0</ele><time>2026-04-05T17:41:03.998Z</time></trkpt><trkpt lat="44.30814395074619" lon="10.844096579221425"><ele>674.0</ele><time>2026-04-05T17:41:05.998Z</time></trkpt><trkpt lat="44.3080457633481" lon="10.844084693259099"><ele>674.0</ele><time>2026-04-05T17:41:07.998Z</time></trkpt><trkpt lat="44.30794905641168" lon="10.844077965299515"><ele>674.75</ele><time>2026-04-05T17:41:09.998Z</time></trkpt><trkpt lat="44.30788725059973" lon="10.844037575762643"><ele>675.5</ele><time>2026-04-05T17:41:11.998Z</time></trkpt><trkpt lat="44.307867856862934" lon="10.843670525883043"><ele>676.25</ele><time>2026-04-05T17:41:13.998Z</time></trkpt><trkpt lat="44.307815240220116" lon="10.843588917293797"><ele>677.0</ele><time>2026-04-05T17:41:14.998Z</time></trkpt><trkpt lat="44.30772400874029" lon="10.843454162406822"><ele>677.0</ele><time>2026-04-05T17:41:15.998Z</time></trkpt><trkpt lat="44.30763183139179" lon="10.843335375390494"><ele>677.0</ele><time>2026-04-05T17:41:16.998Z</time></trkpt><trkpt lat="44.30755232615462" lon="10.843219562076209"><ele>677.0</ele><time>2026-04-05T17:41:17.998Z</time></trkpt><trkpt lat="44.307484434846344" lon="10.843117638727708"><ele>677.0</ele><time>2026-04-05T17:41:18.998Z</time></trkpt><trkpt lat="44.30741682236861" lon="10.843024342961298"><ele>677.0</ele><time>2026-04-05T17:41:19.998Z</time></trkpt><trkpt lat="44.30734439833288" lon="10.842919876361007"><ele>677.0</ele><time>2026-04-05T17:41:20.998Z</time></trkpt><trkpt lat="44.30729198710698" lon="10.84274576421691"><ele>677.0</ele><time>2026-04-05T17:41:22.998Z</time></trkpt><trkpt lat="44.3072699526715" lon="10.842626290141821"><ele>677.0</ele><time>2026-04-05T17:41:23.998Z</time></trkpt><trkpt lat="44.30722542210817" lon="10.842487272507714"><ele>677.0</ele><time>2026-04-05T17:41:24.998Z</time></trkpt><trkpt lat="44.30716183254041" lon="10.842334058139786"><ele>676.8333333333333</ele><time>2026-04-05T17:41:25.998Z</time></trkpt><trkpt lat="44.3071185389741" lon="10.842231395006287"><ele>676.6666666666666</ele><time>2026-04-05T17:41:26.998Z</time></trkpt><trkpt lat="44.30709987057425" lon="10.842098973078224"><ele>676.5</ele><time>2026-04-05T17:41:27.998Z</time></trkpt><trkpt lat="44.30707525319938" lon="10.84195534587834"><ele>676.3333333333334</ele><time>2026-04-05T17:41:28.998Z</time></trkpt><trkpt lat="44.307038343028566" lon="10.841868266650197"><ele>676.1666666666667</ele><time>2026-04-05T17:41:29.998Z</time></trkpt><trkpt lat="44.307022921866995" lon="10.841765100997588"><ele>676.0</ele><time>2026-04-05T17:41:30.998Z</time></trkpt><trkpt lat="44.307015451341776" lon="10.841620025705963"><ele>676.0</ele><time>2026-04-05T17:41:31.998Z</time></trkpt><trkpt lat="44.30702577619337" lon="10.841505976375116"><ele>676.0</ele><time>2026-04-05T17:41:32.998Z</time></trkpt><trkpt lat="44.30702129608044" lon="10.841400523281568"><ele>676.0</ele><time>2026-04-05T17:41:33.998Z</time></trkpt><trkpt lat="44.307018988328316" lon="10.841307040303075"><ele>676.0</ele><time>2026-04-05T17:41:34.998Z</time></trkpt><trkpt lat="44.30704448503234" lon="10.84113938780614"><ele>676.0</ele><time>2026-04-05T17:41:36.998Z</time></trkpt><trkpt lat="44.30706782479442" lon="10.841039477630964"><ele>676.0</ele><time>2026-04-05T17:41:37.998Z</time></trkpt><trkpt lat="44.307097674988114" lon="10.840927936513523"><ele>675.1999999999999</ele><time>2026-04-05T17:41:38.998Z</time></trkpt><trkpt lat="44.3071240818709" lon="10.84078914124613"><ele>674.4</ele><time>2026-04-05T17:41:40.998Z</time></trkpt><trkpt lat="44.307099871224786" lon="10.84068756062646"><ele>673.6</ele><time>2026-04-05T17:41:42.998Z</time></trkpt><trkpt lat="44.30695768908439" lon="10.840556080197027"><ele>672.8</ele><time>2026-04-05T17:41:44.998Z</time></trkpt><trkpt lat="44.30687178091403" lon="10.840487053329026"><ele>672.0</ele><time>2026-04-05T17:41:45.998Z</time></trkpt><trkpt lat="44.30679228858678" lon="10.840413573920545"><ele>672.0</ele><time>2026-04-05T17:41:46.998Z</time></trkpt><trkpt lat="44.30671696485972" lon="10.840347766783035"><ele>672.0</ele><time>2026-04-05T17:41:47.998Z</time></trkpt><trkpt lat="44.30665232016795" lon="10.840286001692816"><ele>672.0</ele><time>2026-04-05T17:41:48.998Z</time></trkpt><trkpt lat="44.3065568198108" lon="10.84022343499849"><ele>672.0</ele><time>2026-04-05T17:41:50.998Z</time></trkpt><trkpt lat="44.30649248534673" lon="10.840260070709983"><ele>672.0</ele><time>2026-04-05T17:41:52.998Z</time></trkpt><trkpt lat="44.306425548008214" lon="10.840271604047034"><ele>672.0</ele><time>2026-04-05T17:41:54.999Z</time></trkpt><trkpt lat="44.30635562921786" lon="10.840226734574435"><ele>671.1666666666666</ele><time>2026-04-05T17:41:56.999Z</time></trkpt><trkpt lat="44.306365551290476" lon="10.84010566599754"><ele>670.3333333333334</ele><time>2026-04-05T17:41:59.999Z</time></trkpt><trkpt lat="44.306422874398855" lon="10.840009038520655"><ele>669.5</ele><time>2026-04-05T17:42:02Z</time></trkpt><trkpt lat="44.3065103009049" lon="10.839960717309724"><ele>668.6666666666667</ele><time>2026-04-05T17:42:04Z</time></trkpt><trkpt lat="44.30655420815762" lon="10.839890112238962"><ele>667.8333333333334</ele><time>2026-04-05T17:42:08Z</time></trkpt><trkpt lat="44.306510325614184" lon="10.8397838809196"><ele>667.0</ele><time>2026-04-05T17:42:10Z</time></trkpt><trkpt lat="44.30639934720841" lon="10.839773727545484"><ele>664.8</ele><time>2026-04-05T17:42:12Z</time></trkpt><trkpt lat="44.30632997120724" lon="10.839778710271528"><ele>662.6</ele><time>2026-04-05T17:42:13Z</time></trkpt><trkpt lat="44.30624582943379" lon="10.839681204731306"><ele>660.4</ele><time>2026-04-05T17:42:15Z</time></trkpt><trkpt lat="44.30619919055329" lon="10.839573547036846"><ele>658.1999999999999</ele><time>2026-04-05T17:42:17Z</time></trkpt><trkpt lat="44.3060866783045" lon="10.83957035317912"><ele>656.0</ele><time>2026-04-05T17:42:20Z</time></trkpt><trkpt lat="44.30599435813216" lon="10.839566147536067"><ele>656.0</ele><time>2026-04-05T17:42:22Z</time></trkpt><trkpt lat="44.30583552266953" lon="10.839560113154526"><ele>656.0</ele><time>2026-04-05T17:42:25Z</time></trkpt><trkpt lat="44.30572330294728" lon="10.839584396236559"><ele>656.0</ele><time>2026-04-05T17:42:27Z</time></trkpt><trkpt lat="44.30565048035852" lon="10.83961759666053"><ele>656.0</ele><time>2026-04-05T17:42:27.999Z</time></trkpt><trkpt lat="44.30554946216185" lon="10.839664650398575"><ele>656.1999999999999</ele><time>2026-04-05T17:42:29.999Z</time></trkpt><trkpt lat="44.305445595371225" lon="10.839694362680758"><ele>656.4</ele><time>2026-04-05T17:42:31.999Z</time></trkpt><trkpt lat="44.30535258395435" lon="10.839735305759584"><ele>656.6</ele><time>2026-04-05T17:42:33.999Z</time></trkpt><trkpt lat="44.30525750181886" lon="10.83974907177138"><ele>656.8</ele><time>2026-04-05T17:42:35.999Z</time></trkpt><trkpt lat="44.30516311691082" lon="10.839702202327052"><ele>657.0</ele><time>2026-04-05T17:42:37.999Z</time></trkpt><trkpt lat="44.30508621544418" lon="10.839637941245508"><ele>657.0</ele><time>2026-04-05T17:42:39.999Z</time></trkpt><trkpt lat="44.30503576948283" lon="10.839568105747645"><ele>657.0</ele><time>2026-04-05T17:42:41.999Z</time></trkpt><trkpt lat="44.30499448674376" lon="10.839441441614559"><ele>657.0</ele><time>2026-04-05T17:42:43.999Z</time></trkpt><trkpt lat="44.30488310525857" lon="10.839366980586972"><ele>657.0</ele><time>2026-04-05T17:42:45.999Z</time></trkpt><trkpt lat="44.30484008729893" lon="10.83928967960307"><ele>657.0</ele><time>2026-04-05T17:42:46.999Z</time></trkpt><trkpt lat="44.30477854457073" lon="10.83921119492046"><ele>657.0</ele><time>2026-04-05T17:42:48.999Z</time></trkpt><trkpt lat="44.30470294025083" lon="10.83919626382076"><ele>661.6666666666666</ele><time>2026-04-05T17:42:52.999Z</time></trkpt><trkpt lat="44.30469391949088" lon="10.839291876782156"><ele>666.3333333333334</ele><time>2026-04-05T17:42:57.999Z</time></trkpt><trkpt lat="44.30474543117976" lon="10.839357742417468"><ele>671.0</ele><time>2026-04-05T17:43:00.999Z</time></trkpt><trkpt lat="44.30473852802334" lon="10.839479027575885"><ele>675.6666666666667</ele><time>2026-04-05T17:43:04.999Z</time></trkpt><trkpt lat="44.30468742575063" lon="10.839549350326056"><ele>680.3333333333334</ele><time>2026-04-05T17:43:07.999Z</time></trkpt><trkpt lat="44.304608303963334" lon="10.83959899698806"><ele>685.0</ele><time>2026-04-05T17:43:10.999Z</time></trkpt><trkpt lat="44.304600361849246" lon="10.839690656214794"><ele>685.1666666666667</ele><time>2026-04-05T17:43:14.999Z</time></trkpt><trkpt lat="44.30451381951436" lon="10.839690781076584"><ele>685.3333333333334</ele><time>2026-04-05T17:43:38.998Z</time></trkpt><trkpt lat="44.3044523168381" lon="10.839644525405443"><ele>685.5</ele><time>2026-04-05T17:43:39.998Z</time></trkpt><trkpt lat="44.30438387364729" lon="10.839576525954055"><ele>685.6666666666666</ele><time>2026-04-05T17:43:40.998Z</time></trkpt><trkpt lat="44.304297743857774" lon="10.83955290306671"><ele>685.8333333333333</ele><time>2026-04-05T17:43:42.998Z</time></trkpt><trkpt lat="44.30419165406431" lon="10.83954027849065"><ele>686.0</ele><time>2026-04-05T17:43:45.998Z</time></trkpt><trkpt lat="44.304071465498005" lon="10.839509367607288"><ele>686.0</ele><time>2026-04-05T17:43:47.998Z</time></trkpt><trkpt lat="44.30400771009173" lon="10.839599230863083"><ele>686.0</ele><time>2026-04-05T17:43:50.998Z</time></trkpt><trkpt lat="44.30409136081657" lon="10.839730805239386"><ele>686.0</ele><time>2026-04-05T17:43:52.998Z</time></trkpt><trkpt lat="44.30415633502371" lon="10.839780225491381"><ele>686.0</ele><time>2026-04-05T17:43:54.998Z</time></trkpt><trkpt lat="44.30420166350524" lon="10.83984151558362"><ele>686.0</ele><time>2026-04-05T17:43:56.998Z</time></trkpt><trkpt lat="44.30414890670526" lon="10.839919840183889"><ele>686.0</ele><time>2026-04-05T17:43:58.998Z</time></trkpt><trkpt lat="44.3041007158674" lon="10.840069578770263"><ele>685.5</ele><time>2026-04-05T17:44:01Z</time></trkpt><trkpt lat="44.304063613934225" lon="10.840147928876846"><ele>685.0</ele><time>2026-04-05T17:44:02Z</time></trkpt><trkpt lat="44.30400910312274" lon="10.84022095683123"><ele>684.5</ele><time>2026-04-05T17:44:03Z</time></trkpt><trkpt lat="44.30394214489777" lon="10.840368725249588"><ele>684.0</ele><time>2026-04-05T17:44:05Z</time></trkpt><trkpt lat="44.303936808869906" lon="10.840477909310577"><ele>683.5</ele><time>2026-04-05T17:44:07Z</time></trkpt><trkpt lat="44.3039176380343" lon="10.840610798681428"><ele>683.0</ele><time>2026-04-05T17:44:09Z</time></trkpt><trkpt lat="44.30389114416368" lon="10.840717184885548"><ele>687.5</ele><time>2026-04-05T17:44:11Z</time></trkpt><trkpt lat="44.303848335618596" lon="10.840817168008636"><ele>692.0</ele><time>2026-04-05T17:44:13Z</time></trkpt><trkpt lat="44.30377648419423" lon="10.840812354902365"><ele>696.5</ele><time>2026-04-05T17:44:15Z</time></trkpt><trkpt lat="44.3037099364316" lon="10.840688446975825"><ele>701.0</ele><time>2026-04-05T17:44:17Z</time></trkpt><trkpt lat="44.30363079503379" lon="10.840624885741645"><ele>705.5</ele><time>2026-04-05T17:44:19Z</time></trkpt><trkpt lat="44.30356289216094" lon="10.840556713611802"><ele>710.0</ele><time>2026-04-05T17:44:21Z</time></trkpt><trkpt lat="44.303528380290075" lon="10.8404314657749"><ele>710.0</ele><time>2026-04-05T17:44:23Z</time></trkpt><trkpt lat="44.303550070881485" lon="10.840284432658539"><ele>710.0</ele><time>2026-04-05T17:44:25Z</time></trkpt><trkpt lat="44.303577491213986" lon="10.840199369526516"><ele>710.0</ele><time>2026-04-05T17:45:08.999Z</time></trkpt><trkpt lat="44.3035298395735" lon="10.840102885382464"><ele>710.0</ele><time>2026-04-05T17:46:28Z</time></trkpt><trkpt lat="44.30350210940574" lon="10.840022340430274"><ele>710.0</ele><time>2026-04-05T17:46:31Z</time></trkpt><trkpt lat="44.30342601177302" lon="10.83990388719321"><ele>710.0</ele><time>2026-04-05T17:47:09.999Z</time></trkpt><trkpt lat="44.303342603897086" lon="10.839901434282917"><ele>710.5</ele><time>2026-04-05T17:48:29.999Z</time></trkpt><trkpt lat="44.30324642797031" lon="10.839865748376166"><ele>711.0</ele><time>2026-04-05T17:48:31.999Z</time></trkpt><trkpt lat="44.303170623147565" lon="10.839828031293052"><ele>711.5</ele><time>2026-04-05T17:48:33.999Z</time></trkpt><trkpt lat="44.30310800146091" lon="10.839747510357498"><ele>712.0</ele><time>2026-04-05T17:48:35.999Z</time></trkpt><trkpt lat="44.303077431817755" lon="10.839666742442972"><ele>712.5</ele><time>2026-04-05T17:48:37.999Z</time></trkpt><trkpt lat="44.30302940126864" lon="10.839608258568447"><ele>713.0</ele><time>2026-04-05T17:48:38.999Z</time></trkpt><trkpt lat="44.30293710171036" lon="10.839639210218873"><ele>715.5999999999999</ele><time>2026-04-05T17:48:41.999Z</time></trkpt><trkpt lat="44.30284584747008" lon="10.83963829218514"><ele>718.1999999999999</ele><time>2026-04-05T17:48:43.999Z</time></trkpt><trkpt lat="44.30275048588843" lon="10.839626227446072"><ele>720.8</ele><time>2026-04-05T17:48:45.999Z</time></trkpt><trkpt lat="44.30269826731792" lon="10.839726325885257"><ele>723.4</ele><time>2026-04-05T17:48:47.999Z</time></trkpt><trkpt lat="44.302642082850674" lon="10.839809017835835"><ele>726.0</ele><time>2026-04-05T17:48:52.999Z</time></trkpt><trkpt lat="44.30256291135237" lon="10.839881942653415"><ele>726.0</ele><time>2026-04-05T17:48:54.999Z</time></trkpt><trkpt lat="44.30249877556994" lon="10.839942571066137"><ele>726.0</ele><time>2026-04-05T17:48:56.999Z</time></trkpt><trkpt lat="44.30242050387073" lon="10.839995703711663"><ele>726.0</ele><time>2026-04-05T17:48:58.999Z</time></trkpt><trkpt lat="44.30237044839444" lon="10.839914840540049"><ele>726.0</ele><time>2026-04-05T17:49:00.999Z</time></trkpt><trkpt lat="44.30238975818685" lon="10.839820781857663"><ele>726.0</ele><time>2026-04-05T17:49:01.999Z</time></trkpt><trkpt lat="44.30247131821153" lon="10.839696716895322"><ele>726.0</ele><time>2026-04-05T17:49:03.999Z</time></trkpt><trkpt lat="44.3025209675544" lon="10.839629708427209"><ele>726.0</ele><time>2026-04-05T17:49:04.999Z</time></trkpt><trkpt lat="44.30254833612093" lon="10.839546420410992"><ele>726.0</ele><time>2026-04-05T17:49:05.999Z</time></trkpt><trkpt lat="44.30256005905798" lon="10.83936425912827"><ele>726.0</ele><time>2026-04-05T17:49:07.999Z</time></trkpt><trkpt lat="44.302522239946626" lon="10.839244255298302"><ele>726.0</ele><time>2026-04-05T17:49:09.999Z</time></trkpt><trkpt lat="44.30244882488248" lon="10.83909723866279"><ele>726.0</ele><time>2026-04-05T17:49:11.999Z</time></trkpt><trkpt lat="44.30234962650068" lon="10.839074865827884"><ele>726.8333333333334</ele><time>2026-04-05T17:49:13.999Z</time></trkpt><trkpt lat="44.30231333356547" lon="10.839001384750299"><ele>727.6666666666666</ele><time>2026-04-05T17:49:14.999Z</time></trkpt><trkpt lat="44.3023099365426" lon="10.838910972139244"><ele>728.5</ele><time>2026-04-05T17:49:15.999Z</time></trkpt><trkpt lat="44.302283161039135" lon="10.838751625742846"><ele>729.3333333333333</ele><time>2026-04-05T17:49:17.999Z</time></trkpt><trkpt lat="44.30226015059134" lon="10.838662398463585"><ele>730.1666666666666</ele><time>2026-04-05T17:49:18.999Z</time></trkpt><trkpt lat="44.302276878915706" lon="10.838508916671561"><ele>731.0</ele><time>2026-04-05T17:49:20.999Z</time></trkpt><trkpt lat="44.30225642896389" lon="10.838368911775161"><ele>734.0</ele><time>2026-04-05T17:49:22.999Z</time></trkpt><trkpt lat="44.302203349306524" lon="10.838306299040912"><ele>737.0</ele><time>2026-04-05T17:49:23.999Z</time></trkpt><trkpt lat="44.30208052104633" lon="10.83831039010167"><ele>740.0</ele><time>2026-04-05T17:49:25.999Z</time></trkpt><trkpt lat="44.302013680697826" lon="10.838308472776694"><ele>743.0</ele><time>2026-04-05T17:49:26.999Z</time></trkpt><trkpt lat="44.30195811722653" lon="10.838196471774648"><ele>746.0</ele><time>2026-04-05T17:49:28.999Z</time></trkpt><trkpt lat="44.301922032958124" lon="10.838043236382635"><ele>746.0</ele><time>2026-04-05T17:49:30.999Z</time></trkpt><trkpt lat="44.301896755398566" lon="10.837950240449127"><ele>746.0</ele><time>2026-04-05T17:49:31.999Z</time></trkpt><trkpt lat="44.301840043739304" lon="10.837828337986632"><ele>746.0</ele><time>2026-04-05T17:49:33.999Z</time></trkpt><trkpt lat="44.30178111217413" lon="10.837782882873304"><ele>746.0</ele><time>2026-04-05T17:49:34.999Z</time></trkpt><trkpt lat="44.30170584164021" lon="10.837663349455696"><ele>746.0</ele><time>2026-04-05T17:49:36.999Z</time></trkpt><trkpt lat="44.30166398400699" lon="10.837579634095444"><ele>746.0</ele><time>2026-04-05T17:49:37.999Z</time></trkpt><trkpt lat="44.30161779716571" lon="10.83751485695398"><ele>748.4</ele><time>2026-04-05T17:49:38.999Z</time></trkpt><trkpt lat="44.30152981179653" lon="10.83740583519539"><ele>750.8</ele><time>2026-04-05T17:49:40.998Z</time></trkpt><trkpt lat="44.30146428537756" lon="10.837284483132931"><ele>753.1999999999999</ele><time>2026-04-05T17:49:42.998Z</time></trkpt><trkpt lat="44.30140659207243" lon="10.837237762652048"><ele>755.5999999999999</ele><time>2026-04-05T17:49:43.998Z</time></trkpt><trkpt lat="44.30128496981" lon="10.837154239928127"><ele>758.0</ele><time>2026-04-05T17:49:45.998Z</time></trkpt><trkpt lat="44.30123081783613" lon="10.83708892887494"><ele>760.0</ele><time>2026-04-05T17:49:46.998Z</time></trkpt><trkpt lat="44.301124787189565" lon="10.83697378900505"><ele>762.0</ele><time>2026-04-05T17:49:48.998Z</time></trkpt><trkpt lat="44.30104846189672" lon="10.836963136137305"><ele>764.0</ele><time>2026-04-05T17:49:50.998Z</time></trkpt><trkpt lat="44.30098706569688" lon="10.836940479594356"><ele>766.0</ele><time>2026-04-05T17:49:51.998Z</time></trkpt><trkpt lat="44.30094224041865" lon="10.836792105989053"><ele>768.0</ele><time>2026-04-05T17:49:53.998Z</time></trkpt><trkpt lat="44.30094410109592" lon="10.836698951847037"><ele>770.2</ele><time>2026-04-05T17:49:54.998Z</time></trkpt><trkpt lat="44.30089827395416" lon="10.836566669031905"><ele>772.4</ele><time>2026-04-05T17:49:56.998Z</time></trkpt><trkpt lat="44.30088940281677" lon="10.836389477018217"><ele>774.6</ele><time>2026-04-05T17:49:58.998Z</time></trkpt><trkpt lat="44.300900624423875" lon="10.836252534363124"><ele>776.8000000000001</ele><time>2026-04-05T17:49:59.998Z</time></trkpt><trkpt lat="44.3009247249772" lon="10.836137753373283"><ele>779.0</ele><time>2026-04-05T17:50:00.998Z</time></trkpt><trkpt lat="44.300932516449315" lon="10.836039805494792"><ele>780.6666666666667</ele><time>2026-04-05T17:50:01.998Z</time></trkpt><trkpt lat="44.30099274476668" lon="10.835927892163884"><ele>782.3333333333334</ele><time>2026-04-05T17:50:03.998Z</time></trkpt><trkpt lat="44.301049975810905" lon="10.83588307559776"><ele>784.0</ele><time>2026-04-05T17:50:04.998Z</time></trkpt><trkpt lat="44.301115722785006" lon="10.835823482160826"><ele>785.6666666666667</ele><time>2026-04-05T17:50:05.998Z</time></trkpt><trkpt lat="44.301172204416204" lon="10.835775088723333"><ele>787.3333333333334</ele><time>2026-04-05T17:50:06.998Z</time></trkpt><trkpt lat="44.30118247605574" lon="10.835637412482354"><ele>789.0</ele><time>2026-04-05T17:50:08.998Z</time></trkpt><trkpt lat="44.30117107271498" lon="10.835547459849954"><ele>789.0</ele><time>2026-04-05T17:50:09.998Z</time></trkpt><trkpt lat="44.30110366740065" lon="10.835406437837522"><ele>789.0</ele><time>2026-04-05T17:50:11.998Z</time></trkpt><trkpt lat="44.30103746610003" lon="10.83534743044096"><ele>789.0</ele><time>2026-04-05T17:50:12.998Z</time></trkpt><trkpt lat="44.30096724533384" lon="10.83527568374024"><ele>789.0</ele><time>2026-04-05T17:50:13.998Z</time></trkpt><trkpt lat="44.3009113135187" lon="10.835198679747618"><ele>789.0</ele><time>2026-04-05T17:50:14.998Z</time></trkpt><trkpt lat="44.30085306041356" lon="10.835139403805753"><ele>789.0</ele><time>2026-04-05T17:50:15.998Z</time></trkpt><trkpt lat="44.300783975525476" lon="10.835089714167152"><ele>790.3333333333334</ele><time>2026-04-05T17:50:16.998Z</time></trkpt><trkpt lat="44.30072649441128" lon="10.8350360490018"><ele>791.6666666666667</ele><time>2026-04-05T17:50:18Z</time></trkpt><trkpt lat="44.30068631132911" lon="10.834959140935576"><ele>793.0</ele><time>2026-04-05T17:50:19Z</time></trkpt><trkpt lat="44.30063456031318" lon="10.834863251340808"><ele>794.3333333333334</ele><time>2026-04-05T17:50:20Z</time></trkpt><trkpt lat="44.300584654656326" lon="10.834784889658563"><ele>795.6666666666667</ele><time>2026-04-05T17:50:21Z</time></trkpt><trkpt lat="44.300518724015525" lon="10.8347197889054"><ele>797.0</ele><time>2026-04-05T17:50:22Z</time></trkpt><trkpt lat="44.30045767271917" lon="10.834645428455252"><ele>797.6666666666667</ele><time>2026-04-05T17:50:23Z</time></trkpt><trkpt lat="44.30039539975191" lon="10.834556688064472"><ele>798.3333333333334</ele><time>2026-04-05T17:50:23.999Z</time></trkpt><trkpt lat="44.30033167294111" lon="10.834473786615812"><ele>799.0</ele><time>2026-04-05T17:50:24.999Z</time></trkpt><trkpt lat="44.300287735478804" lon="10.834402004794338"><ele>799.6666666666667</ele><time>2026-04-05T17:50:25.999Z</time></trkpt><trkpt lat="44.300238413125705" lon="10.834323691259744"><ele>800.3333333333334</ele><time>2026-04-05T17:50:26.999Z</time></trkpt><trkpt lat="44.300192435186304" lon="10.834181104782315"><ele>801.0</ele><time>2026-04-05T17:50:28.999Z</time></trkpt><trkpt lat="44.30018886319471" lon="10.834091327682275"><ele>801.0</ele><time>2026-04-05T17:50:29.999Z</time></trkpt><trkpt lat="44.30020280603689" lon="10.834005000946098"><ele>801.0</ele><time>2026-04-05T17:50:30.999Z</time></trkpt><trkpt lat="44.300264805940316" lon="10.833849634216536"><ele>801.0</ele><time>2026-04-05T17:50:32.999Z</time></trkpt><trkpt lat="44.300315484750435" lon="10.83378025559395"><ele>801.0</ele><time>2026-04-05T17:50:33.999Z</time></trkpt><trkpt lat="44.3004103865487" lon="10.833726358038525"><ele>801.0</ele><time>2026-04-05T17:50:35.999Z</time></trkpt><trkpt lat="44.30049361462194" lon="10.833651243438748"><ele>801.0</ele><time>2026-04-05T17:50:37.999Z</time></trkpt><trkpt lat="44.30044665067783" lon="10.833529401063464"><ele>801.0</ele><time>2026-04-05T17:50:39.999Z</time></trkpt><trkpt lat="44.30038605180136" lon="10.833464209598942"><ele>801.0</ele><time>2026-04-05T17:50:40.999Z</time></trkpt><trkpt lat="44.300327922175" lon="10.833410427155053"><ele>801.0</ele><time>2026-04-05T17:50:41.999Z</time></trkpt><trkpt lat="44.300256025104275" lon="10.83334459856441"><ele>801.0</ele><time>2026-04-05T17:50:43.999Z</time></trkpt><trkpt lat="44.30018811706574" lon="10.833320182250482"><ele>801.0</ele><time>2026-04-05T17:50:45.999Z</time></trkpt><trkpt lat="44.30018045945343" lon="10.833229900978232"><ele>800.6666666666666</ele><time>2026-04-05T17:50:47.999Z</time></trkpt><trkpt lat="44.30016155595815" lon="10.833086230691135"><ele>800.3333333333333</ele><time>2026-04-05T17:50:49.999Z</time></trkpt><trkpt lat="44.300086006796555" lon="10.833117724884408"><ele>800.0</ele><time>2026-04-05T17:50:51.999Z</time></trkpt><trkpt lat="44.30003551002073" lon="10.833175901248715"><ele>799.6666666666666</ele><time>2026-04-05T17:50:52.999Z</time></trkpt><trkpt lat="44.29997424506338" lon="10.833258679731696"><ele>799.3333333333333</ele><time>2026-04-05T17:50:53.999Z</time></trkpt><trkpt lat="44.2999151799201" lon="10.833331471522063"><ele>799.0</ele><time>2026-04-05T17:50:54.999Z</time></trkpt><trkpt lat="44.29983412937128" lon="10.833436636195525"><ele>803.2</ele><time>2026-04-05T17:50:55.999Z</time></trkpt><trkpt lat="44.29974937003251" lon="10.833536516177366"><ele>807.4000000000001</ele><time>2026-04-05T17:50:56.999Z</time></trkpt><trkpt lat="44.29965577943757" lon="10.833619632851162"><ele>811.6</ele><time>2026-04-05T17:50:57.999Z</time></trkpt><trkpt lat="44.29955520800176" lon="10.83370189629826"><ele>815.8</ele><time>2026-04-05T17:50:58.999Z</time></trkpt><trkpt lat="44.29947941125104" lon="10.833744736100995"><ele>820.0</ele><time>2026-04-05T17:50:59.999Z</time></trkpt><trkpt lat="44.299386660622865" lon="10.833804449227124"><ele>819.9999999999999</ele><time>2026-04-05T17:51:00.999Z</time></trkpt><trkpt lat="44.29931348099502" lon="10.833862852845"><ele>820.0</ele><time>2026-04-05T17:51:01.999Z</time></trkpt><trkpt lat="44.29923996792608" lon="10.833927675827491"><ele>820.0</ele><time>2026-04-05T17:51:02.999Z</time></trkpt><trkpt lat="44.29917610467508" lon="10.833966271043394"><ele>820.0</ele><time>2026-04-05T17:51:03.999Z</time></trkpt><trkpt lat="44.29908773957599" lon="10.833989689323179"><ele>819.9999999999999</ele><time>2026-04-05T17:51:04.999Z</time></trkpt><trkpt lat="44.29900848443602" lon="10.833997898755088"><ele>820.0</ele><time>2026-04-05T17:51:05.999Z</time></trkpt><trkpt lat="44.29889733989708" lon="10.833919868132314"><ele>821.1666666666666</ele><time>2026-04-05T17:51:07.999Z</time></trkpt><trkpt lat="44.29883605984351" lon="10.833846966467808"><ele>822.3333333333333</ele><time>2026-04-05T17:51:08.999Z</time></trkpt><trkpt lat="44.29879255503801" lon="10.833765010560912"><ele>823.5</ele><time>2026-04-05T17:51:09.999Z</time></trkpt><trkpt lat="44.29873203634716" lon="10.833640695857111"><ele>824.6666666666667</ele><time>2026-04-05T17:51:11.999Z</time></trkpt><trkpt lat="44.29865890224625" lon="10.83362954661557"><ele>825.8333333333334</ele><time>2026-04-05T17:51:13.999Z</time></trkpt><trkpt lat="44.29856191260719" lon="10.833695671924916"><ele>827.0</ele><time>2026-04-05T17:51:15.999Z</time></trkpt><trkpt lat="44.29849088373642" lon="10.833771948233036"><ele>827.0000000000001</ele><time>2026-04-05T17:51:17.999Z</time></trkpt><trkpt lat="44.29838896208377" lon="10.83374161652832"><ele>827.0</ele><time>2026-04-05T17:51:19.999Z</time></trkpt><trkpt lat="44.2983298469236" lon="10.833680888822874"><ele>827.0</ele><time>2026-04-05T17:51:20.999Z</time></trkpt><trkpt lat="44.29826897025993" lon="10.833639714328626"><ele>827.0</ele><time>2026-04-05T17:51:21.999Z</time></trkpt><trkpt lat="44.2981834278197" lon="10.833622298419716"><ele>827.0000000000001</ele><time>2026-04-05T17:51:23.999Z</time></trkpt><trkpt lat="44.29813423331483" lon="10.833516903870958"><ele>827.0</ele><time>2026-04-05T17:51:25.999Z</time></trkpt><trkpt lat="44.29813826780221" lon="10.83342387982978"><ele>826.3333333333334</ele><time>2026-04-05T17:51:26.999Z</time></trkpt><trkpt lat="44.29811856043367" lon="10.833330561642548"><ele>825.6666666666667</ele><time>2026-04-05T17:51:27.999Z</time></trkpt><trkpt lat="44.29806912595662" lon="10.833236083641092"><ele>825.0</ele><time>2026-04-05T17:51:28.999Z</time></trkpt><trkpt lat="44.29800573525167" lon="10.833144440255406"><ele>824.3333333333333</ele><time>2026-04-05T17:51:29.999Z</time></trkpt><trkpt lat="44.297935158540064" lon="10.8331047705392"><ele>823.6666666666666</ele><time>2026-04-05T17:51:30.999Z</time></trkpt><trkpt lat="44.2978283890448" lon="10.833057258722832"><ele>823.0</ele><time>2026-04-05T17:51:31.999Z</time></trkpt><trkpt lat="44.29773037122046" lon="10.832981172768315"><ele>825.25</ele><time>2026-04-05T17:51:32.999Z</time></trkpt><trkpt lat="44.297626470666245" lon="10.832891666028917"><ele>827.5</ele><time>2026-04-05T17:51:33.999Z</time></trkpt><trkpt lat="44.29751778070135" lon="10.832784855262275"><ele>829.75</ele><time>2026-04-05T17:51:34.999Z</time></trkpt><trkpt lat="44.29743987103474" lon="10.832644140408437"><ele>832.0</ele><time>2026-04-05T17:51:35.999Z</time></trkpt><trkpt lat="44.29736661113956" lon="10.832521222142697"><ele>832.8</ele><time>2026-04-05T17:51:36.999Z</time></trkpt><trkpt lat="44.2973000269107" lon="10.832400132522542"><ele>833.6</ele><time>2026-04-05T17:51:37.999Z</time></trkpt><trkpt lat="44.29723349563295" lon="10.832267744109645"><ele>834.4</ele><time>2026-04-05T17:51:38.999Z</time></trkpt><trkpt lat="44.29716187919759" lon="10.832149487679006"><ele>835.1999999999999</ele><time>2026-04-05T17:51:39.999Z</time></trkpt><trkpt lat="44.2970745160044" lon="10.832075024695264"><ele>836.0</ele><time>2026-04-05T17:51:40.999Z</time></trkpt><trkpt lat="44.29696532823007" lon="10.832019103299903"><ele>836.0</ele><time>2026-04-05T17:51:41.999Z</time></trkpt><trkpt lat="44.29684482984688" lon="10.831976607847691"><ele>836.0</ele><time>2026-04-05T17:51:42.999Z</time></trkpt><trkpt lat="44.29673439683975" lon="10.831923475849681"><ele>836.0</ele><time>2026-04-05T17:51:43.999Z</time></trkpt><trkpt lat="44.29664791722709" lon="10.83181971206279"><ele>836.0</ele><time>2026-04-05T17:51:44.999Z</time></trkpt><trkpt lat="44.29656142368832" lon="10.831663941285486"><ele>838.3333333333334</ele><time>2026-04-05T17:51:45.999Z</time></trkpt><trkpt lat="44.29647729206092" lon="10.831484726455443"><ele>840.6666666666667</ele><time>2026-04-05T17:51:46.999Z</time></trkpt><trkpt lat="44.296378422562476" lon="10.831303256487955"><ele>843.0</ele><time>2026-04-05T17:51:47.999Z</time></trkpt><trkpt lat="44.2962814600366" lon="10.831163301882512"><ele>843.0</ele><time>2026-04-05T17:51:48.999Z</time></trkpt><trkpt lat="44.296192679342596" lon="10.83103539686049"><ele>843.0</ele><time>2026-04-05T17:51:49.998Z</time></trkpt><trkpt lat="44.296120254688475" lon="10.830934491516311"><ele>843.0</ele><time>2026-04-05T17:51:50.998Z</time></trkpt><trkpt lat="44.29605424707588" lon="10.83083777910887"><ele>843.0</ele><time>2026-04-05T17:51:51.998Z</time></trkpt><trkpt lat="44.29598838942239" lon="10.830736673711417"><ele>843.0</ele><time>2026-04-05T17:51:53.998Z</time></trkpt><trkpt lat="44.29606311707694" lon="10.830598821981246"><ele>845.5</ele><time>2026-04-05T17:51:55.998Z</time></trkpt><trkpt lat="44.29612620404626" lon="10.830510692068916"><ele>848.0</ele><time>2026-04-05T17:51:56.998Z</time></trkpt><trkpt lat="44.29619741912644" lon="10.830394850531594"><ele>850.5</ele><time>2026-04-05T17:51:57.998Z</time></trkpt><trkpt lat="44.29630698925559" lon="10.830275445401197"><ele>853.0</ele><time>2026-04-05T17:51:58.998Z</time></trkpt><trkpt lat="44.29644009617305" lon="10.830172087803922"><ele>852.75</ele><time>2026-04-05T17:51:59.998Z</time></trkpt><trkpt lat="44.2965497878603" lon="10.8300412779499"><ele>852.5</ele><time>2026-04-05T17:52:00.998Z</time></trkpt><trkpt lat="44.29665593761835" lon="10.829940253801245"><ele>852.25</ele><time>2026-04-05T17:52:01.998Z</time></trkpt><trkpt lat="44.29674343215992" lon="10.829837882010109"><ele>852.0</ele><time>2026-04-05T17:52:02.998Z</time></trkpt><trkpt lat="44.296827253333745" lon="10.829734582330463"><ele>852.0</ele><time>2026-04-05T17:52:03.998Z</time></trkpt><trkpt lat="44.29690568752827" lon="10.829649730791314"><ele>852.0</ele><time>2026-04-05T17:52:04.998Z</time></trkpt><trkpt lat="44.29698654008214" lon="10.829570245955718"><ele>852.0</ele><time>2026-04-05T17:52:05.998Z</time></trkpt><trkpt lat="44.29707056307518" lon="10.829499008814711"><ele>852.0</ele><time>2026-04-05T17:52:06.998Z</time></trkpt><trkpt lat="44.29715022810054" lon="10.829439212500711"><ele>852.0</ele><time>2026-04-05T17:52:07.998Z</time></trkpt><trkpt lat="44.29722359475537" lon="10.829388006646841"><ele>852.1666666666666</ele><time>2026-04-05T17:52:08.998Z</time></trkpt><trkpt lat="44.29728730808572" lon="10.829351121237424"><ele>852.3333333333333</ele><time>2026-04-05T17:52:09.998Z</time></trkpt><trkpt lat="44.29736645984172" lon="10.829286581269256"><ele>852.5</ele><time>2026-04-05T17:52:11.998Z</time></trkpt><trkpt lat="44.29735587649285" lon="10.829188449763963"><ele>852.6666666666666</ele><time>2026-04-05T17:52:13.998Z</time></trkpt><trkpt lat="44.29726465911879" lon="10.829081531721336"><ele>852.8333333333333</ele><time>2026-04-05T17:52:15.998Z</time></trkpt><trkpt lat="44.29720652557032" lon="10.82901468590381"><ele>853.0</ele><time>2026-04-05T17:52:16.998Z</time></trkpt><trkpt lat="44.29715712605472" lon="10.828935321612652"><ele>852.2</ele><time>2026-04-05T17:52:17.998Z</time></trkpt><trkpt lat="44.29709260467509" lon="10.828850259244621"><ele>851.4</ele><time>2026-04-05T17:52:18.998Z</time></trkpt><trkpt lat="44.297013693334875" lon="10.828775877715215"><ele>850.6</ele><time>2026-04-05T17:52:19.998Z</time></trkpt><trkpt lat="44.29694320576377" lon="10.828739574694325"><ele>849.8000000000001</ele><time>2026-04-05T17:52:20.998Z</time></trkpt><trkpt lat="44.29686006805444" lon="10.828673918922425"><ele>849.0</ele><time>2026-04-05T17:52:22.998Z</time></trkpt><trkpt lat="44.29692806240941" lon="10.828541565555463"><ele>849.0</ele><time>2026-04-05T17:52:27Z</time></trkpt><trkpt lat="44.29696351935173" lon="10.828455482552467"><ele>849.0</ele><time>2026-04-05T17:52:29Z</time></trkpt><trkpt lat="44.29692765573042" lon="10.82836927618497"><ele>849.0</ele><time>2026-04-05T17:52:31Z</time></trkpt><trkpt lat="44.29702633668734" lon="10.828420377882397"><ele>849.0</ele><time>2026-04-05T18:17:19.999Z</time></trkpt><trkpt lat="44.296954515957374" lon="10.828388859208674"><ele>849.0</ele><time>2026-04-05T18:17:27.998Z</time></trkpt><trkpt lat="44.29689574748898" lon="10.828423935619348"><ele>849.0</ele><time>2026-04-05T18:20:29.999Z</time></trkpt><trkpt lat="44.29694896132866" lon="10.828495836568532"><ele>849.0</ele><time>2026-04-05T18:31:03.999Z</time></trkpt><trkpt lat="44.296867222097816" lon="10.828533468978378"><ele>849.0</ele><time>2026-04-05T18:31:15.999Z</time></trkpt><trkpt lat="44.29683700084782" lon="10.828625825580344"><ele>849.0</ele><time>2026-04-05T18:31:24.999Z</time></trkpt><trkpt lat="44.29679502795248" lon="10.828706586486373"><ele>849.0</ele><time>2026-04-05T18:31:26.999Z</time></trkpt><trkpt lat="44.29686276180746" lon="10.828679843043867"><ele>849.0</ele><time>2026-04-05T18:31:30.999Z</time></trkpt><trkpt lat="44.29692127460229" lon="10.828622087982644"><ele>849.0</ele><time>2026-04-05T18:31:34.999Z</time></trkpt><trkpt lat="44.29688712043341" lon="10.828756451758121"><ele>849.0</ele><time>2026-04-05T18:31:44.998Z</time></trkpt><trkpt lat="44.29684497755657" lon="10.828835441862296"><ele>849.0</ele><time>2026-04-05T18:31:51.998Z</time></trkpt><trkpt lat="44.296854288287385" lon="10.828927559310074"><ele>849.0</ele><time>2026-04-05T18:31:55.998Z</time></trkpt><trkpt lat="44.29695456942282" lon="10.828988336237423"><ele>849.0</ele><time>2026-04-05T18:32:09.998Z</time></trkpt><trkpt lat="44.29700479320512" lon="10.828878995498481"><ele>849.0</ele><time>2026-04-05T18:32:13Z</time></trkpt><trkpt lat="44.2969867258993" lon="10.82845738789676"><ele>847.6666666666666</ele><time>2026-04-05T18:33:35.999Z</time></trkpt><trkpt lat="44.297045426072636" lon="10.828401508836704"><ele>846.3333333333333</ele><time>2026-04-05T18:33:39.999Z</time></trkpt><trkpt lat="44.296987169358005" lon="10.828436025822224"><ele>845.0</ele><time>2026-04-05T18:34:06.998Z</time></trkpt><trkpt lat="44.297052203537255" lon="10.828370354254114"><ele>843.6666666666666</ele><time>2026-04-05T18:34:51.999Z</time></trkpt><trkpt lat="44.29699169126" lon="10.828341065814428"><ele>842.3333333333333</ele><time>2026-04-05T18:34:57.999Z</time></trkpt><trkpt lat="44.296896994146145" lon="10.828373333720085"><ele>841.0</ele><time>2026-04-05T18:35:41.999Z</time></trkpt><trkpt lat="44.29697135473652" lon="10.828426122520334"><ele>840.9999999999999</ele><time>2026-04-05T18:36:10.998Z</time></trkpt><trkpt lat="44.29689982126546" lon="10.828444358547252"><ele>841.0</ele><time>2026-04-05T18:36:54.999Z</time></trkpt><trkpt lat="44.29694713422947" lon="10.828335082514371"><ele>841.0</ele><time>2026-04-05T18:37:09.999Z</time></trkpt><trkpt lat="44.29694079334161" lon="10.828427320426126"><ele>841.0</ele><time>2026-04-05T18:40:32.998Z</time></trkpt><trkpt lat="44.29701485827991" lon="10.828368525130436"><ele>840.9999999999999</ele><time>2026-04-05T18:41:14Z</time></trkpt><trkpt lat="44.29707180661418" lon="10.828283683514377"><ele>841.0</ele><time>2026-04-05T18:41:16Z</time></trkpt><trkpt lat="44.29717570291911" lon="10.82823677571702"><ele>841.0</ele><time>2026-04-05T18:41:18Z</time></trkpt><trkpt lat="44.29721745927117" lon="10.828153810404693"><ele>841.0</ele><time>2026-04-05T18:41:21Z</time></trkpt><trkpt lat="44.29716390929666" lon="10.828205533924445"><ele>841.0</ele><time>2026-04-05T18:41:23Z</time></trkpt><trkpt lat="44.297128168693426" lon="10.828286355993056"><ele>841.0</ele><time>2026-04-05T18:41:30Z</time></trkpt><trkpt lat="44.29710494390982" lon="10.82837816325916"><ele>841.0</ele><time>2026-04-05T18:41:31Z</time></trkpt><trkpt lat="44.29704699181893" lon="10.828413095462986"><ele>841.0</ele><time>2026-04-05T18:41:36Z</time></trkpt><trkpt lat="44.296977851879305" lon="10.828408015646675"><ele>841.0</ele><time>2026-04-05T18:41:45Z</time></trkpt><trkpt lat="44.29692531333704" lon="10.82847144824535"><ele>840.9999999999999</ele><time>2026-04-05T18:42:18.999Z</time></trkpt><trkpt lat="44.29689468454964" lon="10.828557145925057"><ele>841.0</ele><time>2026-04-05T18:42:26.999Z</time></trkpt><trkpt lat="44.296840691720575" lon="10.828483460309469"><ele>841.0</ele><time>2026-04-05T18:43:00Z</time></trkpt><trkpt lat="44.29676799025009" lon="10.82846667836132"><ele>841.0</ele><time>2026-04-05T18:43:37Z</time></trkpt><trkpt lat="44.29669922679341" lon="10.828452412093858"><ele>840.9999999999999</ele><time>2026-04-05T18:43:40Z</time></trkpt><trkpt lat="44.296645262515895" lon="10.828402265125549"><ele>841.0</ele><time>2026-04-05T18:43:43Z</time></trkpt><trkpt lat="44.29653492349681" lon="10.828357618003329"><ele>841.0</ele><time>2026-04-05T18:43:46Z</time></trkpt><trkpt lat="44.29647688877721" lon="10.828409037212369"><ele>841.0</ele><time>2026-04-05T18:43:54Z</time></trkpt><trkpt lat="44.29656966940273" lon="10.828373923268794"><ele>841.0</ele><time>2026-04-05T18:43:58.999Z</time></trkpt><trkpt lat="44.296633032437" lon="10.82832788465836"><ele>841.0</ele><time>2026-04-05T18:44:04.999Z</time></trkpt><trkpt lat="44.296682738423854" lon="10.828398154458196"><ele>841.0</ele><time>2026-04-05T18:44:07.999Z</time></trkpt><trkpt lat="44.29667043471298" lon="10.828669466355946"><ele>843.0</ele><time>2026-04-05T18:44:16.999Z</time></trkpt><trkpt lat="44.296629761908235" lon="10.828760774020765"><ele>845.0</ele><time>2026-04-05T18:44:18.999Z</time></trkpt><trkpt lat="44.296651063566834" lon="10.828849957696017"><ele>847.0</ele><time>2026-04-05T18:44:20.999Z</time></trkpt><trkpt lat="44.29658935212096" lon="10.82889239780242"><ele>849.0</ele><time>2026-04-05T18:44:22.999Z</time></trkpt><trkpt lat="44.29698766771317" lon="10.828877311592638"><ele>849.0</ele><time>2026-04-05T18:44:32.999Z</time></trkpt><trkpt lat="44.29692430365806" lon="10.828641242605755"><ele>849.0</ele><time>2026-04-05T18:44:58.999Z</time></trkpt><trkpt lat="44.297355495997635" lon="10.828905202842567"><ele>849.0</ele><time>2026-04-05T18:45:02Z</time></trkpt><trkpt lat="44.296908894413455" lon="10.828563458075891"><ele>849.0</ele><time>2026-04-05T18:45:05Z</time></trkpt><trkpt lat="44.296840772719506" lon="10.828562837648565"><ele>849.0</ele><time>2026-04-05T18:51:08.999Z</time></trkpt><trkpt lat="44.296766621426904" lon="10.828561534061524"><ele>849.0</ele><time>2026-04-05T18:51:16.999Z</time></trkpt><trkpt lat="44.29679837127207" lon="10.828459970097224"><ele>849.0</ele><time>2026-04-05T18:51:28Z</time></trkpt><trkpt lat="44.2969384176073" lon="10.828417017222733"><ele>849.0</ele><time>2026-04-05T18:52:50.999Z</time></trkpt><trkpt lat="44.29686430172074" lon="10.828480947146609"><ele>849.0</ele><time>2026-04-05T18:53:26Z</time></trkpt></trkseg></trk></gpx>